<?xml version="1.0" encoding="UTF-8" standalone="no" ?>
<gpx xmlns="http://www.topografix.com/GPX/1/1" xmlns:xsi="http://www.w3.org/2001/XMLSchema-instance" xsi:schemaLocation="http://www.topografix.com/GPX/1/1 http://www.topografix.com/GPX/1/1/gpx.xsd" version="1.1" creator="VisuGPX - https://www.visugpx.com">
  <metadata>
    <name>tête de Barbalon en traversée Est Ouest</name>
    <desc><![CDATA[De Moulin Vieux gagner la cabane de Combe Oursière(1720) puis monter dans les rhodo en suivant une vague sente qui se rapproche de la falaise pour déboucher au col 2062m
Suivre l\'arête jusqu\'à Roche Frette puis la tête de Barbalon.
descente sur la cabane du Rocher Roux par un chemin de crête
par des pistes forestières regagner le parking 
 ]]></desc>
  </metadata>
  <trk>
    <name><![CDATA[2011-11-29-barbalon]]></name>
    <trkseg>
      <trkpt lat="45.00947" lon="5.91468">
        <ele>1255.8</ele>
        <time>2011-11-29T08:02:23Z</time>
      </trkpt>
      <trkpt lat="45.00955" lon="5.91462">
        <ele>1255.6</ele>
        <time>2011-11-29T08:03:29Z</time>
      </trkpt>
      <trkpt lat="45.00952" lon="5.91461">
        <ele>1255.5</ele>
        <time>2011-11-29T08:03:51Z</time>
      </trkpt>
      <trkpt lat="45.00952" lon="5.91461">
        <ele>1255.5</ele>
        <time>2011-11-29T08:03:52Z</time>
      </trkpt>
      <trkpt lat="45.00951" lon="5.91473">
        <ele>1255.1</ele>
        <time>2011-11-29T08:04:36Z</time>
      </trkpt>
      <trkpt lat="45.0095" lon="5.91486">
        <ele>1255.3</ele>
        <time>2011-11-29T08:04:45Z</time>
      </trkpt>
      <trkpt lat="45.00952" lon="5.91497">
        <ele>1256.1</ele>
        <time>2011-11-29T08:04:56Z</time>
      </trkpt>
      <trkpt lat="45.00954" lon="5.91509">
        <ele>1256.4</ele>
        <time>2011-11-29T08:05:13Z</time>
      </trkpt>
      <trkpt lat="45.00953" lon="5.91521">
        <ele>1256.9</ele>
        <time>2011-11-29T08:05:22Z</time>
      </trkpt>
      <trkpt lat="45.00954" lon="5.91534">
        <ele>1257.2</ele>
        <time>2011-11-29T08:05:31Z</time>
      </trkpt>
      <trkpt lat="45.00952" lon="5.91546">
        <ele>1257.8</ele>
        <time>2011-11-29T08:05:40Z</time>
      </trkpt>
      <trkpt lat="45.00949" lon="5.91557">
        <ele>1258.1</ele>
        <time>2011-11-29T08:05:49Z</time>
      </trkpt>
      <trkpt lat="45.00945" lon="5.91568">
        <ele>1259.2</ele>
        <time>2011-11-29T08:05:57Z</time>
      </trkpt>
      <trkpt lat="45.00941" lon="5.91579">
        <ele>1258.9</ele>
        <time>2011-11-29T08:06:05Z</time>
      </trkpt>
      <trkpt lat="45.00938" lon="5.91591">
        <ele>1260</ele>
        <time>2011-11-29T08:06:13Z</time>
      </trkpt>
      <trkpt lat="45.00935" lon="5.91602">
        <ele>1260</ele>
        <time>2011-11-29T08:06:22Z</time>
      </trkpt>
      <trkpt lat="45.00929" lon="5.91611">
        <ele>1259.6</ele>
        <time>2011-11-29T08:06:29Z</time>
      </trkpt>
      <trkpt lat="45.00924" lon="5.91619">
        <ele>1259.6</ele>
        <time>2011-11-29T08:06:36Z</time>
      </trkpt>
      <trkpt lat="45.00917" lon="5.91627">
        <ele>1260.5</ele>
        <time>2011-11-29T08:06:43Z</time>
      </trkpt>
      <trkpt lat="45.0091" lon="5.91632">
        <ele>1260.2</ele>
        <time>2011-11-29T08:06:55Z</time>
      </trkpt>
      <trkpt lat="45.00901" lon="5.91632">
        <ele>1261.5</ele>
        <time>2011-11-29T08:07:03Z</time>
      </trkpt>
      <trkpt lat="45.00893" lon="5.91635">
        <ele>1262.1</ele>
        <time>2011-11-29T08:07:12Z</time>
      </trkpt>
      <trkpt lat="45.00885" lon="5.91632">
        <ele>1263.4</ele>
        <time>2011-11-29T08:07:23Z</time>
      </trkpt>
      <trkpt lat="45.00878" lon="5.91626">
        <ele>1263.7</ele>
        <time>2011-11-29T08:07:30Z</time>
      </trkpt>
      <trkpt lat="45.00871" lon="5.9162">
        <ele>1263.9</ele>
        <time>2011-11-29T08:07:37Z</time>
      </trkpt>
      <trkpt lat="45.00866" lon="5.9161">
        <ele>1265.6</ele>
        <time>2011-11-29T08:07:47Z</time>
      </trkpt>
      <trkpt lat="45.00861" lon="5.916">
        <ele>1265.7</ele>
        <time>2011-11-29T08:07:58Z</time>
      </trkpt>
      <trkpt lat="45.00859" lon="5.91588">
        <ele>1267.1</ele>
        <time>2011-11-29T08:08:10Z</time>
      </trkpt>
      <trkpt lat="45.00863" lon="5.91578">
        <ele>1269</ele>
        <time>2011-11-29T08:08:19Z</time>
      </trkpt>
      <trkpt lat="45.00862" lon="5.91566">
        <ele>1270.4</ele>
        <time>2011-11-29T08:08:27Z</time>
      </trkpt>
      <trkpt lat="45.00861" lon="5.91555">
        <ele>1271.6</ele>
        <time>2011-11-29T08:08:35Z</time>
      </trkpt>
      <trkpt lat="45.00858" lon="5.91543">
        <ele>1272.2</ele>
        <time>2011-11-29T08:08:43Z</time>
      </trkpt>
      <trkpt lat="45.00857" lon="5.91531">
        <ele>1273.9</ele>
        <time>2011-11-29T08:08:53Z</time>
      </trkpt>
      <trkpt lat="45.00859" lon="5.91519">
        <ele>1275.4</ele>
        <time>2011-11-29T08:09:05Z</time>
      </trkpt>
      <trkpt lat="45.00851" lon="5.91527">
        <ele>1281</ele>
        <time>2011-11-29T08:09:35Z</time>
      </trkpt>
      <trkpt lat="45.00846" lon="5.91535">
        <ele>1282.4</ele>
        <time>2011-11-29T08:09:48Z</time>
      </trkpt>
      <trkpt lat="45.00839" lon="5.91542">
        <ele>1283.1</ele>
        <time>2011-11-29T08:09:59Z</time>
      </trkpt>
      <trkpt lat="45.00832" lon="5.91549">
        <ele>1284.1</ele>
        <time>2011-11-29T08:10:09Z</time>
      </trkpt>
      <trkpt lat="45.00824" lon="5.91556">
        <ele>1285.5</ele>
        <time>2011-11-29T08:10:22Z</time>
      </trkpt>
      <trkpt lat="45.00818" lon="5.91563">
        <ele>1286.1</ele>
        <time>2011-11-29T08:10:32Z</time>
      </trkpt>
      <trkpt lat="45.0081" lon="5.91568">
        <ele>1287.9</ele>
        <time>2011-11-29T08:10:40Z</time>
      </trkpt>
      <trkpt lat="45.00804" lon="5.91577">
        <ele>1288.7</ele>
        <time>2011-11-29T08:10:49Z</time>
      </trkpt>
      <trkpt lat="45.008" lon="5.91587">
        <ele>1289.4</ele>
        <time>2011-11-29T08:11:00Z</time>
      </trkpt>
      <trkpt lat="45.00796" lon="5.91597">
        <ele>1291.7</ele>
        <time>2011-11-29T08:11:11Z</time>
      </trkpt>
      <trkpt lat="45.00792" lon="5.91609">
        <ele>1292.4</ele>
        <time>2011-11-29T08:11:21Z</time>
      </trkpt>
      <trkpt lat="45.00789" lon="5.91621">
        <ele>1294</ele>
        <time>2011-11-29T08:11:31Z</time>
      </trkpt>
      <trkpt lat="45.00788" lon="5.91632">
        <ele>1294.8</ele>
        <time>2011-11-29T08:11:45Z</time>
      </trkpt>
      <trkpt lat="45.00786" lon="5.91644">
        <ele>1297.2</ele>
        <time>2011-11-29T08:11:56Z</time>
      </trkpt>
      <trkpt lat="45.0078" lon="5.91652">
        <ele>1298.4</ele>
        <time>2011-11-29T08:12:09Z</time>
      </trkpt>
      <trkpt lat="45.00771" lon="5.91645">
        <ele>1300</ele>
        <time>2011-11-29T08:12:23Z</time>
      </trkpt>
      <trkpt lat="45.00765" lon="5.91637">
        <ele>1302</ele>
        <time>2011-11-29T08:12:37Z</time>
      </trkpt>
      <trkpt lat="45.0076" lon="5.91626">
        <ele>1304.2</ele>
        <time>2011-11-29T08:12:50Z</time>
      </trkpt>
      <trkpt lat="45.00761" lon="5.91615">
        <ele>1306.5</ele>
        <time>2011-11-29T08:13:02Z</time>
      </trkpt>
      <trkpt lat="45.00761" lon="5.91602">
        <ele>1307.3</ele>
        <time>2011-11-29T08:13:15Z</time>
      </trkpt>
      <trkpt lat="45.00761" lon="5.9159">
        <ele>1309.4</ele>
        <time>2011-11-29T08:13:30Z</time>
      </trkpt>
      <trkpt lat="45.00763" lon="5.91578">
        <ele>1310.6</ele>
        <time>2011-11-29T08:13:43Z</time>
      </trkpt>
      <trkpt lat="45.00764" lon="5.91566">
        <ele>1312</ele>
        <time>2011-11-29T08:13:53Z</time>
      </trkpt>
      <trkpt lat="45.00767" lon="5.91554">
        <ele>1312.6</ele>
        <time>2011-11-29T08:14:04Z</time>
      </trkpt>
      <trkpt lat="45.00769" lon="5.91543">
        <ele>1314.1</ele>
        <time>2011-11-29T08:14:15Z</time>
      </trkpt>
      <trkpt lat="45.00771" lon="5.91531">
        <ele>1315.1</ele>
        <time>2011-11-29T08:14:26Z</time>
      </trkpt>
      <trkpt lat="45.00773" lon="5.91519">
        <ele>1317.1</ele>
        <time>2011-11-29T08:14:40Z</time>
      </trkpt>
      <trkpt lat="45.00776" lon="5.91508">
        <ele>1318.4</ele>
        <time>2011-11-29T08:14:52Z</time>
      </trkpt>
      <trkpt lat="45.00781" lon="5.91497">
        <ele>1319.2</ele>
        <time>2011-11-29T08:15:02Z</time>
      </trkpt>
      <trkpt lat="45.00778" lon="5.91509">
        <ele>1320.5</ele>
        <time>2011-11-29T08:15:20Z</time>
      </trkpt>
      <trkpt lat="45.00771" lon="5.91517">
        <ele>1322.2</ele>
        <time>2011-11-29T08:15:31Z</time>
      </trkpt>
      <trkpt lat="45.00768" lon="5.91528">
        <ele>1323.5</ele>
        <time>2011-11-29T08:15:44Z</time>
      </trkpt>
      <trkpt lat="45.00763" lon="5.91538">
        <ele>1324.4</ele>
        <time>2011-11-29T08:15:54Z</time>
      </trkpt>
      <trkpt lat="45.00759" lon="5.91548">
        <ele>1324.4</ele>
        <time>2011-11-29T08:16:03Z</time>
      </trkpt>
      <trkpt lat="45.00754" lon="5.91557">
        <ele>1324.7</ele>
        <time>2011-11-29T08:16:11Z</time>
      </trkpt>
      <trkpt lat="45.00746" lon="5.91562">
        <ele>1325.6</ele>
        <time>2011-11-29T08:16:21Z</time>
      </trkpt>
      <trkpt lat="45.00741" lon="5.91573">
        <ele>1326.1</ele>
        <time>2011-11-29T08:16:33Z</time>
      </trkpt>
      <trkpt lat="45.00734" lon="5.9158">
        <ele>1328.4</ele>
        <time>2011-11-29T08:16:43Z</time>
      </trkpt>
      <trkpt lat="45.00732" lon="5.91592">
        <ele>1329.4</ele>
        <time>2011-11-29T08:16:56Z</time>
      </trkpt>
      <trkpt lat="45.00729" lon="5.91603">
        <ele>1331.1</ele>
        <time>2011-11-29T08:17:11Z</time>
      </trkpt>
      <trkpt lat="45.00725" lon="5.91615">
        <ele>1332.4</ele>
        <time>2011-11-29T08:17:23Z</time>
      </trkpt>
      <trkpt lat="45.00724" lon="5.91627">
        <ele>1334.1</ele>
        <time>2011-11-29T08:17:38Z</time>
      </trkpt>
      <trkpt lat="45.0072" lon="5.91638">
        <ele>1336.1</ele>
        <time>2011-11-29T08:17:52Z</time>
      </trkpt>
      <trkpt lat="45.00716" lon="5.91649">
        <ele>1336.1</ele>
        <time>2011-11-29T08:18:04Z</time>
      </trkpt>
      <trkpt lat="45.00714" lon="5.91661">
        <ele>1337.4</ele>
        <time>2011-11-29T08:18:15Z</time>
      </trkpt>
      <trkpt lat="45.00713" lon="5.91649">
        <ele>1342.4</ele>
        <time>2011-11-29T08:18:53Z</time>
      </trkpt>
      <trkpt lat="45.00709" lon="5.91638">
        <ele>1343.6</ele>
        <time>2011-11-29T08:19:04Z</time>
      </trkpt>
      <trkpt lat="45.00707" lon="5.91626">
        <ele>1344.9</ele>
        <time>2011-11-29T08:19:17Z</time>
      </trkpt>
      <trkpt lat="45.00707" lon="5.91614">
        <ele>1345.6</ele>
        <time>2011-11-29T08:19:29Z</time>
      </trkpt>
      <trkpt lat="45.00704" lon="5.91602">
        <ele>1346.5</ele>
        <time>2011-11-29T08:19:39Z</time>
      </trkpt>
      <trkpt lat="45.00708" lon="5.91592">
        <ele>1347.9</ele>
        <time>2011-11-29T08:19:48Z</time>
      </trkpt>
      <trkpt lat="45.00714" lon="5.91584">
        <ele>1347.1</ele>
        <time>2011-11-29T08:19:55Z</time>
      </trkpt>
      <trkpt lat="45.00714" lon="5.9157">
        <ele>1349</ele>
        <time>2011-11-29T08:20:05Z</time>
      </trkpt>
      <trkpt lat="45.00711" lon="5.91557">
        <ele>1350</ele>
        <time>2011-11-29T08:20:17Z</time>
      </trkpt>
      <trkpt lat="45.00709" lon="5.91545">
        <ele>1352.5</ele>
        <time>2011-11-29T08:20:28Z</time>
      </trkpt>
      <trkpt lat="45.00712" lon="5.91533">
        <ele>1354</ele>
        <time>2011-11-29T08:20:43Z</time>
      </trkpt>
      <trkpt lat="45.00712" lon="5.9152">
        <ele>1358</ele>
        <time>2011-11-29T08:21:12Z</time>
      </trkpt>
      <trkpt lat="45.00716" lon="5.9151">
        <ele>1358.3</ele>
        <time>2011-11-29T08:21:24Z</time>
      </trkpt>
      <trkpt lat="45.00718" lon="5.91498">
        <ele>1360.3</ele>
        <time>2011-11-29T08:21:34Z</time>
      </trkpt>
      <trkpt lat="45.00722" lon="5.91488">
        <ele>1360.9</ele>
        <time>2011-11-29T08:21:44Z</time>
      </trkpt>
      <trkpt lat="45.0072" lon="5.91475">
        <ele>1362.7</ele>
        <time>2011-11-29T08:21:56Z</time>
      </trkpt>
      <trkpt lat="45.00717" lon="5.91487">
        <ele>1365.4</ele>
        <time>2011-11-29T08:22:17Z</time>
      </trkpt>
      <trkpt lat="45.00713" lon="5.91497">
        <ele>1366.5</ele>
        <time>2011-11-29T08:22:31Z</time>
      </trkpt>
      <trkpt lat="45.00706" lon="5.91505">
        <ele>1368.5</ele>
        <time>2011-11-29T08:22:45Z</time>
      </trkpt>
      <trkpt lat="45.00685" lon="5.9153">
        <ele>1370.8</ele>
        <time>2011-11-29T08:23:08Z</time>
      </trkpt>
      <trkpt lat="45.00686" lon="5.91531">
        <ele>1380.8</ele>
        <time>2011-11-29T08:24:34Z</time>
      </trkpt>
      <trkpt lat="45.00684" lon="5.91519">
        <ele>1382.6</ele>
        <time>2011-11-29T08:24:45Z</time>
      </trkpt>
      <trkpt lat="45.00685" lon="5.91507">
        <ele>1383.7</ele>
        <time>2011-11-29T08:24:57Z</time>
      </trkpt>
      <trkpt lat="45.00686" lon="5.91495">
        <ele>1385.4</ele>
        <time>2011-11-29T08:25:08Z</time>
      </trkpt>
      <trkpt lat="45.00683" lon="5.91484">
        <ele>1386.4</ele>
        <time>2011-11-29T08:25:20Z</time>
      </trkpt>
      <trkpt lat="45.00678" lon="5.91473">
        <ele>1388.6</ele>
        <time>2011-11-29T08:25:31Z</time>
      </trkpt>
      <trkpt lat="45.00675" lon="5.91462">
        <ele>1389.7</ele>
        <time>2011-11-29T08:25:45Z</time>
      </trkpt>
      <trkpt lat="45.00674" lon="5.91448">
        <ele>1390</ele>
        <time>2011-11-29T08:25:58Z</time>
      </trkpt>
      <trkpt lat="45.00673" lon="5.91432">
        <ele>1393</ele>
        <time>2011-11-29T08:26:10Z</time>
      </trkpt>
      <trkpt lat="45.00674" lon="5.91418">
        <ele>1394</ele>
        <time>2011-11-29T08:26:22Z</time>
      </trkpt>
      <trkpt lat="45.0068" lon="5.91407">
        <ele>1396</ele>
        <time>2011-11-29T08:26:38Z</time>
      </trkpt>
      <trkpt lat="45.00671" lon="5.9142">
        <ele>1399</ele>
        <time>2011-11-29T08:27:09Z</time>
      </trkpt>
      <trkpt lat="45.00664" lon="5.91427">
        <ele>1400</ele>
        <time>2011-11-29T08:27:17Z</time>
      </trkpt>
      <trkpt lat="45.00662" lon="5.91439">
        <ele>1403.6</ele>
        <time>2011-11-29T08:27:30Z</time>
      </trkpt>
      <trkpt lat="45.00656" lon="5.91448">
        <ele>1404.6</ele>
        <time>2011-11-29T08:27:41Z</time>
      </trkpt>
      <trkpt lat="45.00657" lon="5.9146">
        <ele>1406.9</ele>
        <time>2011-11-29T08:27:53Z</time>
      </trkpt>
      <trkpt lat="45.00653" lon="5.91471">
        <ele>1408.6</ele>
        <time>2011-11-29T08:28:05Z</time>
      </trkpt>
      <trkpt lat="45.00651" lon="5.91483">
        <ele>1409.5</ele>
        <time>2011-11-29T08:28:18Z</time>
      </trkpt>
      <trkpt lat="45.00645" lon="5.91491">
        <ele>1411</ele>
        <time>2011-11-29T08:28:30Z</time>
      </trkpt>
      <trkpt lat="45.00639" lon="5.91501">
        <ele>1412.2</ele>
        <time>2011-11-29T08:28:38Z</time>
      </trkpt>
      <trkpt lat="45.00638" lon="5.91513">
        <ele>1413</ele>
        <time>2011-11-29T08:28:49Z</time>
      </trkpt>
      <trkpt lat="45.00639" lon="5.91501">
        <ele>1416.7</ele>
        <time>2011-11-29T08:29:19Z</time>
      </trkpt>
      <trkpt lat="45.00639" lon="5.91489">
        <ele>1418.7</ele>
        <time>2011-11-29T08:29:32Z</time>
      </trkpt>
      <trkpt lat="45.00635" lon="5.91451">
        <ele>1422.6</ele>
        <time>2011-11-29T08:30:06Z</time>
      </trkpt>
      <trkpt lat="45.00632" lon="5.9144">
        <ele>1423</ele>
        <time>2011-11-29T08:30:15Z</time>
      </trkpt>
      <trkpt lat="45.00633" lon="5.91427">
        <ele>1423</ele>
        <time>2011-11-29T08:30:27Z</time>
      </trkpt>
      <trkpt lat="45.00625" lon="5.91413">
        <ele>1424</ele>
        <time>2011-11-29T08:30:39Z</time>
      </trkpt>
      <trkpt lat="45.00617" lon="5.91419">
        <ele>1427</ele>
        <time>2011-11-29T08:30:55Z</time>
      </trkpt>
      <trkpt lat="45.00615" lon="5.91434">
        <ele>1430</ele>
        <time>2011-11-29T08:31:17Z</time>
      </trkpt>
      <trkpt lat="45.00616" lon="5.91446">
        <ele>1431.5</ele>
        <time>2011-11-29T08:31:29Z</time>
      </trkpt>
      <trkpt lat="45.00622" lon="5.91456">
        <ele>1435</ele>
        <time>2011-11-29T08:31:40Z</time>
      </trkpt>
      <trkpt lat="45.00612" lon="5.9147">
        <ele>1434.6</ele>
        <time>2011-11-29T08:32:37Z</time>
      </trkpt>
      <trkpt lat="45.00612" lon="5.91464">
        <ele>1435.6</ele>
        <time>2011-11-29T08:34:48Z</time>
      </trkpt>
      <trkpt lat="45.00604" lon="5.91468">
        <ele>1435.7</ele>
        <time>2011-11-29T08:35:10Z</time>
      </trkpt>
      <trkpt lat="45.006" lon="5.91458">
        <ele>1441.3</ele>
        <time>2011-11-29T08:36:00Z</time>
      </trkpt>
      <trkpt lat="45.00602" lon="5.91446">
        <ele>1443.9</ele>
        <time>2011-11-29T08:36:22Z</time>
      </trkpt>
      <trkpt lat="45.00594" lon="5.91451">
        <ele>1447.6</ele>
        <time>2011-11-29T08:36:40Z</time>
      </trkpt>
      <trkpt lat="45.00588" lon="5.91441">
        <ele>1453</ele>
        <time>2011-11-29T08:37:19Z</time>
      </trkpt>
      <trkpt lat="45.00582" lon="5.91432">
        <ele>1455.4</ele>
        <time>2011-11-29T08:37:37Z</time>
      </trkpt>
      <trkpt lat="45.00587" lon="5.91423">
        <ele>1457.7</ele>
        <time>2011-11-29T08:37:51Z</time>
      </trkpt>
      <trkpt lat="45.00595" lon="5.91417">
        <ele>1458</ele>
        <time>2011-11-29T08:38:02Z</time>
      </trkpt>
      <trkpt lat="45.00592" lon="5.91406">
        <ele>1463</ele>
        <time>2011-11-29T08:38:27Z</time>
      </trkpt>
      <trkpt lat="45.00596" lon="5.91395">
        <ele>1465.8</ele>
        <time>2011-11-29T08:38:46Z</time>
      </trkpt>
      <trkpt lat="45.0061" lon="5.91384">
        <ele>1467.8</ele>
        <time>2011-11-29T08:39:07Z</time>
      </trkpt>
      <trkpt lat="45.00597" lon="5.91373">
        <ele>1472.3</ele>
        <time>2011-11-29T08:39:38Z</time>
      </trkpt>
      <trkpt lat="45.00604" lon="5.91365">
        <ele>1478.1</ele>
        <time>2011-11-29T08:40:15Z</time>
      </trkpt>
      <trkpt lat="45.00605" lon="5.91365">
        <ele>1481.2</ele>
        <time>2011-11-29T08:40:40Z</time>
      </trkpt>
      <trkpt lat="45.00581" lon="5.91351">
        <ele>1483.9</ele>
        <time>2011-11-29T08:40:59Z</time>
      </trkpt>
      <trkpt lat="45.00589" lon="5.9135">
        <ele>1485.3</ele>
        <time>2011-11-29T08:41:14Z</time>
      </trkpt>
      <trkpt lat="45.00584" lon="5.91357">
        <ele>1490.7</ele>
        <time>2011-11-29T08:41:43Z</time>
      </trkpt>
      <trkpt lat="45.00576" lon="5.91354">
        <ele>1491.2</ele>
        <time>2011-11-29T08:41:47Z</time>
      </trkpt>
      <trkpt lat="45.00568" lon="5.91352">
        <ele>1492.3</ele>
        <time>2011-11-29T08:41:53Z</time>
      </trkpt>
      <trkpt lat="45.0056" lon="5.91351">
        <ele>1491.8</ele>
        <time>2011-11-29T08:41:59Z</time>
      </trkpt>
      <trkpt lat="45.00551" lon="5.91352">
        <ele>1492.6</ele>
        <time>2011-11-29T08:42:06Z</time>
      </trkpt>
      <trkpt lat="45.00543" lon="5.91354">
        <ele>1493.3</ele>
        <time>2011-11-29T08:42:11Z</time>
      </trkpt>
      <trkpt lat="45.00492" lon="5.91375">
        <ele>1518.1</ele>
        <time>2011-11-29T08:44:47Z</time>
      </trkpt>
      <trkpt lat="45.00489" lon="5.91375">
        <ele>1588.6</ele>
        <time>2011-11-29T08:53:43Z</time>
      </trkpt>
      <trkpt lat="45.0048" lon="5.91373">
        <ele>1589.2</ele>
        <time>2011-11-29T08:53:46Z</time>
      </trkpt>
      <trkpt lat="45.00473" lon="5.91372">
        <ele>1589.4</ele>
        <time>2011-11-29T08:53:48Z</time>
      </trkpt>
      <trkpt lat="45.00462" lon="5.9137">
        <ele>1589</ele>
        <time>2011-11-29T08:53:51Z</time>
      </trkpt>
      <trkpt lat="45.00455" lon="5.91368">
        <ele>1589.9</ele>
        <time>2011-11-29T08:53:53Z</time>
      </trkpt>
      <trkpt lat="45.00447" lon="5.91367">
        <ele>1589.8</ele>
        <time>2011-11-29T08:53:55Z</time>
      </trkpt>
      <trkpt lat="45.00439" lon="5.91366">
        <ele>1590</ele>
        <time>2011-11-29T08:53:57Z</time>
      </trkpt>
      <trkpt lat="45.00432" lon="5.91365">
        <ele>1590.1</ele>
        <time>2011-11-29T08:53:59Z</time>
      </trkpt>
      <trkpt lat="45.00425" lon="5.91364">
        <ele>1590.1</ele>
        <time>2011-11-29T08:54:01Z</time>
      </trkpt>
      <trkpt lat="45.00416" lon="5.91362">
        <ele>1590.4</ele>
        <time>2011-11-29T08:54:03Z</time>
      </trkpt>
      <trkpt lat="45.00411" lon="5.91361">
        <ele>1591</ele>
        <time>2011-11-29T08:54:04Z</time>
      </trkpt>
      <trkpt lat="45.00407" lon="5.9136">
        <ele>1591.4</ele>
        <time>2011-11-29T08:54:05Z</time>
      </trkpt>
      <trkpt lat="45.00402" lon="5.91359">
        <ele>1591.7</ele>
        <time>2011-11-29T08:54:06Z</time>
      </trkpt>
      <trkpt lat="45.00398" lon="5.91358">
        <ele>1592</ele>
        <time>2011-11-29T08:54:07Z</time>
      </trkpt>
      <trkpt lat="45.00393" lon="5.91357">
        <ele>1592.2</ele>
        <time>2011-11-29T08:54:08Z</time>
      </trkpt>
      <trkpt lat="45.00385" lon="5.91355">
        <ele>1592.6</ele>
        <time>2011-11-29T08:54:10Z</time>
      </trkpt>
      <trkpt lat="45.00377" lon="5.91353">
        <ele>1593</ele>
        <time>2011-11-29T08:54:12Z</time>
      </trkpt>
      <trkpt lat="45.00369" lon="5.91352">
        <ele>1592.5</ele>
        <time>2011-11-29T08:54:14Z</time>
      </trkpt>
      <trkpt lat="45.00362" lon="5.91351">
        <ele>1593.2</ele>
        <time>2011-11-29T08:54:16Z</time>
      </trkpt>
      <trkpt lat="45.00353" lon="5.9135">
        <ele>1593.9</ele>
        <time>2011-11-29T08:54:19Z</time>
      </trkpt>
      <trkpt lat="45.00345" lon="5.9135">
        <ele>1593.6</ele>
        <time>2011-11-29T08:54:25Z</time>
      </trkpt>
      <trkpt lat="45.00336" lon="5.91346">
        <ele>1595.4</ele>
        <time>2011-11-29T08:54:34Z</time>
      </trkpt>
      <trkpt lat="45.00329" lon="5.91348">
        <ele>1600.2</ele>
        <time>2011-11-29T08:55:11Z</time>
      </trkpt>
      <trkpt lat="45.00323" lon="5.91357">
        <ele>1602.9</ele>
        <time>2011-11-29T08:55:30Z</time>
      </trkpt>
      <trkpt lat="45.00314" lon="5.91357">
        <ele>1606.3</ele>
        <time>2011-11-29T08:55:52Z</time>
      </trkpt>
      <trkpt lat="45.00322" lon="5.91361">
        <ele>1608.6</ele>
        <time>2011-11-29T08:56:12Z</time>
      </trkpt>
      <trkpt lat="45.0033" lon="5.91366">
        <ele>1611.8</ele>
        <time>2011-11-29T08:56:32Z</time>
      </trkpt>
      <trkpt lat="45.00332" lon="5.91378">
        <ele>1612.6</ele>
        <time>2011-11-29T08:56:47Z</time>
      </trkpt>
      <trkpt lat="45.00334" lon="5.9139">
        <ele>1614.1</ele>
        <time>2011-11-29T08:56:55Z</time>
      </trkpt>
      <trkpt lat="45.00337" lon="5.91401">
        <ele>1615.9</ele>
        <time>2011-11-29T08:57:02Z</time>
      </trkpt>
      <trkpt lat="45.0034" lon="5.91413">
        <ele>1616.5</ele>
        <time>2011-11-29T08:57:11Z</time>
      </trkpt>
      <trkpt lat="45.00342" lon="5.91425">
        <ele>1618.5</ele>
        <time>2011-11-29T08:57:24Z</time>
      </trkpt>
      <trkpt lat="45.00347" lon="5.91436">
        <ele>1619.7</ele>
        <time>2011-11-29T08:57:34Z</time>
      </trkpt>
      <trkpt lat="45.0034" lon="5.91443">
        <ele>1626.9</ele>
        <time>2011-11-29T08:58:18Z</time>
      </trkpt>
      <trkpt lat="45.00332" lon="5.91449">
        <ele>1627.1</ele>
        <time>2011-11-29T08:58:27Z</time>
      </trkpt>
      <trkpt lat="45.00323" lon="5.91448">
        <ele>1630.6</ele>
        <time>2011-11-29T08:58:49Z</time>
      </trkpt>
      <trkpt lat="45.00315" lon="5.91448">
        <ele>1633.3</ele>
        <time>2011-11-29T08:59:08Z</time>
      </trkpt>
      <trkpt lat="45.00309" lon="5.91459">
        <ele>1640.5</ele>
        <time>2011-11-29T08:59:53Z</time>
      </trkpt>
      <trkpt lat="45.00299" lon="5.91456">
        <ele>1680</ele>
        <time>2011-11-29T09:00:16Z</time>
      </trkpt>
      <trkpt lat="45.0029" lon="5.91455">
        <ele>1682.3</ele>
        <time>2011-11-29T09:00:26Z</time>
      </trkpt>
      <trkpt lat="45.00282" lon="5.9145">
        <ele>1684</ele>
        <time>2011-11-29T09:00:38Z</time>
      </trkpt>
      <trkpt lat="45.00274" lon="5.91452">
        <ele>1689.4</ele>
        <time>2011-11-29T09:01:13Z</time>
      </trkpt>
      <trkpt lat="45.00266" lon="5.91447">
        <ele>1690.4</ele>
        <time>2011-11-29T09:01:20Z</time>
      </trkpt>
      <trkpt lat="45.00258" lon="5.91443">
        <ele>1695.1</ele>
        <time>2011-11-29T09:01:54Z</time>
      </trkpt>
      <trkpt lat="45.00249" lon="5.91445">
        <ele>1696.6</ele>
        <time>2011-11-29T09:02:05Z</time>
      </trkpt>
      <trkpt lat="45.00255" lon="5.91454">
        <ele>1699</ele>
        <time>2011-11-29T09:02:18Z</time>
      </trkpt>
      <trkpt lat="45.00259" lon="5.91465">
        <ele>1700.1</ele>
        <time>2011-11-29T09:02:34Z</time>
      </trkpt>
      <trkpt lat="45.00258" lon="5.91477">
        <ele>1701.2</ele>
        <time>2011-11-29T09:02:44Z</time>
      </trkpt>
      <trkpt lat="45.0025" lon="5.91482">
        <ele>1702.6</ele>
        <time>2011-11-29T09:02:54Z</time>
      </trkpt>
      <trkpt lat="45.00242" lon="5.91485">
        <ele>1703.5</ele>
        <time>2011-11-29T09:03:01Z</time>
      </trkpt>
      <trkpt lat="45.00235" lon="5.91487">
        <ele>1704.1</ele>
        <time>2011-11-29T09:03:05Z</time>
      </trkpt>
      <trkpt lat="45.00228" lon="5.91493">
        <ele>1704.7</ele>
        <time>2011-11-29T09:03:14Z</time>
      </trkpt>
      <trkpt lat="45.00219" lon="5.91498">
        <ele>1706.7</ele>
        <time>2011-11-29T09:03:24Z</time>
      </trkpt>
      <trkpt lat="45.00213" lon="5.91506">
        <ele>1706.7</ele>
        <time>2011-11-29T09:03:33Z</time>
      </trkpt>
      <trkpt lat="45.0021" lon="5.91518">
        <ele>1708.6</ele>
        <time>2011-11-29T09:03:48Z</time>
      </trkpt>
      <trkpt lat="45.00213" lon="5.9153">
        <ele>1711</ele>
        <time>2011-11-29T09:04:08Z</time>
      </trkpt>
      <trkpt lat="45.00208" lon="5.91539">
        <ele>1713.5</ele>
        <time>2011-11-29T09:04:20Z</time>
      </trkpt>
      <trkpt lat="45.00201" lon="5.91541">
        <ele>1715.3</ele>
        <time>2011-11-29T09:04:36Z</time>
      </trkpt>
      <trkpt lat="45.00193" lon="5.91535">
        <ele>1716.5</ele>
        <time>2011-11-29T09:04:43Z</time>
      </trkpt>
      <trkpt lat="45.00187" lon="5.91526">
        <ele>1718.4</ele>
        <time>2011-11-29T09:04:53Z</time>
      </trkpt>
      <trkpt lat="45.0018" lon="5.91517">
        <ele>1720.3</ele>
        <time>2011-11-29T09:05:04Z</time>
      </trkpt>
      <trkpt lat="45.00176" lon="5.91505">
        <ele>1721</ele>
        <time>2011-11-29T09:05:16Z</time>
      </trkpt>
      <trkpt lat="45.00176" lon="5.91492">
        <ele>1723.1</ele>
        <time>2011-11-29T09:05:30Z</time>
      </trkpt>
      <trkpt lat="45.00175" lon="5.91481">
        <ele>1725.4</ele>
        <time>2011-11-29T09:05:42Z</time>
      </trkpt>
      <trkpt lat="45.00169" lon="5.91471">
        <ele>1726.4</ele>
        <time>2011-11-29T09:05:51Z</time>
      </trkpt>
      <trkpt lat="45.00164" lon="5.91461">
        <ele>1727.8</ele>
        <time>2011-11-29T09:06:07Z</time>
      </trkpt>
      <trkpt lat="45.00161" lon="5.9145">
        <ele>1730.4</ele>
        <time>2011-11-29T09:06:21Z</time>
      </trkpt>
      <trkpt lat="45.00153" lon="5.91444">
        <ele>1731.5</ele>
        <time>2011-11-29T09:06:27Z</time>
      </trkpt>
      <trkpt lat="45.00147" lon="5.91435">
        <ele>1733.2</ele>
        <time>2011-11-29T09:06:39Z</time>
      </trkpt>
      <trkpt lat="45.00148" lon="5.91423">
        <ele>1735.9</ele>
        <time>2011-11-29T09:06:56Z</time>
      </trkpt>
      <trkpt lat="45.00143" lon="5.91412">
        <ele>1737.2</ele>
        <time>2011-11-29T09:07:05Z</time>
      </trkpt>
      <trkpt lat="45.00144" lon="5.91425">
        <ele>1740.4</ele>
        <time>2011-11-29T09:07:32Z</time>
      </trkpt>
      <trkpt lat="45.00144" lon="5.91437">
        <ele>1742.5</ele>
        <time>2011-11-29T09:07:46Z</time>
      </trkpt>
      <trkpt lat="45.00139" lon="5.91447">
        <ele>1743.4</ele>
        <time>2011-11-29T09:08:01Z</time>
      </trkpt>
      <trkpt lat="45.00132" lon="5.91453">
        <ele>1746.7</ele>
        <time>2011-11-29T09:08:10Z</time>
      </trkpt>
      <trkpt lat="45.00125" lon="5.91458">
        <ele>1747</ele>
        <time>2011-11-29T09:08:16Z</time>
      </trkpt>
      <trkpt lat="45.00119" lon="5.91467">
        <ele>1748.3</ele>
        <time>2011-11-29T09:08:25Z</time>
      </trkpt>
      <trkpt lat="45.0012" lon="5.91478">
        <ele>1749.9</ele>
        <time>2011-11-29T09:08:35Z</time>
      </trkpt>
      <trkpt lat="45.00113" lon="5.91471">
        <ele>1754.6</ele>
        <time>2011-11-29T09:09:06Z</time>
      </trkpt>
      <trkpt lat="45.00106" lon="5.91464">
        <ele>1756</ele>
        <time>2011-11-29T09:09:15Z</time>
      </trkpt>
      <trkpt lat="45.00102" lon="5.91454">
        <ele>1756.2</ele>
        <time>2011-11-29T09:09:29Z</time>
      </trkpt>
      <trkpt lat="45.001" lon="5.91442">
        <ele>1758.7</ele>
        <time>2011-11-29T09:09:41Z</time>
      </trkpt>
      <trkpt lat="45.00098" lon="5.9143">
        <ele>1758.9</ele>
        <time>2011-11-29T09:09:51Z</time>
      </trkpt>
      <trkpt lat="45.00093" lon="5.91419">
        <ele>1761.8</ele>
        <time>2011-11-29T09:10:00Z</time>
      </trkpt>
      <trkpt lat="45.00092" lon="5.91407">
        <ele>1763.5</ele>
        <time>2011-11-29T09:10:14Z</time>
      </trkpt>
      <trkpt lat="45.00091" lon="5.91419">
        <ele>1767.1</ele>
        <time>2011-11-29T09:10:47Z</time>
      </trkpt>
      <trkpt lat="45.00092" lon="5.91431">
        <ele>1769.4</ele>
        <time>2011-11-29T09:11:00Z</time>
      </trkpt>
      <trkpt lat="45.00084" lon="5.91439">
        <ele>1770.5</ele>
        <time>2011-11-29T09:11:13Z</time>
      </trkpt>
      <trkpt lat="45.00081" lon="5.91451">
        <ele>1772.7</ele>
        <time>2011-11-29T09:11:26Z</time>
      </trkpt>
      <trkpt lat="45.00086" lon="5.9146">
        <ele>1774.4</ele>
        <time>2011-11-29T09:11:35Z</time>
      </trkpt>
      <trkpt lat="45.00079" lon="5.91455">
        <ele>1777.8</ele>
        <time>2011-11-29T09:11:59Z</time>
      </trkpt>
      <trkpt lat="45.00078" lon="5.91467">
        <ele>1780.3</ele>
        <time>2011-11-29T09:12:17Z</time>
      </trkpt>
      <trkpt lat="45.00075" lon="5.91477">
        <ele>1782</ele>
        <time>2011-11-29T09:12:28Z</time>
      </trkpt>
      <trkpt lat="45.00076" lon="5.91489">
        <ele>1784.3</ele>
        <time>2011-11-29T09:12:40Z</time>
      </trkpt>
      <trkpt lat="45.00073" lon="5.91501">
        <ele>1785.8</ele>
        <time>2011-11-29T09:12:52Z</time>
      </trkpt>
      <trkpt lat="45.00071" lon="5.91513">
        <ele>1788.2</ele>
        <time>2011-11-29T09:13:05Z</time>
      </trkpt>
      <trkpt lat="45.00066" lon="5.91521">
        <ele>1789.5</ele>
        <time>2011-11-29T09:13:13Z</time>
      </trkpt>
      <trkpt lat="45.00064" lon="5.91533">
        <ele>1791.3</ele>
        <time>2011-11-29T09:13:24Z</time>
      </trkpt>
      <trkpt lat="45.0006" lon="5.91545">
        <ele>1792.6</ele>
        <time>2011-11-29T09:13:36Z</time>
      </trkpt>
      <trkpt lat="45.00055" lon="5.91555">
        <ele>1794</ele>
        <time>2011-11-29T09:13:46Z</time>
      </trkpt>
      <trkpt lat="45.00032" lon="5.91573">
        <ele>1799.8</ele>
        <time>2011-11-29T09:18:31Z</time>
      </trkpt>
      <trkpt lat="45.00023" lon="5.91568">
        <ele>1801.2</ele>
        <time>2011-11-29T09:18:46Z</time>
      </trkpt>
      <trkpt lat="45.00017" lon="5.9156">
        <ele>1803.8</ele>
        <time>2011-11-29T09:18:56Z</time>
      </trkpt>
      <trkpt lat="45.0001" lon="5.91553">
        <ele>1804.5</ele>
        <time>2011-11-29T09:19:11Z</time>
      </trkpt>
      <trkpt lat="45.00005" lon="5.91543">
        <ele>1807.7</ele>
        <time>2011-11-29T09:19:32Z</time>
      </trkpt>
      <trkpt lat="44.99996" lon="5.91541">
        <ele>1808.1</ele>
        <time>2011-11-29T09:19:45Z</time>
      </trkpt>
      <trkpt lat="45.00005" lon="5.91545">
        <ele>1810</ele>
        <time>2011-11-29T09:20:12Z</time>
      </trkpt>
      <trkpt lat="44.99998" lon="5.91537">
        <ele>1810</ele>
        <time>2011-11-29T09:20:44Z</time>
      </trkpt>
      <trkpt lat="44.9999" lon="5.91531">
        <ele>1810.5</ele>
        <time>2011-11-29T09:21:02Z</time>
      </trkpt>
      <trkpt lat="44.9999" lon="5.91543">
        <ele>1810.1</ele>
        <time>2011-11-29T09:21:48Z</time>
      </trkpt>
      <trkpt lat="44.99994" lon="5.91555">
        <ele>1810.2</ele>
        <time>2011-11-29T09:22:01Z</time>
      </trkpt>
      <trkpt lat="44.99986" lon="5.91549">
        <ele>1762.9</ele>
        <time>2011-11-29T09:23:04Z</time>
      </trkpt>
      <trkpt lat="44.99977" lon="5.91552">
        <ele>1764.1</ele>
        <time>2011-11-29T09:23:18Z</time>
      </trkpt>
      <trkpt lat="44.99969" lon="5.91551">
        <ele>1767.4</ele>
        <time>2011-11-29T09:23:39Z</time>
      </trkpt>
      <trkpt lat="44.99961" lon="5.91545">
        <ele>1769.7</ele>
        <time>2011-11-29T09:23:53Z</time>
      </trkpt>
      <trkpt lat="44.99955" lon="5.91537">
        <ele>1771.4</ele>
        <time>2011-11-29T09:24:06Z</time>
      </trkpt>
      <trkpt lat="44.99948" lon="5.91529">
        <ele>1774.6</ele>
        <time>2011-11-29T09:24:29Z</time>
      </trkpt>
      <trkpt lat="44.99939" lon="5.91527">
        <ele>1777.8</ele>
        <time>2011-11-29T09:24:46Z</time>
      </trkpt>
      <trkpt lat="44.99932" lon="5.91534">
        <ele>1780.3</ele>
        <time>2011-11-29T09:25:05Z</time>
      </trkpt>
      <trkpt lat="44.99924" lon="5.91538">
        <ele>1783.8</ele>
        <time>2011-11-29T09:25:24Z</time>
      </trkpt>
      <trkpt lat="44.99916" lon="5.91535">
        <ele>1788.8</ele>
        <time>2011-11-29T09:25:46Z</time>
      </trkpt>
      <trkpt lat="44.99907" lon="5.91537">
        <ele>1790.4</ele>
        <time>2011-11-29T09:26:01Z</time>
      </trkpt>
      <trkpt lat="44.99898" lon="5.91537">
        <ele>1794.5</ele>
        <time>2011-11-29T09:26:21Z</time>
      </trkpt>
      <trkpt lat="44.9989" lon="5.91538">
        <ele>1798.1</ele>
        <time>2011-11-29T09:26:46Z</time>
      </trkpt>
      <trkpt lat="44.99881" lon="5.91537">
        <ele>1801.4</ele>
        <time>2011-11-29T09:27:06Z</time>
      </trkpt>
      <trkpt lat="44.99873" lon="5.9153">
        <ele>1804.3</ele>
        <time>2011-11-29T09:27:26Z</time>
      </trkpt>
      <trkpt lat="44.99865" lon="5.91528">
        <ele>1809.2</ele>
        <time>2011-11-29T09:27:58Z</time>
      </trkpt>
      <trkpt lat="44.99857" lon="5.91533">
        <ele>1811.3</ele>
        <time>2011-11-29T09:28:15Z</time>
      </trkpt>
      <trkpt lat="44.99848" lon="5.91531">
        <ele>1815.2</ele>
        <time>2011-11-29T09:28:43Z</time>
      </trkpt>
      <trkpt lat="44.9984" lon="5.91527">
        <ele>1818.6</ele>
        <time>2011-11-29T09:29:11Z</time>
      </trkpt>
      <trkpt lat="44.99831" lon="5.91526">
        <ele>1822.1</ele>
        <time>2011-11-29T09:29:35Z</time>
      </trkpt>
      <trkpt lat="44.99823" lon="5.91523">
        <ele>1825.4</ele>
        <time>2011-11-29T09:29:59Z</time>
      </trkpt>
      <trkpt lat="44.99822" lon="5.91536">
        <ele>1830.3</ele>
        <time>2011-11-29T09:31:54Z</time>
      </trkpt>
      <trkpt lat="44.99818" lon="5.91546">
        <ele>1835.2</ele>
        <time>2011-11-29T09:33:17Z</time>
      </trkpt>
      <trkpt lat="44.99809" lon="5.91549">
        <ele>1839</ele>
        <time>2011-11-29T09:33:50Z</time>
      </trkpt>
      <trkpt lat="44.99803" lon="5.9154">
        <ele>1840.3</ele>
        <time>2011-11-29T09:34:36Z</time>
      </trkpt>
      <trkpt lat="44.99799" lon="5.91529">
        <ele>1843.1</ele>
        <time>2011-11-29T09:35:05Z</time>
      </trkpt>
      <trkpt lat="44.9979" lon="5.91527">
        <ele>1848.5</ele>
        <time>2011-11-29T09:35:39Z</time>
      </trkpt>
      <trkpt lat="44.99786" lon="5.91516">
        <ele>1852.4</ele>
        <time>2011-11-29T09:36:35Z</time>
      </trkpt>
      <trkpt lat="44.99783" lon="5.91504">
        <ele>1855.9</ele>
        <time>2011-11-29T09:37:12Z</time>
      </trkpt>
      <trkpt lat="44.99779" lon="5.91494">
        <ele>1857.8</ele>
        <time>2011-11-29T09:37:32Z</time>
      </trkpt>
      <trkpt lat="44.99773" lon="5.91483">
        <ele>1860.6</ele>
        <time>2011-11-29T09:39:13Z</time>
      </trkpt>
      <trkpt lat="44.99768" lon="5.91473">
        <ele>1862.6</ele>
        <time>2011-11-29T09:39:52Z</time>
      </trkpt>
      <trkpt lat="44.99765" lon="5.91485">
        <ele>1868.8</ele>
        <time>2011-11-29T09:40:31Z</time>
      </trkpt>
      <trkpt lat="44.99758" lon="5.91493">
        <ele>1871.2</ele>
        <time>2011-11-29T09:40:45Z</time>
      </trkpt>
      <trkpt lat="44.99751" lon="5.91499">
        <ele>1871.6</ele>
        <time>2011-11-29T09:40:55Z</time>
      </trkpt>
      <trkpt lat="44.99744" lon="5.91507">
        <ele>1872.5</ele>
        <time>2011-11-29T09:41:06Z</time>
      </trkpt>
      <trkpt lat="44.99736" lon="5.91512">
        <ele>1873.6</ele>
        <time>2011-11-29T09:41:17Z</time>
      </trkpt>
      <trkpt lat="44.99728" lon="5.91519">
        <ele>1875.5</ele>
        <time>2011-11-29T09:41:32Z</time>
      </trkpt>
      <trkpt lat="44.9972" lon="5.91522">
        <ele>1877.9</ele>
        <time>2011-11-29T09:41:44Z</time>
      </trkpt>
      <trkpt lat="44.99712" lon="5.91529">
        <ele>1879.2</ele>
        <time>2011-11-29T09:41:59Z</time>
      </trkpt>
      <trkpt lat="44.99705" lon="5.91535">
        <ele>1881.5</ele>
        <time>2011-11-29T09:42:17Z</time>
      </trkpt>
      <trkpt lat="44.99696" lon="5.91537">
        <ele>1885</ele>
        <time>2011-11-29T09:42:39Z</time>
      </trkpt>
      <trkpt lat="44.99687" lon="5.91537">
        <ele>1890</ele>
        <time>2011-11-29T09:43:07Z</time>
      </trkpt>
      <trkpt lat="44.9968" lon="5.91531">
        <ele>1894.4</ele>
        <time>2011-11-29T09:43:31Z</time>
      </trkpt>
      <trkpt lat="44.99673" lon="5.91524">
        <ele>1897</ele>
        <time>2011-11-29T09:43:52Z</time>
      </trkpt>
      <trkpt lat="44.99668" lon="5.91515">
        <ele>1900.5</ele>
        <time>2011-11-29T09:44:19Z</time>
      </trkpt>
      <trkpt lat="44.99662" lon="5.91505">
        <ele>1903.4</ele>
        <time>2011-11-29T09:44:38Z</time>
      </trkpt>
      <trkpt lat="44.99655" lon="5.91497">
        <ele>1907</ele>
        <time>2011-11-29T09:45:04Z</time>
      </trkpt>
      <trkpt lat="44.99647" lon="5.91493">
        <ele>1913.5</ele>
        <time>2011-11-29T09:45:49Z</time>
      </trkpt>
      <trkpt lat="44.99641" lon="5.91484">
        <ele>1917.5</ele>
        <time>2011-11-29T09:46:14Z</time>
      </trkpt>
      <trkpt lat="44.99632" lon="5.91482">
        <ele>1923.8</ele>
        <time>2011-11-29T09:46:59Z</time>
      </trkpt>
      <trkpt lat="44.99625" lon="5.91474">
        <ele>1929.5</ele>
        <time>2011-11-29T09:47:35Z</time>
      </trkpt>
      <trkpt lat="44.99621" lon="5.91463">
        <ele>1932.8</ele>
        <time>2011-11-29T09:48:05Z</time>
      </trkpt>
      <trkpt lat="44.99613" lon="5.91457">
        <ele>1943.2</ele>
        <time>2011-11-29T09:49:11Z</time>
      </trkpt>
      <trkpt lat="44.99605" lon="5.91453">
        <ele>1948.5</ele>
        <time>2011-11-29T09:49:48Z</time>
      </trkpt>
      <trkpt lat="44.99597" lon="5.91447">
        <ele>1955.8</ele>
        <time>2011-11-29T09:51:09Z</time>
      </trkpt>
      <trkpt lat="44.99588" lon="5.91449">
        <ele>1957.4</ele>
        <time>2011-11-29T09:51:50Z</time>
      </trkpt>
      <trkpt lat="44.99584" lon="5.9146">
        <ele>1960.5</ele>
        <time>2011-11-29T09:52:05Z</time>
      </trkpt>
      <trkpt lat="44.99578" lon="5.91469">
        <ele>1961.1</ele>
        <time>2011-11-29T09:52:17Z</time>
      </trkpt>
      <trkpt lat="44.99573" lon="5.91478">
        <ele>1962</ele>
        <time>2011-11-29T09:52:32Z</time>
      </trkpt>
      <trkpt lat="44.99568" lon="5.91488">
        <ele>1961.8</ele>
        <time>2011-11-29T09:52:41Z</time>
      </trkpt>
      <trkpt lat="44.99563" lon="5.91498">
        <ele>1962.3</ele>
        <time>2011-11-29T09:52:52Z</time>
      </trkpt>
      <trkpt lat="44.99558" lon="5.91509">
        <ele>1964.5</ele>
        <time>2011-11-29T09:53:11Z</time>
      </trkpt>
      <trkpt lat="44.99555" lon="5.91521">
        <ele>1964.9</ele>
        <time>2011-11-29T09:53:30Z</time>
      </trkpt>
      <trkpt lat="44.99549" lon="5.9153">
        <ele>1967.3</ele>
        <time>2011-11-29T09:53:50Z</time>
      </trkpt>
      <trkpt lat="44.99545" lon="5.91519">
        <ele>1970.4</ele>
        <time>2011-11-29T09:54:16Z</time>
      </trkpt>
      <trkpt lat="44.99546" lon="5.91508">
        <ele>1970.4</ele>
        <time>2011-11-29T09:54:27Z</time>
      </trkpt>
      <trkpt lat="44.99547" lon="5.91495">
        <ele>1971.3</ele>
        <time>2011-11-29T09:54:40Z</time>
      </trkpt>
      <trkpt lat="44.9955" lon="5.91484">
        <ele>1972.7</ele>
        <time>2011-11-29T09:54:53Z</time>
      </trkpt>
      <trkpt lat="44.99552" lon="5.91472">
        <ele>1973.4</ele>
        <time>2011-11-29T09:55:05Z</time>
      </trkpt>
      <trkpt lat="44.99557" lon="5.91461">
        <ele>1973.6</ele>
        <time>2011-11-29T09:55:21Z</time>
      </trkpt>
      <trkpt lat="44.99561" lon="5.9145">
        <ele>1974.2</ele>
        <time>2011-11-29T09:55:34Z</time>
      </trkpt>
      <trkpt lat="44.99565" lon="5.91439">
        <ele>1974.9</ele>
        <time>2011-11-29T09:55:46Z</time>
      </trkpt>
      <trkpt lat="44.99567" lon="5.91427">
        <ele>1976.2</ele>
        <time>2011-11-29T09:55:59Z</time>
      </trkpt>
      <trkpt lat="44.9957" lon="5.91415">
        <ele>1975.9</ele>
        <time>2011-11-29T09:56:16Z</time>
      </trkpt>
      <trkpt lat="44.99571" lon="5.91403">
        <ele>1978.3</ele>
        <time>2011-11-29T09:56:43Z</time>
      </trkpt>
      <trkpt lat="44.99574" lon="5.91391">
        <ele>1978.8</ele>
        <time>2011-11-29T09:57:09Z</time>
      </trkpt>
      <trkpt lat="44.9958" lon="5.91382">
        <ele>1981</ele>
        <time>2011-11-29T09:57:31Z</time>
      </trkpt>
      <trkpt lat="44.99582" lon="5.9137">
        <ele>1982.9</ele>
        <time>2011-11-29T09:57:56Z</time>
      </trkpt>
      <trkpt lat="44.99586" lon="5.9136">
        <ele>1985.8</ele>
        <time>2011-11-29T09:58:14Z</time>
      </trkpt>
      <trkpt lat="44.99593" lon="5.91352">
        <ele>1986.1</ele>
        <time>2011-11-29T09:58:29Z</time>
      </trkpt>
      <trkpt lat="44.99592" lon="5.91339">
        <ele>1988.3</ele>
        <time>2011-11-29T09:59:14Z</time>
      </trkpt>
      <trkpt lat="44.99588" lon="5.91328">
        <ele>1988.8</ele>
        <time>2011-11-29T10:00:54Z</time>
      </trkpt>
      <trkpt lat="44.99597" lon="5.9133">
        <ele>1989.9</ele>
        <time>2011-11-29T10:01:21Z</time>
      </trkpt>
      <trkpt lat="44.99605" lon="5.9133">
        <ele>1989.3</ele>
        <time>2011-11-29T10:01:29Z</time>
      </trkpt>
      <trkpt lat="44.99613" lon="5.91324">
        <ele>1988.4</ele>
        <time>2011-11-29T10:01:42Z</time>
      </trkpt>
      <trkpt lat="44.99621" lon="5.91322">
        <ele>1987.4</ele>
        <time>2011-11-29T10:01:55Z</time>
      </trkpt>
      <trkpt lat="44.99628" lon="5.91314">
        <ele>1988.9</ele>
        <time>2011-11-29T10:02:09Z</time>
      </trkpt>
      <trkpt lat="44.99635" lon="5.91306">
        <ele>1990</ele>
        <time>2011-11-29T10:02:21Z</time>
      </trkpt>
      <trkpt lat="44.99643" lon="5.91301">
        <ele>1989.4</ele>
        <time>2011-11-29T10:02:40Z</time>
      </trkpt>
      <trkpt lat="44.99651" lon="5.91299">
        <ele>1989.3</ele>
        <time>2011-11-29T10:02:56Z</time>
      </trkpt>
      <trkpt lat="44.9966" lon="5.91294">
        <ele>1988.9</ele>
        <time>2011-11-29T10:03:07Z</time>
      </trkpt>
      <trkpt lat="44.99667" lon="5.9129">
        <ele>1988.4</ele>
        <time>2011-11-29T10:03:21Z</time>
      </trkpt>
      <trkpt lat="44.99675" lon="5.91285">
        <ele>1988.3</ele>
        <time>2011-11-29T10:03:32Z</time>
      </trkpt>
      <trkpt lat="44.99683" lon="5.91279">
        <ele>1989</ele>
        <time>2011-11-29T10:03:44Z</time>
      </trkpt>
      <trkpt lat="44.99692" lon="5.91276">
        <ele>1992.3</ele>
        <time>2011-11-29T10:04:38Z</time>
      </trkpt>
      <trkpt lat="44.99699" lon="5.91269">
        <ele>1997.3</ele>
        <time>2011-11-29T10:05:06Z</time>
      </trkpt>
      <trkpt lat="44.99708" lon="5.91266">
        <ele>2001</ele>
        <time>2011-11-29T10:05:42Z</time>
      </trkpt>
      <trkpt lat="44.99714" lon="5.91258">
        <ele>2004.9</ele>
        <time>2011-11-29T10:06:41Z</time>
      </trkpt>
      <trkpt lat="44.99712" lon="5.91246">
        <ele>2009.2</ele>
        <time>2011-11-29T10:07:54Z</time>
      </trkpt>
      <trkpt lat="44.99707" lon="5.91235">
        <ele>2014.1</ele>
        <time>2011-11-29T10:08:30Z</time>
      </trkpt>
      <trkpt lat="44.99706" lon="5.91222">
        <ele>2019.3</ele>
        <time>2011-11-29T10:09:08Z</time>
      </trkpt>
      <trkpt lat="44.99697" lon="5.91224">
        <ele>2028.5</ele>
        <time>2011-11-29T10:09:56Z</time>
      </trkpt>
      <trkpt lat="44.99689" lon="5.91226">
        <ele>2031.6</ele>
        <time>2011-11-29T10:10:23Z</time>
      </trkpt>
      <trkpt lat="44.99681" lon="5.91221">
        <ele>2035.3</ele>
        <time>2011-11-29T10:10:40Z</time>
      </trkpt>
      <trkpt lat="44.99672" lon="5.91218">
        <ele>2038</ele>
        <time>2011-11-29T10:11:02Z</time>
      </trkpt>
      <trkpt lat="44.99664" lon="5.91213">
        <ele>2043.5</ele>
        <time>2011-11-29T10:11:36Z</time>
      </trkpt>
      <trkpt lat="44.99656" lon="5.91211">
        <ele>2047.2</ele>
        <time>2011-11-29T10:12:00Z</time>
      </trkpt>
      <trkpt lat="44.99647" lon="5.91209">
        <ele>2051.1</ele>
        <time>2011-11-29T10:12:16Z</time>
      </trkpt>
      <trkpt lat="44.99639" lon="5.91204">
        <ele>2054.7</ele>
        <time>2011-11-29T10:12:42Z</time>
      </trkpt>
      <trkpt lat="44.99631" lon="5.91197">
        <ele>2059.8</ele>
        <time>2011-11-29T10:13:07Z</time>
      </trkpt>
      <trkpt lat="44.99622" lon="5.91195">
        <ele>2063.8</ele>
        <time>2011-11-29T10:13:32Z</time>
      </trkpt>
      <trkpt lat="44.99622" lon="5.91183">
        <ele>2069.1</ele>
        <time>2011-11-29T10:13:56Z</time>
      </trkpt>
      <trkpt lat="44.99622" lon="5.91171">
        <ele>2073.5</ele>
        <time>2011-11-29T10:14:36Z</time>
      </trkpt>
      <trkpt lat="44.99625" lon="5.9116">
        <ele>2074.9</ele>
        <time>2011-11-29T10:14:46Z</time>
      </trkpt>
      <trkpt lat="44.99626" lon="5.91147">
        <ele>2075.1</ele>
        <time>2011-11-29T10:15:40Z</time>
      </trkpt>
      <trkpt lat="44.99618" lon="5.91149">
        <ele>2076.9</ele>
        <time>2011-11-29T10:26:32Z</time>
      </trkpt>
      <trkpt lat="44.99609" lon="5.91153">
        <ele>2076.6</ele>
        <time>2011-11-29T10:26:53Z</time>
      </trkpt>
      <trkpt lat="44.99602" lon="5.91158">
        <ele>2078.2</ele>
        <time>2011-11-29T10:27:03Z</time>
      </trkpt>
      <trkpt lat="44.99594" lon="5.91163">
        <ele>2077.9</ele>
        <time>2011-11-29T10:27:15Z</time>
      </trkpt>
      <trkpt lat="44.99586" lon="5.91169">
        <ele>2078.6</ele>
        <time>2011-11-29T10:27:27Z</time>
      </trkpt>
      <trkpt lat="44.99579" lon="5.91176">
        <ele>2082.1</ele>
        <time>2011-11-29T10:27:39Z</time>
      </trkpt>
      <trkpt lat="44.99571" lon="5.91181">
        <ele>2084.8</ele>
        <time>2011-11-29T10:27:53Z</time>
      </trkpt>
      <trkpt lat="44.99567" lon="5.91192">
        <ele>2086.3</ele>
        <time>2011-11-29T10:28:07Z</time>
      </trkpt>
      <trkpt lat="44.99561" lon="5.91202">
        <ele>2087.7</ele>
        <time>2011-11-29T10:28:19Z</time>
      </trkpt>
      <trkpt lat="44.99554" lon="5.91209">
        <ele>2090.4</ele>
        <time>2011-11-29T10:28:32Z</time>
      </trkpt>
      <trkpt lat="44.99546" lon="5.91214">
        <ele>2092.4</ele>
        <time>2011-11-29T10:28:42Z</time>
      </trkpt>
      <trkpt lat="44.99538" lon="5.91217">
        <ele>2095.7</ele>
        <time>2011-11-29T10:28:55Z</time>
      </trkpt>
      <trkpt lat="44.99531" lon="5.91225">
        <ele>2095</ele>
        <time>2011-11-29T10:29:05Z</time>
      </trkpt>
      <trkpt lat="44.99525" lon="5.91232">
        <ele>2096.2</ele>
        <time>2011-11-29T10:29:14Z</time>
      </trkpt>
      <trkpt lat="44.99517" lon="5.91235">
        <ele>2096.7</ele>
        <time>2011-11-29T10:29:26Z</time>
      </trkpt>
      <trkpt lat="44.9951" lon="5.91242">
        <ele>2096.6</ele>
        <time>2011-11-29T10:29:35Z</time>
      </trkpt>
      <trkpt lat="44.99501" lon="5.91245">
        <ele>2098</ele>
        <time>2011-11-29T10:29:46Z</time>
      </trkpt>
      <trkpt lat="44.99493" lon="5.91248">
        <ele>2102</ele>
        <time>2011-11-29T10:30:22Z</time>
      </trkpt>
      <trkpt lat="44.99484" lon="5.9125">
        <ele>2104.5</ele>
        <time>2011-11-29T10:30:46Z</time>
      </trkpt>
      <trkpt lat="44.99477" lon="5.91258">
        <ele>2109.9</ele>
        <time>2011-11-29T10:31:27Z</time>
      </trkpt>
      <trkpt lat="44.99477" lon="5.91271">
        <ele>2118.4</ele>
        <time>2011-11-29T10:32:15Z</time>
      </trkpt>
      <trkpt lat="44.99472" lon="5.91281">
        <ele>2124.5</ele>
        <time>2011-11-29T10:32:52Z</time>
      </trkpt>
      <trkpt lat="44.99464" lon="5.91284">
        <ele>2128.7</ele>
        <time>2011-11-29T10:33:19Z</time>
      </trkpt>
      <trkpt lat="44.99455" lon="5.91285">
        <ele>2130.8</ele>
        <time>2011-11-29T10:33:37Z</time>
      </trkpt>
      <trkpt lat="44.99446" lon="5.91285">
        <ele>2135.1</ele>
        <time>2011-11-29T10:34:13Z</time>
      </trkpt>
      <trkpt lat="44.99439" lon="5.91292">
        <ele>2142.2</ele>
        <time>2011-11-29T10:35:06Z</time>
      </trkpt>
      <trkpt lat="44.99431" lon="5.91299">
        <ele>2145.4</ele>
        <time>2011-11-29T10:35:32Z</time>
      </trkpt>
      <trkpt lat="44.99425" lon="5.91308">
        <ele>2150.7</ele>
        <time>2011-11-29T10:36:06Z</time>
      </trkpt>
      <trkpt lat="44.99419" lon="5.91316">
        <ele>2153.2</ele>
        <time>2011-11-29T10:36:32Z</time>
      </trkpt>
      <trkpt lat="44.9941" lon="5.91319">
        <ele>2153.5</ele>
        <time>2011-11-29T10:36:47Z</time>
      </trkpt>
      <trkpt lat="44.99403" lon="5.91324">
        <ele>2155.1</ele>
        <time>2011-11-29T10:37:06Z</time>
      </trkpt>
      <trkpt lat="44.99395" lon="5.91331">
        <ele>2157.7</ele>
        <time>2011-11-29T10:37:25Z</time>
      </trkpt>
      <trkpt lat="44.99387" lon="5.91335">
        <ele>2162</ele>
        <time>2011-11-29T10:37:46Z</time>
      </trkpt>
      <trkpt lat="44.99379" lon="5.9134">
        <ele>2163.8</ele>
        <time>2011-11-29T10:38:23Z</time>
      </trkpt>
      <trkpt lat="44.99373" lon="5.91349">
        <ele>2163.9</ele>
        <time>2011-11-29T10:38:35Z</time>
      </trkpt>
      <trkpt lat="44.99367" lon="5.91358">
        <ele>2164.5</ele>
        <time>2011-11-29T10:38:50Z</time>
      </trkpt>
      <trkpt lat="44.9936" lon="5.91365">
        <ele>2165.6</ele>
        <time>2011-11-29T10:39:02Z</time>
      </trkpt>
      <trkpt lat="44.99354" lon="5.91374">
        <ele>2165.2</ele>
        <time>2011-11-29T10:39:14Z</time>
      </trkpt>
      <trkpt lat="44.99349" lon="5.91384">
        <ele>2165.7</ele>
        <time>2011-11-29T10:39:31Z</time>
      </trkpt>
      <trkpt lat="44.99341" lon="5.91391">
        <ele>2166</ele>
        <time>2011-11-29T10:39:49Z</time>
      </trkpt>
      <trkpt lat="44.99339" lon="5.91403">
        <ele>2169.7</ele>
        <time>2011-11-29T10:40:07Z</time>
      </trkpt>
      <trkpt lat="44.99338" lon="5.91415">
        <ele>2172.8</ele>
        <time>2011-11-29T10:40:25Z</time>
      </trkpt>
      <trkpt lat="44.99338" lon="5.91427">
        <ele>2179</ele>
        <time>2011-11-29T10:41:00Z</time>
      </trkpt>
      <trkpt lat="44.99337" lon="5.9144">
        <ele>2184.3</ele>
        <time>2011-11-29T10:41:29Z</time>
      </trkpt>
      <trkpt lat="44.99332" lon="5.9145">
        <ele>2188.2</ele>
        <time>2011-11-29T10:41:53Z</time>
      </trkpt>
      <trkpt lat="44.99327" lon="5.9146">
        <ele>2192.2</ele>
        <time>2011-11-29T10:42:17Z</time>
      </trkpt>
      <trkpt lat="44.99321" lon="5.9147">
        <ele>2197.5</ele>
        <time>2011-11-29T10:42:46Z</time>
      </trkpt>
      <trkpt lat="44.99318" lon="5.91481">
        <ele>2196.5</ele>
        <time>2011-11-29T10:43:06Z</time>
      </trkpt>
      <trkpt lat="44.99312" lon="5.91489">
        <ele>2198.5</ele>
        <time>2011-11-29T10:43:24Z</time>
      </trkpt>
      <trkpt lat="44.99303" lon="5.91491">
        <ele>2200.3</ele>
        <time>2011-11-29T10:43:36Z</time>
      </trkpt>
      <trkpt lat="44.99296" lon="5.91497">
        <ele>2203.9</ele>
        <time>2011-11-29T10:43:58Z</time>
      </trkpt>
      <trkpt lat="44.99292" lon="5.91508">
        <ele>2202.4</ele>
        <time>2011-11-29T10:46:09Z</time>
      </trkpt>
      <trkpt lat="44.99291" lon="5.9152">
        <ele>2201.4</ele>
        <time>2011-11-29T10:46:21Z</time>
      </trkpt>
      <trkpt lat="44.99292" lon="5.91533">
        <ele>2203.9</ele>
        <time>2011-11-29T10:46:47Z</time>
      </trkpt>
      <trkpt lat="44.99292" lon="5.91546">
        <ele>2209.6</ele>
        <time>2011-11-29T10:47:13Z</time>
      </trkpt>
      <trkpt lat="44.99292" lon="5.91558">
        <ele>2208.8</ele>
        <time>2011-11-29T10:47:27Z</time>
      </trkpt>
      <trkpt lat="44.99287" lon="5.91568">
        <ele>2209.4</ele>
        <time>2011-11-29T10:47:40Z</time>
      </trkpt>
      <trkpt lat="44.99283" lon="5.91579">
        <ele>2210.9</ele>
        <time>2011-11-29T10:47:52Z</time>
      </trkpt>
      <trkpt lat="44.99279" lon="5.9159">
        <ele>2213.4</ele>
        <time>2011-11-29T10:48:05Z</time>
      </trkpt>
      <trkpt lat="44.99273" lon="5.91597">
        <ele>2214.5</ele>
        <time>2011-11-29T10:48:23Z</time>
      </trkpt>
      <trkpt lat="44.99265" lon="5.91601">
        <ele>2213.7</ele>
        <time>2011-11-29T10:48:31Z</time>
      </trkpt>
      <trkpt lat="44.99257" lon="5.91607">
        <ele>2214.5</ele>
        <time>2011-11-29T10:48:43Z</time>
      </trkpt>
      <trkpt lat="44.9925" lon="5.91615">
        <ele>2217.6</ele>
        <time>2011-11-29T10:49:00Z</time>
      </trkpt>
      <trkpt lat="44.99247" lon="5.91627">
        <ele>2218.5</ele>
        <time>2011-11-29T10:49:22Z</time>
      </trkpt>
      <trkpt lat="44.99245" lon="5.91639">
        <ele>2224.7</ele>
        <time>2011-11-29T10:52:32Z</time>
      </trkpt>
      <trkpt lat="44.99243" lon="5.91651">
        <ele>2227</ele>
        <time>2011-11-29T10:53:19Z</time>
      </trkpt>
      <trkpt lat="44.99239" lon="5.91663">
        <ele>2233</ele>
        <time>2011-11-29T10:53:56Z</time>
      </trkpt>
      <trkpt lat="44.99233" lon="5.91671">
        <ele>2237.7</ele>
        <time>2011-11-29T10:54:25Z</time>
      </trkpt>
      <trkpt lat="44.99228" lon="5.91682">
        <ele>2241.6</ele>
        <time>2011-11-29T10:54:51Z</time>
      </trkpt>
      <trkpt lat="44.99222" lon="5.9169">
        <ele>2246.7</ele>
        <time>2011-11-29T10:55:18Z</time>
      </trkpt>
      <trkpt lat="44.99217" lon="5.917">
        <ele>2250.9</ele>
        <time>2011-11-29T10:55:49Z</time>
      </trkpt>
      <trkpt lat="44.99209" lon="5.91706">
        <ele>2255.2</ele>
        <time>2011-11-29T10:56:18Z</time>
      </trkpt>
      <trkpt lat="44.99201" lon="5.91711">
        <ele>2259.4</ele>
        <time>2011-11-29T10:56:47Z</time>
      </trkpt>
      <trkpt lat="44.99192" lon="5.91715">
        <ele>2263.9</ele>
        <time>2011-11-29T10:57:14Z</time>
      </trkpt>
      <trkpt lat="44.99192" lon="5.91727">
        <ele>2271.2</ele>
        <time>2011-11-29T10:58:01Z</time>
      </trkpt>
      <trkpt lat="44.99193" lon="5.9174">
        <ele>2275.5</ele>
        <time>2011-11-29T10:58:33Z</time>
      </trkpt>
      <trkpt lat="44.9919" lon="5.91752">
        <ele>2282.2</ele>
        <time>2011-11-29T10:59:19Z</time>
      </trkpt>
      <trkpt lat="44.99188" lon="5.91764">
        <ele>2290.2</ele>
        <time>2011-11-29T11:00:15Z</time>
      </trkpt>
      <trkpt lat="44.99184" lon="5.91774">
        <ele>2295.6</ele>
        <time>2011-11-29T11:00:47Z</time>
      </trkpt>
      <trkpt lat="44.99175" lon="5.91777">
        <ele>2298.6</ele>
        <time>2011-11-29T11:01:06Z</time>
      </trkpt>
      <trkpt lat="44.99166" lon="5.91775">
        <ele>2301.6</ele>
        <time>2011-11-29T11:01:31Z</time>
      </trkpt>
      <trkpt lat="44.99158" lon="5.91776">
        <ele>2308.1</ele>
        <time>2011-11-29T11:02:18Z</time>
      </trkpt>
      <trkpt lat="44.99152" lon="5.91785">
        <ele>2318.8</ele>
        <time>2011-11-29T11:03:36Z</time>
      </trkpt>
      <trkpt lat="44.99149" lon="5.91797">
        <ele>2326.4</ele>
        <time>2011-11-29T11:04:21Z</time>
      </trkpt>
      <trkpt lat="44.99142" lon="5.91804">
        <ele>2332.1</ele>
        <time>2011-11-29T11:05:01Z</time>
      </trkpt>
      <trkpt lat="44.99138" lon="5.91815">
        <ele>2340</ele>
        <time>2011-11-29T11:06:06Z</time>
      </trkpt>
      <trkpt lat="44.9913" lon="5.91819">
        <ele>2346.9</ele>
        <time>2011-11-29T11:06:57Z</time>
      </trkpt>
      <trkpt lat="44.99122" lon="5.91827">
        <ele>2355.6</ele>
        <time>2011-11-29T11:07:51Z</time>
      </trkpt>
      <trkpt lat="44.99115" lon="5.91833">
        <ele>2363.6</ele>
        <time>2011-11-29T11:08:39Z</time>
      </trkpt>
      <trkpt lat="44.99108" lon="5.91827">
        <ele>2369.4</ele>
        <time>2011-11-29T11:09:28Z</time>
      </trkpt>
      <trkpt lat="44.99105" lon="5.91838">
        <ele>2370.1</ele>
        <time>2011-11-29T11:10:59Z</time>
      </trkpt>
      <trkpt lat="44.99111" lon="5.91848">
        <ele>2373.6</ele>
        <time>2011-11-29T11:11:23Z</time>
      </trkpt>
      <trkpt lat="44.99114" lon="5.9186">
        <ele>2377.4</ele>
        <time>2011-11-29T11:12:00Z</time>
      </trkpt>
      <trkpt lat="44.99115" lon="5.9186">
        <ele>2382.1</ele>
        <time>2011-11-29T12:34:01Z</time>
      </trkpt>
      <trkpt lat="44.99124" lon="5.91865">
        <ele>2378.3</ele>
        <time>2011-11-29T12:34:27Z</time>
      </trkpt>
      <trkpt lat="44.99124" lon="5.91865">
        <ele>2378.2</ele>
        <time>2011-11-29T12:34:28Z</time>
      </trkpt>
      <trkpt lat="44.99138" lon="5.9188">
        <ele>2370.2</ele>
        <time>2011-11-29T12:35:56Z</time>
      </trkpt>
      <trkpt lat="44.99138" lon="5.9188">
        <ele>2369.9</ele>
        <time>2011-11-29T12:35:57Z</time>
      </trkpt>
      <trkpt lat="44.99146" lon="5.91875">
        <ele>2366.1</ele>
        <time>2011-11-29T12:37:22Z</time>
      </trkpt>
      <trkpt lat="44.99147" lon="5.91875">
        <ele>2366.1</ele>
        <time>2011-11-29T12:37:23Z</time>
      </trkpt>
      <trkpt lat="44.9914" lon="5.91853">
        <ele>2354.4</ele>
        <time>2011-11-29T12:38:55Z</time>
      </trkpt>
      <trkpt lat="44.99139" lon="5.91853">
        <ele>2354.1</ele>
        <time>2011-11-29T12:38:56Z</time>
      </trkpt>
      <trkpt lat="44.99149" lon="5.9185">
        <ele>2350.7</ele>
        <time>2011-11-29T12:40:48Z</time>
      </trkpt>
      <trkpt lat="44.99156" lon="5.91842">
        <ele>2342.1</ele>
        <time>2011-11-29T12:42:15Z</time>
      </trkpt>
      <trkpt lat="44.99152" lon="5.91831">
        <ele>2337.7</ele>
        <time>2011-11-29T12:43:36Z</time>
      </trkpt>
      <trkpt lat="44.99167" lon="5.91818">
        <ele>2325.4</ele>
        <time>2011-11-29T12:45:25Z</time>
      </trkpt>
      <trkpt lat="44.99167" lon="5.91818">
        <ele>2325.2</ele>
        <time>2011-11-29T12:45:26Z</time>
      </trkpt>
      <trkpt lat="44.99181" lon="5.91804">
        <ele>2309.5</ele>
        <time>2011-11-29T12:47:19Z</time>
      </trkpt>
      <trkpt lat="44.99181" lon="5.91804">
        <ele>2309.4</ele>
        <time>2011-11-29T12:47:20Z</time>
      </trkpt>
      <trkpt lat="44.99188" lon="5.91795">
        <ele>2303.6</ele>
        <time>2011-11-29T12:48:50Z</time>
      </trkpt>
      <trkpt lat="44.99188" lon="5.91774">
        <ele>2292.4</ele>
        <time>2011-11-29T12:50:12Z</time>
      </trkpt>
      <trkpt lat="44.99188" lon="5.91773">
        <ele>2292.2</ele>
        <time>2011-11-29T12:50:13Z</time>
      </trkpt>
      <trkpt lat="44.99191" lon="5.91751">
        <ele>2283.9</ele>
        <time>2011-11-29T12:53:59Z</time>
      </trkpt>
      <trkpt lat="44.99191" lon="5.9175">
        <ele>2283.5</ele>
        <time>2011-11-29T12:54:00Z</time>
      </trkpt>
      <trkpt lat="44.99189" lon="5.91726">
        <ele>2272.8</ele>
        <time>2011-11-29T12:54:47Z</time>
      </trkpt>
      <trkpt lat="44.99194" lon="5.91715">
        <ele>2266.3</ele>
        <time>2011-11-29T12:55:21Z</time>
      </trkpt>
      <trkpt lat="44.99194" lon="5.91714">
        <ele>2266.2</ele>
        <time>2011-11-29T12:55:22Z</time>
      </trkpt>
      <trkpt lat="44.9921" lon="5.91705">
        <ele>2258.9</ele>
        <time>2011-11-29T12:56:35Z</time>
      </trkpt>
      <trkpt lat="44.9921" lon="5.91705">
        <ele>2258.9</ele>
        <time>2011-11-29T12:56:36Z</time>
      </trkpt>
      <trkpt lat="44.9922" lon="5.91689">
        <ele>2249.5</ele>
        <time>2011-11-29T12:57:20Z</time>
      </trkpt>
      <trkpt lat="44.99226" lon="5.9168">
        <ele>2247.4</ele>
        <time>2011-11-29T12:57:35Z</time>
      </trkpt>
      <trkpt lat="44.99231" lon="5.91671">
        <ele>2243.9</ele>
        <time>2011-11-29T12:57:51Z</time>
      </trkpt>
      <trkpt lat="44.99231" lon="5.9167">
        <ele>2243.5</ele>
        <time>2011-11-29T12:57:52Z</time>
      </trkpt>
      <trkpt lat="44.99241" lon="5.91651">
        <ele>2232.3</ele>
        <time>2011-11-29T12:58:28Z</time>
      </trkpt>
      <trkpt lat="44.99244" lon="5.91639">
        <ele>2230.5</ele>
        <time>2011-11-29T12:58:42Z</time>
      </trkpt>
      <trkpt lat="44.99243" lon="5.91627">
        <ele>2224.3</ele>
        <time>2011-11-29T12:59:01Z</time>
      </trkpt>
      <trkpt lat="44.99243" lon="5.91626">
        <ele>2224.2</ele>
        <time>2011-11-29T12:59:02Z</time>
      </trkpt>
      <trkpt lat="44.9925" lon="5.91618">
        <ele>2222.8</ele>
        <time>2011-11-29T13:01:49Z</time>
      </trkpt>
      <trkpt lat="44.99262" lon="5.91601">
        <ele>2219.1</ele>
        <time>2011-11-29T13:02:15Z</time>
      </trkpt>
      <trkpt lat="44.99267" lon="5.91592">
        <ele>2215.5</ele>
        <time>2011-11-29T13:02:28Z</time>
      </trkpt>
      <trkpt lat="44.99272" lon="5.91581">
        <ele>2215.4</ele>
        <time>2011-11-29T13:02:43Z</time>
      </trkpt>
      <trkpt lat="44.99273" lon="5.91568">
        <ele>2210.8</ele>
        <time>2011-11-29T13:03:08Z</time>
      </trkpt>
      <trkpt lat="44.99273" lon="5.91568">
        <ele>2210.7</ele>
        <time>2011-11-29T13:03:09Z</time>
      </trkpt>
      <trkpt lat="44.99273" lon="5.91544">
        <ele>2199.9</ele>
        <time>2011-11-29T13:03:54Z</time>
      </trkpt>
      <trkpt lat="44.99266" lon="5.91537">
        <ele>2192.6</ele>
        <time>2011-11-29T13:04:34Z</time>
      </trkpt>
      <trkpt lat="44.99266" lon="5.91537">
        <ele>2192</ele>
        <time>2011-11-29T13:04:35Z</time>
      </trkpt>
      <trkpt lat="44.99259" lon="5.91515">
        <ele>2180.5</ele>
        <time>2011-11-29T13:05:53Z</time>
      </trkpt>
      <trkpt lat="44.99259" lon="5.91514">
        <ele>2180.3</ele>
        <time>2011-11-29T13:05:54Z</time>
      </trkpt>
      <trkpt lat="44.99251" lon="5.91493">
        <ele>2169.1</ele>
        <time>2011-11-29T13:06:43Z</time>
      </trkpt>
      <trkpt lat="44.99252" lon="5.91481">
        <ele>2164.3</ele>
        <time>2011-11-29T13:07:00Z</time>
      </trkpt>
      <trkpt lat="44.99252" lon="5.9148">
        <ele>2164.1</ele>
        <time>2011-11-29T13:07:01Z</time>
      </trkpt>
      <trkpt lat="44.9926" lon="5.91458">
        <ele>2157.7</ele>
        <time>2011-11-29T13:07:33Z</time>
      </trkpt>
      <trkpt lat="44.99263" lon="5.91447">
        <ele>2155.2</ele>
        <time>2011-11-29T13:07:48Z</time>
      </trkpt>
      <trkpt lat="44.99261" lon="5.91435">
        <ele>2151.4</ele>
        <time>2011-11-29T13:08:14Z</time>
      </trkpt>
      <trkpt lat="44.99262" lon="5.91434">
        <ele>2151.2</ele>
        <time>2011-11-29T13:08:15Z</time>
      </trkpt>
      <trkpt lat="44.99263" lon="5.9141">
        <ele>2142.2</ele>
        <time>2011-11-29T13:08:58Z</time>
      </trkpt>
      <trkpt lat="44.99263" lon="5.91397">
        <ele>2137.7</ele>
        <time>2011-11-29T13:09:18Z</time>
      </trkpt>
      <trkpt lat="44.99263" lon="5.91397">
        <ele>2137.5</ele>
        <time>2011-11-29T13:09:19Z</time>
      </trkpt>
      <trkpt lat="44.99248" lon="5.91385">
        <ele>2123</ele>
        <time>2011-11-29T13:10:28Z</time>
      </trkpt>
      <trkpt lat="44.99248" lon="5.91385">
        <ele>2122.8</ele>
        <time>2011-11-29T13:10:29Z</time>
      </trkpt>
      <trkpt lat="44.9924" lon="5.91381">
        <ele>2118.1</ele>
        <time>2011-11-29T13:14:43Z</time>
      </trkpt>
      <trkpt lat="44.99225" lon="5.91369">
        <ele>2103.4</ele>
        <time>2011-11-29T13:15:43Z</time>
      </trkpt>
      <trkpt lat="44.99224" lon="5.91368">
        <ele>2103.4</ele>
        <time>2011-11-29T13:15:44Z</time>
      </trkpt>
      <trkpt lat="44.99216" lon="5.91349">
        <ele>2094</ele>
        <time>2011-11-29T13:16:26Z</time>
      </trkpt>
      <trkpt lat="44.99213" lon="5.91337">
        <ele>2088.7</ele>
        <time>2011-11-29T13:16:53Z</time>
      </trkpt>
      <trkpt lat="44.99213" lon="5.91337">
        <ele>2087.9</ele>
        <time>2011-11-29T13:16:54Z</time>
      </trkpt>
      <trkpt lat="44.99196" lon="5.91334">
        <ele>2077.6</ele>
        <time>2011-11-29T13:17:35Z</time>
      </trkpt>
      <trkpt lat="44.99194" lon="5.91322">
        <ele>2072</ele>
        <time>2011-11-29T13:18:24Z</time>
      </trkpt>
      <trkpt lat="44.99194" lon="5.91322">
        <ele>2072.4</ele>
        <time>2011-11-29T13:18:25Z</time>
      </trkpt>
      <trkpt lat="44.99192" lon="5.91309">
        <ele>2067.5</ele>
        <time>2011-11-29T13:20:09Z</time>
      </trkpt>
      <trkpt lat="44.99191" lon="5.91286">
        <ele>2056.7</ele>
        <time>2011-11-29T13:20:49Z</time>
      </trkpt>
      <trkpt lat="44.99187" lon="5.91274">
        <ele>2051.4</ele>
        <time>2011-11-29T13:21:10Z</time>
      </trkpt>
      <trkpt lat="44.99187" lon="5.91274">
        <ele>2050.7</ele>
        <time>2011-11-29T13:21:11Z</time>
      </trkpt>
      <trkpt lat="44.99178" lon="5.91254">
        <ele>2039.7</ele>
        <time>2011-11-29T13:21:54Z</time>
      </trkpt>
      <trkpt lat="44.99178" lon="5.91241">
        <ele>2036.3</ele>
        <time>2011-11-29T13:22:10Z</time>
      </trkpt>
      <trkpt lat="44.99176" lon="5.91229">
        <ele>2031.8</ele>
        <time>2011-11-29T13:22:28Z</time>
      </trkpt>
      <trkpt lat="44.99176" lon="5.91229">
        <ele>2031.4</ele>
        <time>2011-11-29T13:22:29Z</time>
      </trkpt>
      <trkpt lat="44.9917" lon="5.91206">
        <ele>2023.2</ele>
        <time>2011-11-29T13:23:05Z</time>
      </trkpt>
      <trkpt lat="44.99165" lon="5.91196">
        <ele>2016.1</ele>
        <time>2011-11-29T13:23:31Z</time>
      </trkpt>
      <trkpt lat="44.99165" lon="5.91195">
        <ele>2015.8</ele>
        <time>2011-11-29T13:23:32Z</time>
      </trkpt>
      <trkpt lat="44.99163" lon="5.91172">
        <ele>2005.9</ele>
        <time>2011-11-29T13:24:11Z</time>
      </trkpt>
      <trkpt lat="44.99163" lon="5.91159">
        <ele>2001.6</ele>
        <time>2011-11-29T13:24:28Z</time>
      </trkpt>
      <trkpt lat="44.99163" lon="5.91147">
        <ele>1996.1</ele>
        <time>2011-11-29T13:24:51Z</time>
      </trkpt>
      <trkpt lat="44.99163" lon="5.91146">
        <ele>1995.9</ele>
        <time>2011-11-29T13:24:52Z</time>
      </trkpt>
      <trkpt lat="44.99152" lon="5.91128">
        <ele>1985.5</ele>
        <time>2011-11-29T13:25:32Z</time>
      </trkpt>
      <trkpt lat="44.99143" lon="5.91125">
        <ele>1981.3</ele>
        <time>2011-11-29T13:25:48Z</time>
      </trkpt>
      <trkpt lat="44.99142" lon="5.91113">
        <ele>1976.9</ele>
        <time>2011-11-29T13:26:03Z</time>
      </trkpt>
      <trkpt lat="44.99141" lon="5.91112">
        <ele>1976.8</ele>
        <time>2011-11-29T13:26:04Z</time>
      </trkpt>
      <trkpt lat="44.99134" lon="5.91091">
        <ele>1966.8</ele>
        <time>2011-11-29T13:26:36Z</time>
      </trkpt>
      <trkpt lat="44.99131" lon="5.9108">
        <ele>1962</ele>
        <time>2011-11-29T13:26:59Z</time>
      </trkpt>
      <trkpt lat="44.99134" lon="5.91068">
        <ele>1954.6</ele>
        <time>2011-11-29T13:27:52Z</time>
      </trkpt>
      <trkpt lat="44.99134" lon="5.91068">
        <ele>1954.5</ele>
        <time>2011-11-29T13:27:53Z</time>
      </trkpt>
      <trkpt lat="44.99125" lon="5.91047">
        <ele>1943.9</ele>
        <time>2011-11-29T13:28:38Z</time>
      </trkpt>
      <trkpt lat="44.99125" lon="5.91035">
        <ele>1939.2</ele>
        <time>2011-11-29T13:28:56Z</time>
      </trkpt>
      <trkpt lat="44.99125" lon="5.91034">
        <ele>1938.8</ele>
        <time>2011-11-29T13:28:57Z</time>
      </trkpt>
      <trkpt lat="44.99121" lon="5.91011">
        <ele>1934.1</ele>
        <time>2011-11-29T13:32:01Z</time>
      </trkpt>
      <trkpt lat="44.99121" lon="5.9101">
        <ele>1934.1</ele>
        <time>2011-11-29T13:32:02Z</time>
      </trkpt>
      <trkpt lat="44.99109" lon="5.91005">
        <ele>1929.9</ele>
        <time>2011-11-29T13:33:00Z</time>
      </trkpt>
      <trkpt lat="44.99102" lon="5.91014">
        <ele>1927.7</ele>
        <time>2011-11-29T13:33:22Z</time>
      </trkpt>
      <trkpt lat="44.99102" lon="5.91013">
        <ele>1927.7</ele>
        <time>2011-11-29T13:33:23Z</time>
      </trkpt>
      <trkpt lat="44.99089" lon="5.90998">
        <ele>1918.4</ele>
        <time>2011-11-29T13:34:01Z</time>
      </trkpt>
      <trkpt lat="44.99083" lon="5.90988">
        <ele>1915.1</ele>
        <time>2011-11-29T13:34:16Z</time>
      </trkpt>
      <trkpt lat="44.99077" lon="5.9098">
        <ele>1911.5</ele>
        <time>2011-11-29T13:34:29Z</time>
      </trkpt>
      <trkpt lat="44.99077" lon="5.90979">
        <ele>1911.2</ele>
        <time>2011-11-29T13:34:30Z</time>
      </trkpt>
      <trkpt lat="44.99069" lon="5.90959">
        <ele>1905.1</ele>
        <time>2011-11-29T13:34:51Z</time>
      </trkpt>
      <trkpt lat="44.99066" lon="5.90947">
        <ele>1901.7</ele>
        <time>2011-11-29T13:35:02Z</time>
      </trkpt>
      <trkpt lat="44.99063" lon="5.90937">
        <ele>1898</ele>
        <time>2011-11-29T13:35:12Z</time>
      </trkpt>
      <trkpt lat="44.99061" lon="5.90925">
        <ele>1894.5</ele>
        <time>2011-11-29T13:35:22Z</time>
      </trkpt>
      <trkpt lat="44.99059" lon="5.90913">
        <ele>1891.5</ele>
        <time>2011-11-29T13:35:34Z</time>
      </trkpt>
      <trkpt lat="44.99058" lon="5.90913">
        <ele>1891.3</ele>
        <time>2011-11-29T13:35:35Z</time>
      </trkpt>
      <trkpt lat="44.99051" lon="5.90892">
        <ele>1882.6</ele>
        <time>2011-11-29T13:36:08Z</time>
      </trkpt>
      <trkpt lat="44.99048" lon="5.9088">
        <ele>1878.7</ele>
        <time>2011-11-29T13:36:44Z</time>
      </trkpt>
      <trkpt lat="44.99048" lon="5.90879">
        <ele>1878.7</ele>
        <time>2011-11-29T13:36:45Z</time>
      </trkpt>
      <trkpt lat="44.99041" lon="5.90858">
        <ele>1871.1</ele>
        <time>2011-11-29T13:37:15Z</time>
      </trkpt>
      <trkpt lat="44.9904" lon="5.90846">
        <ele>1867.8</ele>
        <time>2011-11-29T13:37:26Z</time>
      </trkpt>
      <trkpt lat="44.99039" lon="5.90834">
        <ele>1865.6</ele>
        <time>2011-11-29T13:37:37Z</time>
      </trkpt>
      <trkpt lat="44.99036" lon="5.90821">
        <ele>1864.3</ele>
        <time>2011-11-29T13:37:46Z</time>
      </trkpt>
      <trkpt lat="44.99036" lon="5.9082">
        <ele>1864.4</ele>
        <time>2011-11-29T13:37:47Z</time>
      </trkpt>
      <trkpt lat="44.99031" lon="5.90798">
        <ele>1858.6</ele>
        <time>2011-11-29T13:38:09Z</time>
      </trkpt>
      <trkpt lat="44.99027" lon="5.90786">
        <ele>1856.1</ele>
        <time>2011-11-29T13:38:21Z</time>
      </trkpt>
      <trkpt lat="44.99022" lon="5.90776">
        <ele>1852.9</ele>
        <time>2011-11-29T13:38:35Z</time>
      </trkpt>
      <trkpt lat="44.99018" lon="5.90765">
        <ele>1846.6</ele>
        <time>2011-11-29T13:38:49Z</time>
      </trkpt>
      <trkpt lat="44.99018" lon="5.90764">
        <ele>1846.4</ele>
        <time>2011-11-29T13:38:50Z</time>
      </trkpt>
      <trkpt lat="44.99011" lon="5.90744">
        <ele>1839.9</ele>
        <time>2011-11-29T13:39:16Z</time>
      </trkpt>
      <trkpt lat="44.99009" lon="5.90733">
        <ele>1838</ele>
        <time>2011-11-29T13:39:25Z</time>
      </trkpt>
      <trkpt lat="44.99008" lon="5.9072">
        <ele>1835</ele>
        <time>2011-11-29T13:39:34Z</time>
      </trkpt>
      <trkpt lat="44.99004" lon="5.90709">
        <ele>1832.9</ele>
        <time>2011-11-29T13:39:52Z</time>
      </trkpt>
      <trkpt lat="44.99004" lon="5.90708">
        <ele>1832.4</ele>
        <time>2011-11-29T13:39:53Z</time>
      </trkpt>
      <trkpt lat="44.98998" lon="5.90688">
        <ele>1825</ele>
        <time>2011-11-29T13:40:17Z</time>
      </trkpt>
      <trkpt lat="44.98998" lon="5.90675">
        <ele>1821</ele>
        <time>2011-11-29T13:40:30Z</time>
      </trkpt>
      <trkpt lat="44.98995" lon="5.90664">
        <ele>1815.7</ele>
        <time>2011-11-29T13:40:45Z</time>
      </trkpt>
      <trkpt lat="44.9899" lon="5.90654">
        <ele>1812.4</ele>
        <time>2011-11-29T13:40:59Z</time>
      </trkpt>
      <trkpt lat="44.9899" lon="5.90653">
        <ele>1811.9</ele>
        <time>2011-11-29T13:41:00Z</time>
      </trkpt>
      <trkpt lat="44.98985" lon="5.90631">
        <ele>1806.9</ele>
        <time>2011-11-29T13:41:21Z</time>
      </trkpt>
      <trkpt lat="44.98981" lon="5.90621">
        <ele>1802.4</ele>
        <time>2011-11-29T13:41:34Z</time>
      </trkpt>
      <trkpt lat="44.98979" lon="5.90609">
        <ele>1799.3</ele>
        <time>2011-11-29T13:41:48Z</time>
      </trkpt>
      <trkpt lat="44.98973" lon="5.90599">
        <ele>1796.2</ele>
        <time>2011-11-29T13:42:03Z</time>
      </trkpt>
      <trkpt lat="44.98973" lon="5.90599">
        <ele>1795.5</ele>
        <time>2011-11-29T13:42:04Z</time>
      </trkpt>
      <trkpt lat="44.98981" lon="5.90577">
        <ele>1784.4</ele>
        <time>2011-11-29T13:43:02Z</time>
      </trkpt>
      <trkpt lat="44.98978" lon="5.90565">
        <ele>1778.6</ele>
        <time>2011-11-29T13:43:17Z</time>
      </trkpt>
      <trkpt lat="44.98978" lon="5.90564">
        <ele>1778.1</ele>
        <time>2011-11-29T13:43:18Z</time>
      </trkpt>
      <trkpt lat="44.98972" lon="5.90542">
        <ele>1773.2</ele>
        <time>2011-11-29T13:43:39Z</time>
      </trkpt>
      <trkpt lat="44.98968" lon="5.90531">
        <ele>1771.4</ele>
        <time>2011-11-29T13:43:48Z</time>
      </trkpt>
      <trkpt lat="44.98968" lon="5.90519">
        <ele>1768</ele>
        <time>2011-11-29T13:44:02Z</time>
      </trkpt>
      <trkpt lat="44.98963" lon="5.90509">
        <ele>1762.8</ele>
        <time>2011-11-29T13:44:20Z</time>
      </trkpt>
      <trkpt lat="44.98963" lon="5.90508">
        <ele>1762.8</ele>
        <time>2011-11-29T13:44:21Z</time>
      </trkpt>
      <trkpt lat="44.9895" lon="5.90493">
        <ele>1754.6</ele>
        <time>2011-11-29T13:44:51Z</time>
      </trkpt>
      <trkpt lat="44.98946" lon="5.90482">
        <ele>1752</ele>
        <time>2011-11-29T13:45:05Z</time>
      </trkpt>
      <trkpt lat="44.98951" lon="5.90473">
        <ele>1750.6</ele>
        <time>2011-11-29T13:45:41Z</time>
      </trkpt>
      <trkpt lat="44.98951" lon="5.90473">
        <ele>1750.5</ele>
        <time>2011-11-29T13:45:42Z</time>
      </trkpt>
      <trkpt lat="44.98965" lon="5.90476">
        <ele>1749.2</ele>
        <time>2011-11-29T13:46:40Z</time>
      </trkpt>
      <trkpt lat="44.98956" lon="5.90477">
        <ele>1749.2</ele>
        <time>2011-11-29T13:47:02Z</time>
      </trkpt>
      <trkpt lat="44.98956" lon="5.90477">
        <ele>1749.3</ele>
        <time>2011-11-29T13:47:03Z</time>
      </trkpt>
      <trkpt lat="44.98947" lon="5.90478">
        <ele>1749.6</ele>
        <time>2011-11-29T13:49:52Z</time>
      </trkpt>
      <trkpt lat="44.98952" lon="5.9049">
        <ele>1751.8</ele>
        <time>2011-11-29T14:10:10Z</time>
      </trkpt>
      <trkpt lat="44.98947" lon="5.90478">
        <ele>1752</ele>
        <time>2011-11-29T14:18:20Z</time>
      </trkpt>
      <trkpt lat="44.98946" lon="5.90455">
        <ele>1748.9</ele>
        <time>2011-11-29T14:18:57Z</time>
      </trkpt>
      <trkpt lat="44.98946" lon="5.90443">
        <ele>1746.4</ele>
        <time>2011-11-29T14:19:08Z</time>
      </trkpt>
      <trkpt lat="44.98948" lon="5.90432">
        <ele>1743.9</ele>
        <time>2011-11-29T14:19:19Z</time>
      </trkpt>
      <trkpt lat="44.98947" lon="5.90419">
        <ele>1741.3</ele>
        <time>2011-11-29T14:19:30Z</time>
      </trkpt>
      <trkpt lat="44.98947" lon="5.90419">
        <ele>1741</ele>
        <time>2011-11-29T14:19:31Z</time>
      </trkpt>
      <trkpt lat="44.98946" lon="5.90434">
        <ele>1743.3</ele>
        <time>2011-11-29T14:21:08Z</time>
      </trkpt>
      <trkpt lat="44.98947" lon="5.90435">
        <ele>1743.4</ele>
        <time>2011-11-29T14:21:09Z</time>
      </trkpt>
      <trkpt lat="44.98963" lon="5.90441">
        <ele>1748.3</ele>
        <time>2011-11-29T14:21:39Z</time>
      </trkpt>
      <trkpt lat="44.98971" lon="5.90445">
        <ele>1733.5</ele>
        <time>2011-11-29T14:21:54Z</time>
      </trkpt>
      <trkpt lat="44.9898" lon="5.90448">
        <ele>1728.7</ele>
        <time>2011-11-29T14:22:13Z</time>
      </trkpt>
      <trkpt lat="44.9898" lon="5.90449">
        <ele>1728.4</ele>
        <time>2011-11-29T14:22:14Z</time>
      </trkpt>
      <trkpt lat="44.98997" lon="5.90448">
        <ele>1722.1</ele>
        <time>2011-11-29T14:23:08Z</time>
      </trkpt>
      <trkpt lat="44.99006" lon="5.9045">
        <ele>1718.5</ele>
        <time>2011-11-29T14:23:45Z</time>
      </trkpt>
      <trkpt lat="44.99006" lon="5.90451">
        <ele>1718.4</ele>
        <time>2011-11-29T14:23:46Z</time>
      </trkpt>
      <trkpt lat="44.99018" lon="5.90434">
        <ele>1707.1</ele>
        <time>2011-11-29T14:24:58Z</time>
      </trkpt>
      <trkpt lat="44.99019" lon="5.90434">
        <ele>1706.8</ele>
        <time>2011-11-29T14:24:59Z</time>
      </trkpt>
      <trkpt lat="44.99033" lon="5.90445">
        <ele>1705.2</ele>
        <time>2011-11-29T14:25:35Z</time>
      </trkpt>
      <trkpt lat="44.99041" lon="5.90451">
        <ele>1704.2</ele>
        <time>2011-11-29T14:25:50Z</time>
      </trkpt>
      <trkpt lat="44.9905" lon="5.90453">
        <ele>1701.2</ele>
        <time>2011-11-29T14:26:08Z</time>
      </trkpt>
      <trkpt lat="44.9905" lon="5.90453">
        <ele>1701</ele>
        <time>2011-11-29T14:26:09Z</time>
      </trkpt>
      <trkpt lat="44.99066" lon="5.90459">
        <ele>1697.4</ele>
        <time>2011-11-29T14:27:01Z</time>
      </trkpt>
      <trkpt lat="44.99074" lon="5.90464">
        <ele>1694.9</ele>
        <time>2011-11-29T14:27:44Z</time>
      </trkpt>
      <trkpt lat="44.99074" lon="5.90464">
        <ele>1695.2</ele>
        <time>2011-11-29T14:27:45Z</time>
      </trkpt>
      <trkpt lat="44.99082" lon="5.90457">
        <ele>1688.7</ele>
        <time>2011-11-29T14:29:14Z</time>
      </trkpt>
      <trkpt lat="44.99098" lon="5.90452">
        <ele>1678.9</ele>
        <time>2011-11-29T14:30:35Z</time>
      </trkpt>
      <trkpt lat="44.99099" lon="5.90452">
        <ele>1678.7</ele>
        <time>2011-11-29T14:30:36Z</time>
      </trkpt>
      <trkpt lat="44.99115" lon="5.9045">
        <ele>1673</ele>
        <time>2011-11-29T14:31:30Z</time>
      </trkpt>
      <trkpt lat="44.99124" lon="5.9045">
        <ele>1669.4</ele>
        <time>2011-11-29T14:31:49Z</time>
      </trkpt>
      <trkpt lat="44.99124" lon="5.90449">
        <ele>1668.8</ele>
        <time>2011-11-29T14:31:50Z</time>
      </trkpt>
      <trkpt lat="44.99131" lon="5.90435">
        <ele>1660.6</ele>
        <time>2011-11-29T14:33:04Z</time>
      </trkpt>
      <trkpt lat="44.99131" lon="5.90434">
        <ele>1660.4</ele>
        <time>2011-11-29T14:33:05Z</time>
      </trkpt>
      <trkpt lat="44.99145" lon="5.90424">
        <ele>1653.4</ele>
        <time>2011-11-29T14:34:08Z</time>
      </trkpt>
      <trkpt lat="44.99146" lon="5.90425">
        <ele>1653.4</ele>
        <time>2011-11-29T14:34:09Z</time>
      </trkpt>
      <trkpt lat="44.99162" lon="5.9042">
        <ele>1653.1</ele>
        <time>2011-11-29T14:34:42Z</time>
      </trkpt>
      <trkpt lat="44.99171" lon="5.90422">
        <ele>1652.9</ele>
        <time>2011-11-29T14:34:53Z</time>
      </trkpt>
      <trkpt lat="44.99179" lon="5.90419">
        <ele>1649.1</ele>
        <time>2011-11-29T14:35:12Z</time>
      </trkpt>
      <trkpt lat="44.9918" lon="5.90419">
        <ele>1649</ele>
        <time>2011-11-29T14:35:13Z</time>
      </trkpt>
      <trkpt lat="44.9919" lon="5.90403">
        <ele>1640.7</ele>
        <time>2011-11-29T14:35:56Z</time>
      </trkpt>
      <trkpt lat="44.99189" lon="5.90392">
        <ele>1638.2</ele>
        <time>2011-11-29T14:36:03Z</time>
      </trkpt>
      <trkpt lat="44.99189" lon="5.90379">
        <ele>1635.8</ele>
        <time>2011-11-29T14:36:13Z</time>
      </trkpt>
      <trkpt lat="44.9919" lon="5.90378">
        <ele>1636.1</ele>
        <time>2011-11-29T14:36:14Z</time>
      </trkpt>
      <trkpt lat="44.99205" lon="5.9037">
        <ele>1630.4</ele>
        <time>2011-11-29T14:36:36Z</time>
      </trkpt>
      <trkpt lat="44.99212" lon="5.90362">
        <ele>1627.3</ele>
        <time>2011-11-29T14:36:48Z</time>
      </trkpt>
      <trkpt lat="44.99216" lon="5.90351">
        <ele>1627.1</ele>
        <time>2011-11-29T14:36:59Z</time>
      </trkpt>
      <trkpt lat="44.99211" lon="5.90341">
        <ele>1624.9</ele>
        <time>2011-11-29T14:37:09Z</time>
      </trkpt>
      <trkpt lat="44.99215" lon="5.90329">
        <ele>1623.4</ele>
        <time>2011-11-29T14:37:19Z</time>
      </trkpt>
      <trkpt lat="44.99215" lon="5.90329">
        <ele>1623.2</ele>
        <time>2011-11-29T14:37:20Z</time>
      </trkpt>
      <trkpt lat="44.99205" lon="5.9031">
        <ele>1618.6</ele>
        <time>2011-11-29T14:38:04Z</time>
      </trkpt>
      <trkpt lat="44.99201" lon="5.90299">
        <ele>1614.2</ele>
        <time>2011-11-29T14:38:24Z</time>
      </trkpt>
      <trkpt lat="44.992" lon="5.90298">
        <ele>1614.2</ele>
        <time>2011-11-29T14:38:25Z</time>
      </trkpt>
      <trkpt lat="44.99194" lon="5.90276">
        <ele>1606.9</ele>
        <time>2011-11-29T14:38:58Z</time>
      </trkpt>
      <trkpt lat="44.99197" lon="5.90265">
        <ele>1602.3</ele>
        <time>2011-11-29T14:39:14Z</time>
      </trkpt>
      <trkpt lat="44.99203" lon="5.90257">
        <ele>1596.5</ele>
        <time>2011-11-29T14:39:29Z</time>
      </trkpt>
      <trkpt lat="44.99204" lon="5.90256">
        <ele>1596.1</ele>
        <time>2011-11-29T14:39:30Z</time>
      </trkpt>
      <trkpt lat="44.99218" lon="5.90247">
        <ele>1591.1</ele>
        <time>2011-11-29T14:39:52Z</time>
      </trkpt>
      <trkpt lat="44.99225" lon="5.90239">
        <ele>1588.9</ele>
        <time>2011-11-29T14:39:59Z</time>
      </trkpt>
      <trkpt lat="44.99226" lon="5.90228">
        <ele>1586</ele>
        <time>2011-11-29T14:40:12Z</time>
      </trkpt>
      <trkpt lat="44.99223" lon="5.90217">
        <ele>1583</ele>
        <time>2011-11-29T14:40:23Z</time>
      </trkpt>
      <trkpt lat="44.99221" lon="5.90205">
        <ele>1580.3</ele>
        <time>2011-11-29T14:40:34Z</time>
      </trkpt>
      <trkpt lat="44.99221" lon="5.90204">
        <ele>1580.2</ele>
        <time>2011-11-29T14:40:35Z</time>
      </trkpt>
      <trkpt lat="44.99226" lon="5.90184">
        <ele>1573.5</ele>
        <time>2011-11-29T14:40:57Z</time>
      </trkpt>
      <trkpt lat="44.99232" lon="5.90176">
        <ele>1568.5</ele>
        <time>2011-11-29T14:41:12Z</time>
      </trkpt>
      <trkpt lat="44.9924" lon="5.9017">
        <ele>1565.5</ele>
        <time>2011-11-29T14:41:29Z</time>
      </trkpt>
      <trkpt lat="44.99244" lon="5.90159">
        <ele>1561.4</ele>
        <time>2011-11-29T14:41:44Z</time>
      </trkpt>
      <trkpt lat="44.99244" lon="5.90157">
        <ele>1561.3</ele>
        <time>2011-11-29T14:41:45Z</time>
      </trkpt>
      <trkpt lat="44.99247" lon="5.90136">
        <ele>1555.7</ele>
        <time>2011-11-29T14:42:08Z</time>
      </trkpt>
      <trkpt lat="44.99246" lon="5.90124">
        <ele>1554.2</ele>
        <time>2011-11-29T14:42:21Z</time>
      </trkpt>
      <trkpt lat="44.99238" lon="5.90119">
        <ele>1551.3</ele>
        <time>2011-11-29T14:43:12Z</time>
      </trkpt>
      <trkpt lat="44.99237" lon="5.90119">
        <ele>1551.4</ele>
        <time>2011-11-29T14:43:13Z</time>
      </trkpt>
      <trkpt lat="44.99244" lon="5.90098">
        <ele>1548.7</ele>
        <time>2011-11-29T14:45:28Z</time>
      </trkpt>
      <trkpt lat="44.99245" lon="5.90097">
        <ele>1548.3</ele>
        <time>2011-11-29T14:45:29Z</time>
      </trkpt>
      <trkpt lat="44.9926" lon="5.90087">
        <ele>1543.2</ele>
        <time>2011-11-29T14:46:18Z</time>
      </trkpt>
      <trkpt lat="44.99259" lon="5.90074">
        <ele>1539.6</ele>
        <time>2011-11-29T14:46:41Z</time>
      </trkpt>
      <trkpt lat="44.99259" lon="5.90074">
        <ele>1539.3</ele>
        <time>2011-11-29T14:46:42Z</time>
      </trkpt>
      <trkpt lat="44.99256" lon="5.90062">
        <ele>1529.9</ele>
        <time>2011-11-29T14:48:13Z</time>
      </trkpt>
      <trkpt lat="44.99266" lon="5.90042">
        <ele>1515.8</ele>
        <time>2011-11-29T14:49:06Z</time>
      </trkpt>
      <trkpt lat="44.99269" lon="5.90031">
        <ele>1515.7</ele>
        <time>2011-11-29T14:49:23Z</time>
      </trkpt>
      <trkpt lat="44.99269" lon="5.9003">
        <ele>1515.6</ele>
        <time>2011-11-29T14:49:24Z</time>
      </trkpt>
      <trkpt lat="44.99279" lon="5.90011">
        <ele>1502.3</ele>
        <time>2011-11-29T14:50:28Z</time>
      </trkpt>
      <trkpt lat="44.9928" lon="5.9001">
        <ele>1502.3</ele>
        <time>2011-11-29T14:50:29Z</time>
      </trkpt>
      <trkpt lat="44.99281" lon="5.8999">
        <ele>1498.5</ele>
        <time>2011-11-29T14:51:20Z</time>
      </trkpt>
      <trkpt lat="44.99277" lon="5.89978">
        <ele>1497</ele>
        <time>2011-11-29T14:51:32Z</time>
      </trkpt>
      <trkpt lat="44.99277" lon="5.89977">
        <ele>1497</ele>
        <time>2011-11-29T14:51:33Z</time>
      </trkpt>
      <trkpt lat="44.99271" lon="5.89955">
        <ele>1491.3</ele>
        <time>2011-11-29T14:51:56Z</time>
      </trkpt>
      <trkpt lat="44.99269" lon="5.89944">
        <ele>1489</ele>
        <time>2011-11-29T14:52:07Z</time>
      </trkpt>
      <trkpt lat="44.99267" lon="5.89932">
        <ele>1486.5</ele>
        <time>2011-11-29T14:52:18Z</time>
      </trkpt>
      <trkpt lat="44.99265" lon="5.8992">
        <ele>1484.4</ele>
        <time>2011-11-29T14:52:30Z</time>
      </trkpt>
      <trkpt lat="44.99261" lon="5.89909">
        <ele>1482.1</ele>
        <time>2011-11-29T14:52:40Z</time>
      </trkpt>
      <trkpt lat="44.99261" lon="5.89908">
        <ele>1481.7</ele>
        <time>2011-11-29T14:52:41Z</time>
      </trkpt>
      <trkpt lat="44.99259" lon="5.89885">
        <ele>1476.8</ele>
        <time>2011-11-29T14:53:01Z</time>
      </trkpt>
      <trkpt lat="44.99257" lon="5.89873">
        <ele>1474.1</ele>
        <time>2011-11-29T14:53:15Z</time>
      </trkpt>
      <trkpt lat="44.99251" lon="5.89864">
        <ele>1471.2</ele>
        <time>2011-11-29T14:53:29Z</time>
      </trkpt>
      <trkpt lat="44.99243" lon="5.89859">
        <ele>1467.7</ele>
        <time>2011-11-29T14:53:42Z</time>
      </trkpt>
      <trkpt lat="44.99243" lon="5.89858">
        <ele>1467.6</ele>
        <time>2011-11-29T14:53:43Z</time>
      </trkpt>
      <trkpt lat="44.99236" lon="5.89836">
        <ele>1462</ele>
        <time>2011-11-29T14:54:07Z</time>
      </trkpt>
      <trkpt lat="44.9923" lon="5.89827">
        <ele>1458.1</ele>
        <time>2011-11-29T14:54:20Z</time>
      </trkpt>
      <trkpt lat="44.99224" lon="5.89818">
        <ele>1453.8</ele>
        <time>2011-11-29T14:54:34Z</time>
      </trkpt>
      <trkpt lat="44.99217" lon="5.89811">
        <ele>1450.7</ele>
        <time>2011-11-29T14:55:01Z</time>
      </trkpt>
      <trkpt lat="44.99217" lon="5.8981">
        <ele>1450.4</ele>
        <time>2011-11-29T14:55:02Z</time>
      </trkpt>
      <trkpt lat="44.99214" lon="5.89786">
        <ele>1446.3</ele>
        <time>2011-11-29T14:55:41Z</time>
      </trkpt>
      <trkpt lat="44.99212" lon="5.89798">
        <ele>1447.4</ele>
        <time>2011-11-29T14:58:31Z</time>
      </trkpt>
      <trkpt lat="44.99213" lon="5.89799">
        <ele>1447.5</ele>
        <time>2011-11-29T14:58:32Z</time>
      </trkpt>
      <trkpt lat="44.99225" lon="5.89815">
        <ele>1452.7</ele>
        <time>2011-11-29T14:58:57Z</time>
      </trkpt>
      <trkpt lat="44.99232" lon="5.89821">
        <ele>1456.1</ele>
        <time>2011-11-29T14:59:10Z</time>
      </trkpt>
      <trkpt lat="44.9924" lon="5.89827">
        <ele>1457.9</ele>
        <time>2011-11-29T14:59:22Z</time>
      </trkpt>
      <trkpt lat="44.99247" lon="5.89833">
        <ele>1460.9</ele>
        <time>2011-11-29T14:59:34Z</time>
      </trkpt>
      <trkpt lat="44.99248" lon="5.89833">
        <ele>1461.2</ele>
        <time>2011-11-29T14:59:35Z</time>
      </trkpt>
      <trkpt lat="44.99264" lon="5.89842">
        <ele>1466.5</ele>
        <time>2011-11-29T15:00:02Z</time>
      </trkpt>
      <trkpt lat="44.99271" lon="5.89849">
        <ele>1470.1</ele>
        <time>2011-11-29T15:00:15Z</time>
      </trkpt>
      <trkpt lat="44.99279" lon="5.89855">
        <ele>1472.8</ele>
        <time>2011-11-29T15:00:32Z</time>
      </trkpt>
      <trkpt lat="44.99284" lon="5.89864">
        <ele>1474.5</ele>
        <time>2011-11-29T15:00:44Z</time>
      </trkpt>
      <trkpt lat="44.99285" lon="5.89865">
        <ele>1474.4</ele>
        <time>2011-11-29T15:00:45Z</time>
      </trkpt>
      <trkpt lat="44.99299" lon="5.89877">
        <ele>1476.2</ele>
        <time>2011-11-29T15:01:01Z</time>
      </trkpt>
      <trkpt lat="44.99307" lon="5.89879">
        <ele>1477.1</ele>
        <time>2011-11-29T15:01:08Z</time>
      </trkpt>
      <trkpt lat="44.99316" lon="5.8988">
        <ele>1478.9</ele>
        <time>2011-11-29T15:01:16Z</time>
      </trkpt>
      <trkpt lat="44.99324" lon="5.89883">
        <ele>1478.1</ele>
        <time>2011-11-29T15:01:24Z</time>
      </trkpt>
      <trkpt lat="44.99332" lon="5.89887">
        <ele>1478.5</ele>
        <time>2011-11-29T15:01:34Z</time>
      </trkpt>
      <trkpt lat="44.9934" lon="5.89893">
        <ele>1479.4</ele>
        <time>2011-11-29T15:01:43Z</time>
      </trkpt>
      <trkpt lat="44.99349" lon="5.89893">
        <ele>1479.7</ele>
        <time>2011-11-29T15:01:51Z</time>
      </trkpt>
      <trkpt lat="44.99349" lon="5.89893">
        <ele>1479.8</ele>
        <time>2011-11-29T15:01:52Z</time>
      </trkpt>
      <trkpt lat="44.99365" lon="5.89888">
        <ele>1480.7</ele>
        <time>2011-11-29T15:02:07Z</time>
      </trkpt>
      <trkpt lat="44.99374" lon="5.89885">
        <ele>1481.5</ele>
        <time>2011-11-29T15:02:16Z</time>
      </trkpt>
      <trkpt lat="44.99381" lon="5.89883">
        <ele>1483</ele>
        <time>2011-11-29T15:02:24Z</time>
      </trkpt>
      <trkpt lat="44.99389" lon="5.89882">
        <ele>1484.3</ele>
        <time>2011-11-29T15:02:31Z</time>
      </trkpt>
      <trkpt lat="44.99397" lon="5.89876">
        <ele>1485.6</ele>
        <time>2011-11-29T15:02:42Z</time>
      </trkpt>
      <trkpt lat="44.99405" lon="5.89874">
        <ele>1487</ele>
        <time>2011-11-29T15:02:50Z</time>
      </trkpt>
      <trkpt lat="44.99414" lon="5.89874">
        <ele>1489.7</ele>
        <time>2011-11-29T15:02:59Z</time>
      </trkpt>
      <trkpt lat="44.99415" lon="5.89873">
        <ele>1490</ele>
        <time>2011-11-29T15:03:00Z</time>
      </trkpt>
      <trkpt lat="44.9943" lon="5.89874">
        <ele>1491.5</ele>
        <time>2011-11-29T15:03:13Z</time>
      </trkpt>
      <trkpt lat="44.99438" lon="5.8987">
        <ele>1492</ele>
        <time>2011-11-29T15:03:21Z</time>
      </trkpt>
      <trkpt lat="44.99446" lon="5.89869">
        <ele>1493.9</ele>
        <time>2011-11-29T15:03:30Z</time>
      </trkpt>
      <trkpt lat="44.99454" lon="5.89868">
        <ele>1496.4</ele>
        <time>2011-11-29T15:03:39Z</time>
      </trkpt>
      <trkpt lat="44.99462" lon="5.89862">
        <ele>1497</ele>
        <time>2011-11-29T15:03:49Z</time>
      </trkpt>
      <trkpt lat="44.99469" lon="5.89857">
        <ele>1499.3</ele>
        <time>2011-11-29T15:04:00Z</time>
      </trkpt>
      <trkpt lat="44.9947" lon="5.89856">
        <ele>1499.4</ele>
        <time>2011-11-29T15:04:01Z</time>
      </trkpt>
      <trkpt lat="44.99482" lon="5.89842">
        <ele>1502.4</ele>
        <time>2011-11-29T15:04:21Z</time>
      </trkpt>
      <trkpt lat="44.99487" lon="5.89832">
        <ele>1506.3</ele>
        <time>2011-11-29T15:04:31Z</time>
      </trkpt>
      <trkpt lat="44.99494" lon="5.89825">
        <ele>1508.2</ele>
        <time>2011-11-29T15:04:43Z</time>
      </trkpt>
      <trkpt lat="44.995" lon="5.89816">
        <ele>1510.6</ele>
        <time>2011-11-29T15:04:53Z</time>
      </trkpt>
      <trkpt lat="44.99507" lon="5.8981">
        <ele>1514.3</ele>
        <time>2011-11-29T15:05:06Z</time>
      </trkpt>
      <trkpt lat="44.99507" lon="5.89809">
        <ele>1514.7</ele>
        <time>2011-11-29T15:05:07Z</time>
      </trkpt>
      <trkpt lat="44.99518" lon="5.89793">
        <ele>1518.4</ele>
        <time>2011-11-29T15:05:30Z</time>
      </trkpt>
      <trkpt lat="44.99525" lon="5.89784">
        <ele>1520.9</ele>
        <time>2011-11-29T15:05:42Z</time>
      </trkpt>
      <trkpt lat="44.99532" lon="5.89779">
        <ele>1521.6</ele>
        <time>2011-11-29T15:05:51Z</time>
      </trkpt>
      <trkpt lat="44.9954" lon="5.89775">
        <ele>1522.5</ele>
        <time>2011-11-29T15:05:59Z</time>
      </trkpt>
      <trkpt lat="44.99547" lon="5.89768">
        <ele>1523.5</ele>
        <time>2011-11-29T15:06:09Z</time>
      </trkpt>
      <trkpt lat="44.99548" lon="5.89767">
        <ele>1523.6</ele>
        <time>2011-11-29T15:06:10Z</time>
      </trkpt>
      <trkpt lat="44.99562" lon="5.89755">
        <ele>1526.6</ele>
        <time>2011-11-29T15:06:25Z</time>
      </trkpt>
      <trkpt lat="44.99568" lon="5.89748">
        <ele>1527.5</ele>
        <time>2011-11-29T15:06:35Z</time>
      </trkpt>
      <trkpt lat="44.99574" lon="5.89738">
        <ele>1527.7</ele>
        <time>2011-11-29T15:06:45Z</time>
      </trkpt>
      <trkpt lat="44.99579" lon="5.89728">
        <ele>1529.4</ele>
        <time>2011-11-29T15:06:55Z</time>
      </trkpt>
      <trkpt lat="44.99579" lon="5.89716">
        <ele>1531.5</ele>
        <time>2011-11-29T15:07:09Z</time>
      </trkpt>
      <trkpt lat="44.99582" lon="5.89701">
        <ele>1534</ele>
        <time>2011-11-29T15:07:24Z</time>
      </trkpt>
      <trkpt lat="44.99582" lon="5.897">
        <ele>1534.7</ele>
        <time>2011-11-29T15:07:26Z</time>
      </trkpt>
      <trkpt lat="44.99587" lon="5.89676">
        <ele>1538.8</ele>
        <time>2011-11-29T15:07:52Z</time>
      </trkpt>
      <trkpt lat="44.99589" lon="5.89664">
        <ele>1538.4</ele>
        <time>2011-11-29T15:08:01Z</time>
      </trkpt>
      <trkpt lat="44.99592" lon="5.89652">
        <ele>1538</ele>
        <time>2011-11-29T15:08:10Z</time>
      </trkpt>
      <trkpt lat="44.99593" lon="5.8964">
        <ele>1537.3</ele>
        <time>2011-11-29T15:08:17Z</time>
      </trkpt>
      <trkpt lat="44.99594" lon="5.89628">
        <ele>1536.4</ele>
        <time>2011-11-29T15:08:25Z</time>
      </trkpt>
      <trkpt lat="44.99593" lon="5.89616">
        <ele>1535.2</ele>
        <time>2011-11-29T15:08:32Z</time>
      </trkpt>
      <trkpt lat="44.99593" lon="5.89615">
        <ele>1534.9</ele>
        <time>2011-11-29T15:08:33Z</time>
      </trkpt>
      <trkpt lat="44.99592" lon="5.89592">
        <ele>1533.7</ele>
        <time>2011-11-29T15:08:46Z</time>
      </trkpt>
      <trkpt lat="44.99593" lon="5.89581">
        <ele>1532.2</ele>
        <time>2011-11-29T15:08:52Z</time>
      </trkpt>
      <trkpt lat="44.99594" lon="5.89569">
        <ele>1531.3</ele>
        <time>2011-11-29T15:08:59Z</time>
      </trkpt>
      <trkpt lat="44.99599" lon="5.89559">
        <ele>1531.8</ele>
        <time>2011-11-29T15:09:07Z</time>
      </trkpt>
      <trkpt lat="44.99605" lon="5.89551">
        <ele>1530.5</ele>
        <time>2011-11-29T15:09:14Z</time>
      </trkpt>
      <trkpt lat="44.99612" lon="5.89546">
        <ele>1529.7</ele>
        <time>2011-11-29T15:09:22Z</time>
      </trkpt>
      <trkpt lat="44.99619" lon="5.89539">
        <ele>1529</ele>
        <time>2011-11-29T15:09:29Z</time>
      </trkpt>
      <trkpt lat="44.99625" lon="5.89532">
        <ele>1529.3</ele>
        <time>2011-11-29T15:09:35Z</time>
      </trkpt>
      <trkpt lat="44.99626" lon="5.8953">
        <ele>1529.1</ele>
        <time>2011-11-29T15:09:36Z</time>
      </trkpt>
      <trkpt lat="44.99635" lon="5.89512">
        <ele>1529</ele>
        <time>2011-11-29T15:09:48Z</time>
      </trkpt>
      <trkpt lat="44.99638" lon="5.89501">
        <ele>1529.2</ele>
        <time>2011-11-29T15:09:55Z</time>
      </trkpt>
      <trkpt lat="44.99643" lon="5.89491">
        <ele>1528.7</ele>
        <time>2011-11-29T15:10:03Z</time>
      </trkpt>
      <trkpt lat="44.99647" lon="5.8948">
        <ele>1529.7</ele>
        <time>2011-11-29T15:10:10Z</time>
      </trkpt>
      <trkpt lat="44.99651" lon="5.89469">
        <ele>1530</ele>
        <time>2011-11-29T15:10:19Z</time>
      </trkpt>
      <trkpt lat="44.99654" lon="5.89458">
        <ele>1529.6</ele>
        <time>2011-11-29T15:10:27Z</time>
      </trkpt>
      <trkpt lat="44.99656" lon="5.89446">
        <ele>1529.9</ele>
        <time>2011-11-29T15:10:35Z</time>
      </trkpt>
      <trkpt lat="44.99658" lon="5.89435">
        <ele>1530.5</ele>
        <time>2011-11-29T15:10:43Z</time>
      </trkpt>
      <trkpt lat="44.99658" lon="5.89433">
        <ele>1530.6</ele>
        <time>2011-11-29T15:10:44Z</time>
      </trkpt>
      <trkpt lat="44.99659" lon="5.89411">
        <ele>1531.4</ele>
        <time>2011-11-29T15:10:59Z</time>
      </trkpt>
      <trkpt lat="44.99659" lon="5.89399">
        <ele>1532.4</ele>
        <time>2011-11-29T15:11:06Z</time>
      </trkpt>
      <trkpt lat="44.99661" lon="5.89387">
        <ele>1532.8</ele>
        <time>2011-11-29T15:11:15Z</time>
      </trkpt>
      <trkpt lat="44.99661" lon="5.89375">
        <ele>1533.7</ele>
        <time>2011-11-29T15:11:24Z</time>
      </trkpt>
      <trkpt lat="44.99659" lon="5.89364">
        <ele>1534.3</ele>
        <time>2011-11-29T15:11:30Z</time>
      </trkpt>
      <trkpt lat="44.99659" lon="5.89351">
        <ele>1534.6</ele>
        <time>2011-11-29T15:11:37Z</time>
      </trkpt>
      <trkpt lat="44.99661" lon="5.89339">
        <ele>1535</ele>
        <time>2011-11-29T15:11:43Z</time>
      </trkpt>
      <trkpt lat="44.99665" lon="5.89329">
        <ele>1535.4</ele>
        <time>2011-11-29T15:11:51Z</time>
      </trkpt>
      <trkpt lat="44.99665" lon="5.89328">
        <ele>1535.2</ele>
        <time>2011-11-29T15:11:52Z</time>
      </trkpt>
      <trkpt lat="44.99675" lon="5.89309">
        <ele>1537.7</ele>
        <time>2011-11-29T15:12:10Z</time>
      </trkpt>
      <trkpt lat="44.99681" lon="5.89301">
        <ele>1539.5</ele>
        <time>2011-11-29T15:12:18Z</time>
      </trkpt>
      <trkpt lat="44.99688" lon="5.89293">
        <ele>1540.7</ele>
        <time>2011-11-29T15:12:27Z</time>
      </trkpt>
      <trkpt lat="44.99692" lon="5.89283">
        <ele>1542</ele>
        <time>2011-11-29T15:12:35Z</time>
      </trkpt>
      <trkpt lat="44.99698" lon="5.89273">
        <ele>1542.3</ele>
        <time>2011-11-29T15:12:44Z</time>
      </trkpt>
      <trkpt lat="44.99702" lon="5.89263">
        <ele>1543.1</ele>
        <time>2011-11-29T15:12:54Z</time>
      </trkpt>
      <trkpt lat="44.99704" lon="5.89262">
        <ele>1543.2</ele>
        <time>2011-11-29T15:12:55Z</time>
      </trkpt>
      <trkpt lat="44.99718" lon="5.89257">
        <ele>1545.3</ele>
        <time>2011-11-29T15:13:11Z</time>
      </trkpt>
      <trkpt lat="44.99726" lon="5.89254">
        <ele>1545.3</ele>
        <time>2011-11-29T15:13:19Z</time>
      </trkpt>
      <trkpt lat="44.99734" lon="5.89249">
        <ele>1545.4</ele>
        <time>2011-11-29T15:13:26Z</time>
      </trkpt>
      <trkpt lat="44.99743" lon="5.89245">
        <ele>1543.9</ele>
        <time>2011-11-29T15:13:33Z</time>
      </trkpt>
      <trkpt lat="44.9975" lon="5.8924">
        <ele>1543.5</ele>
        <time>2011-11-29T15:13:40Z</time>
      </trkpt>
      <trkpt lat="44.99758" lon="5.89235">
        <ele>1543</ele>
        <time>2011-11-29T15:13:47Z</time>
      </trkpt>
      <trkpt lat="44.99765" lon="5.89231">
        <ele>1541.9</ele>
        <time>2011-11-29T15:13:54Z</time>
      </trkpt>
      <trkpt lat="44.99773" lon="5.89225">
        <ele>1541.3</ele>
        <time>2011-11-29T15:14:01Z</time>
      </trkpt>
      <trkpt lat="44.99774" lon="5.89224">
        <ele>1541.6</ele>
        <time>2011-11-29T15:14:02Z</time>
      </trkpt>
      <trkpt lat="44.99789" lon="5.89216">
        <ele>1540.6</ele>
        <time>2011-11-29T15:14:15Z</time>
      </trkpt>
      <trkpt lat="44.99797" lon="5.89213">
        <ele>1540</ele>
        <time>2011-11-29T15:14:21Z</time>
      </trkpt>
      <trkpt lat="44.99804" lon="5.89207">
        <ele>1539.9</ele>
        <time>2011-11-29T15:14:28Z</time>
      </trkpt>
      <trkpt lat="44.99811" lon="5.89201">
        <ele>1540</ele>
        <time>2011-11-29T15:14:35Z</time>
      </trkpt>
      <trkpt lat="44.99817" lon="5.89192">
        <ele>1540.5</ele>
        <time>2011-11-29T15:14:45Z</time>
      </trkpt>
      <trkpt lat="44.99824" lon="5.89185">
        <ele>1540</ele>
        <time>2011-11-29T15:14:53Z</time>
      </trkpt>
      <trkpt lat="44.99831" lon="5.89179">
        <ele>1541.4</ele>
        <time>2011-11-29T15:15:03Z</time>
      </trkpt>
      <trkpt lat="44.99832" lon="5.89178">
        <ele>1541.8</ele>
        <time>2011-11-29T15:15:04Z</time>
      </trkpt>
      <trkpt lat="44.99843" lon="5.89161">
        <ele>1542.6</ele>
        <time>2011-11-29T15:15:22Z</time>
      </trkpt>
      <trkpt lat="44.9985" lon="5.89155">
        <ele>1542.9</ele>
        <time>2011-11-29T15:15:31Z</time>
      </trkpt>
      <trkpt lat="44.99856" lon="5.89147">
        <ele>1543.9</ele>
        <time>2011-11-29T15:15:41Z</time>
      </trkpt>
      <trkpt lat="44.99863" lon="5.89138">
        <ele>1544.3</ele>
        <time>2011-11-29T15:15:52Z</time>
      </trkpt>
      <trkpt lat="44.9987" lon="5.89131">
        <ele>1544.4</ele>
        <time>2011-11-29T15:16:01Z</time>
      </trkpt>
      <trkpt lat="44.99877" lon="5.89126">
        <ele>1545.4</ele>
        <time>2011-11-29T15:16:09Z</time>
      </trkpt>
      <trkpt lat="44.99878" lon="5.89124">
        <ele>1545.5</ele>
        <time>2011-11-29T15:16:10Z</time>
      </trkpt>
      <trkpt lat="44.9989" lon="5.89109">
        <ele>1545.6</ele>
        <time>2011-11-29T15:16:25Z</time>
      </trkpt>
      <trkpt lat="44.99896" lon="5.89101">
        <ele>1546.2</ele>
        <time>2011-11-29T15:16:33Z</time>
      </trkpt>
      <trkpt lat="44.99902" lon="5.89092">
        <ele>1546.4</ele>
        <time>2011-11-29T15:16:42Z</time>
      </trkpt>
      <trkpt lat="44.99909" lon="5.89086">
        <ele>1546.6</ele>
        <time>2011-11-29T15:16:50Z</time>
      </trkpt>
      <trkpt lat="44.99917" lon="5.8908">
        <ele>1546.2</ele>
        <time>2011-11-29T15:16:58Z</time>
      </trkpt>
      <trkpt lat="44.99923" lon="5.89073">
        <ele>1546</ele>
        <time>2011-11-29T15:17:07Z</time>
      </trkpt>
      <trkpt lat="44.99932" lon="5.89069">
        <ele>1546.9</ele>
        <time>2011-11-29T15:17:16Z</time>
      </trkpt>
      <trkpt lat="44.99933" lon="5.89069">
        <ele>1547.2</ele>
        <time>2011-11-29T15:17:17Z</time>
      </trkpt>
      <trkpt lat="44.99946" lon="5.89056">
        <ele>1546.1</ele>
        <time>2011-11-29T15:17:31Z</time>
      </trkpt>
      <trkpt lat="44.99953" lon="5.89048">
        <ele>1547.2</ele>
        <time>2011-11-29T15:17:39Z</time>
      </trkpt>
      <trkpt lat="44.99959" lon="5.89041">
        <ele>1547.6</ele>
        <time>2011-11-29T15:17:47Z</time>
      </trkpt>
      <trkpt lat="44.99965" lon="5.89031">
        <ele>1547.2</ele>
        <time>2011-11-29T15:17:57Z</time>
      </trkpt>
      <trkpt lat="44.9997" lon="5.89021">
        <ele>1546.1</ele>
        <time>2011-11-29T15:18:06Z</time>
      </trkpt>
      <trkpt lat="44.99974" lon="5.8901">
        <ele>1546.9</ele>
        <time>2011-11-29T15:18:13Z</time>
      </trkpt>
      <trkpt lat="44.99981" lon="5.89003">
        <ele>1547.1</ele>
        <time>2011-11-29T15:18:22Z</time>
      </trkpt>
      <trkpt lat="44.99982" lon="5.89002">
        <ele>1547.2</ele>
        <time>2011-11-29T15:18:23Z</time>
      </trkpt>
      <trkpt lat="44.99996" lon="5.88992">
        <ele>1546.4</ele>
        <time>2011-11-29T15:18:37Z</time>
      </trkpt>
      <trkpt lat="45.00003" lon="5.88988">
        <ele>1547</ele>
        <time>2011-11-29T15:18:44Z</time>
      </trkpt>
      <trkpt lat="45.00011" lon="5.88983">
        <ele>1548.7</ele>
        <time>2011-11-29T15:18:53Z</time>
      </trkpt>
      <trkpt lat="45.00019" lon="5.88977">
        <ele>1548.8</ele>
        <time>2011-11-29T15:19:02Z</time>
      </trkpt>
      <trkpt lat="45.00027" lon="5.88973">
        <ele>1548.8</ele>
        <time>2011-11-29T15:19:10Z</time>
      </trkpt>
      <trkpt lat="45.00034" lon="5.88969">
        <ele>1548.1</ele>
        <time>2011-11-29T15:19:19Z</time>
      </trkpt>
      <trkpt lat="45.00043" lon="5.88967">
        <ele>1548.9</ele>
        <time>2011-11-29T15:19:27Z</time>
      </trkpt>
      <trkpt lat="45.00044" lon="5.88966">
        <ele>1548.7</ele>
        <time>2011-11-29T15:19:28Z</time>
      </trkpt>
      <trkpt lat="45.00043" lon="5.88961">
        <ele>1548.8</ele>
        <time>2011-11-29T15:20:19Z</time>
      </trkpt>
      <trkpt lat="45.00035" lon="5.88963">
        <ele>1548.7</ele>
        <time>2011-11-29T15:20:28Z</time>
      </trkpt>
      <trkpt lat="45.00034" lon="5.88963">
        <ele>1548.8</ele>
        <time>2011-11-29T15:20:29Z</time>
      </trkpt>
      <trkpt lat="45.00048" lon="5.88949">
        <ele>1539.2</ele>
        <time>2011-11-29T15:21:24Z</time>
      </trkpt>
      <trkpt lat="45.00055" lon="5.8894">
        <ele>1536.7</ele>
        <time>2011-11-29T15:21:34Z</time>
      </trkpt>
      <trkpt lat="45.00055" lon="5.88939">
        <ele>1536.7</ele>
        <time>2011-11-29T15:21:35Z</time>
      </trkpt>
      <trkpt lat="45.00064" lon="5.88927">
        <ele>1534.3</ele>
        <time>2011-11-29T15:21:58Z</time>
      </trkpt>
      <trkpt lat="45.00072" lon="5.88924">
        <ele>1532.1</ele>
        <time>2011-11-29T15:22:06Z</time>
      </trkpt>
      <trkpt lat="45.0008" lon="5.8892">
        <ele>1530.2</ele>
        <time>2011-11-29T15:22:15Z</time>
      </trkpt>
      <trkpt lat="45.00089" lon="5.8892">
        <ele>1528.2</ele>
        <time>2011-11-29T15:22:23Z</time>
      </trkpt>
      <trkpt lat="45.00098" lon="5.8892">
        <ele>1525.5</ele>
        <time>2011-11-29T15:22:30Z</time>
      </trkpt>
      <trkpt lat="45.00106" lon="5.88915">
        <ele>1524</ele>
        <time>2011-11-29T15:22:36Z</time>
      </trkpt>
      <trkpt lat="45.00107" lon="5.88914">
        <ele>1523.7</ele>
        <time>2011-11-29T15:22:37Z</time>
      </trkpt>
      <trkpt lat="45.00119" lon="5.88901">
        <ele>1522.9</ele>
        <time>2011-11-29T15:22:49Z</time>
      </trkpt>
      <trkpt lat="45.00124" lon="5.88891">
        <ele>1521.2</ele>
        <time>2011-11-29T15:22:57Z</time>
      </trkpt>
      <trkpt lat="45.00129" lon="5.88882">
        <ele>1521.2</ele>
        <time>2011-11-29T15:23:03Z</time>
      </trkpt>
      <trkpt lat="45.00137" lon="5.88878">
        <ele>1520.2</ele>
        <time>2011-11-29T15:23:13Z</time>
      </trkpt>
      <trkpt lat="45.00143" lon="5.88868">
        <ele>1517.9</ele>
        <time>2011-11-29T15:23:24Z</time>
      </trkpt>
      <trkpt lat="45.0015" lon="5.88862">
        <ele>1515.4</ele>
        <time>2011-11-29T15:23:48Z</time>
      </trkpt>
      <trkpt lat="45.0015" lon="5.88861">
        <ele>1515</ele>
        <time>2011-11-29T15:23:49Z</time>
      </trkpt>
      <trkpt lat="45.0016" lon="5.88843">
        <ele>1505.8</ele>
        <time>2011-11-29T15:24:18Z</time>
      </trkpt>
      <trkpt lat="45.00169" lon="5.88843">
        <ele>1503.3</ele>
        <time>2011-11-29T15:24:27Z</time>
      </trkpt>
      <trkpt lat="45.00177" lon="5.8884">
        <ele>1500.7</ele>
        <time>2011-11-29T15:24:36Z</time>
      </trkpt>
      <trkpt lat="45.00186" lon="5.88839">
        <ele>1498</ele>
        <time>2011-11-29T15:24:46Z</time>
      </trkpt>
      <trkpt lat="45.00194" lon="5.88838">
        <ele>1495.2</ele>
        <time>2011-11-29T15:24:56Z</time>
      </trkpt>
      <trkpt lat="45.00195" lon="5.88838">
        <ele>1495.1</ele>
        <time>2011-11-29T15:24:57Z</time>
      </trkpt>
      <trkpt lat="45.00189" lon="5.88816">
        <ele>1487.7</ele>
        <time>2011-11-29T15:25:28Z</time>
      </trkpt>
      <trkpt lat="45.00192" lon="5.88804">
        <ele>1478.4</ele>
        <time>2011-11-29T15:26:08Z</time>
      </trkpt>
      <trkpt lat="45.00192" lon="5.88804">
        <ele>1478.3</ele>
        <time>2011-11-29T15:26:09Z</time>
      </trkpt>
      <trkpt lat="45.00194" lon="5.88782">
        <ele>1469.7</ele>
        <time>2011-11-29T15:26:43Z</time>
      </trkpt>
      <trkpt lat="45.00194" lon="5.8877">
        <ele>1463</ele>
        <time>2011-11-29T15:27:15Z</time>
      </trkpt>
      <trkpt lat="45.00193" lon="5.88769">
        <ele>1462.9</ele>
        <time>2011-11-29T15:27:16Z</time>
      </trkpt>
      <trkpt lat="45.00198" lon="5.88758">
        <ele>1454.8</ele>
        <time>2011-11-29T15:27:44Z</time>
      </trkpt>
      <trkpt lat="45.00206" lon="5.88754">
        <ele>1451.6</ele>
        <time>2011-11-29T15:27:57Z</time>
      </trkpt>
      <trkpt lat="45.00207" lon="5.88742">
        <ele>1446.6</ele>
        <time>2011-11-29T15:28:17Z</time>
      </trkpt>
      <trkpt lat="45.00207" lon="5.88741">
        <ele>1446.2</ele>
        <time>2011-11-29T15:28:18Z</time>
      </trkpt>
      <trkpt lat="45.00211" lon="5.88733">
        <ele>1439.3</ele>
        <time>2011-11-29T15:28:47Z</time>
      </trkpt>
      <trkpt lat="45.00219" lon="5.8873">
        <ele>1436.1</ele>
        <time>2011-11-29T15:29:01Z</time>
      </trkpt>
      <trkpt lat="45.00226" lon="5.88722">
        <ele>1428.3</ele>
        <time>2011-11-29T15:29:37Z</time>
      </trkpt>
      <trkpt lat="45.00226" lon="5.88721">
        <ele>1428.3</ele>
        <time>2011-11-29T15:29:38Z</time>
      </trkpt>
      <trkpt lat="45.00241" lon="5.88711">
        <ele>1422.9</ele>
        <time>2011-11-29T15:30:00Z</time>
      </trkpt>
      <trkpt lat="45.00249" lon="5.8871">
        <ele>1420.5</ele>
        <time>2011-11-29T15:30:09Z</time>
      </trkpt>
      <trkpt lat="45.00257" lon="5.88714">
        <ele>1418.6</ele>
        <time>2011-11-29T15:30:18Z</time>
      </trkpt>
      <trkpt lat="45.00265" lon="5.88716">
        <ele>1415.5</ele>
        <time>2011-11-29T15:30:28Z</time>
      </trkpt>
      <trkpt lat="45.00273" lon="5.88719">
        <ele>1413.9</ele>
        <time>2011-11-29T15:30:34Z</time>
      </trkpt>
      <trkpt lat="45.00281" lon="5.88722">
        <ele>1411.7</ele>
        <time>2011-11-29T15:30:41Z</time>
      </trkpt>
      <trkpt lat="45.00282" lon="5.88722">
        <ele>1411.5</ele>
        <time>2011-11-29T15:30:42Z</time>
      </trkpt>
      <trkpt lat="45.00286" lon="5.88701">
        <ele>1404.6</ele>
        <time>2011-11-29T15:31:08Z</time>
      </trkpt>
      <trkpt lat="45.00283" lon="5.8869">
        <ele>1402.1</ele>
        <time>2011-11-29T15:31:16Z</time>
      </trkpt>
      <trkpt lat="45.0029" lon="5.88683">
        <ele>1397.7</ele>
        <time>2011-11-29T15:31:37Z</time>
      </trkpt>
      <trkpt lat="45.00298" lon="5.88683">
        <ele>1395.1</ele>
        <time>2011-11-29T15:31:46Z</time>
      </trkpt>
      <trkpt lat="45.00299" lon="5.88683">
        <ele>1395.2</ele>
        <time>2011-11-29T15:31:47Z</time>
      </trkpt>
      <trkpt lat="45.00301" lon="5.88666">
        <ele>1386.6</ele>
        <time>2011-11-29T15:32:18Z</time>
      </trkpt>
      <trkpt lat="45.00298" lon="5.88654">
        <ele>1382.3</ele>
        <time>2011-11-29T15:32:35Z</time>
      </trkpt>
      <trkpt lat="45.00307" lon="5.88654">
        <ele>1379.5</ele>
        <time>2011-11-29T15:32:51Z</time>
      </trkpt>
      <trkpt lat="45.00308" lon="5.88654">
        <ele>1379.2</ele>
        <time>2011-11-29T15:32:52Z</time>
      </trkpt>
      <trkpt lat="45.00321" lon="5.88651">
        <ele>1372.3</ele>
        <time>2011-11-29T15:33:20Z</time>
      </trkpt>
      <trkpt lat="45.00329" lon="5.88656">
        <ele>1371.4</ele>
        <time>2011-11-29T15:33:28Z</time>
      </trkpt>
      <trkpt lat="45.00337" lon="5.88657">
        <ele>1369.6</ele>
        <time>2011-11-29T15:33:39Z</time>
      </trkpt>
      <trkpt lat="45.00343" lon="5.88664">
        <ele>1367.6</ele>
        <time>2011-11-29T15:33:51Z</time>
      </trkpt>
      <trkpt lat="45.0035" lon="5.88672">
        <ele>1366.6</ele>
        <time>2011-11-29T15:34:00Z</time>
      </trkpt>
      <trkpt lat="45.00351" lon="5.88672">
        <ele>1366.4</ele>
        <time>2011-11-29T15:34:01Z</time>
      </trkpt>
      <trkpt lat="45.00367" lon="5.88675">
        <ele>1361.4</ele>
        <time>2011-11-29T15:34:37Z</time>
      </trkpt>
      <trkpt lat="45.00375" lon="5.88678">
        <ele>1360.1</ele>
        <time>2011-11-29T15:34:50Z</time>
      </trkpt>
      <trkpt lat="45.00384" lon="5.88677">
        <ele>1349.5</ele>
        <time>2011-11-29T15:35:34Z</time>
      </trkpt>
      <trkpt lat="45.00384" lon="5.88675">
        <ele>1349</ele>
        <time>2011-11-29T15:35:35Z</time>
      </trkpt>
      <trkpt lat="45.00399" lon="5.88665">
        <ele>1339.6</ele>
        <time>2011-11-29T15:36:24Z</time>
      </trkpt>
      <trkpt lat="45.00399" lon="5.88653">
        <ele>1336.1</ele>
        <time>2011-11-29T15:36:35Z</time>
      </trkpt>
      <trkpt lat="45.00399" lon="5.88652">
        <ele>1335.7</ele>
        <time>2011-11-29T15:36:36Z</time>
      </trkpt>
      <trkpt lat="45.00416" lon="5.88648">
        <ele>1328.1</ele>
        <time>2011-11-29T15:37:19Z</time>
      </trkpt>
      <trkpt lat="45.00424" lon="5.88651">
        <ele>1326.7</ele>
        <time>2011-11-29T15:37:33Z</time>
      </trkpt>
      <trkpt lat="45.00424" lon="5.88663">
        <ele>1326.3</ele>
        <time>2011-11-29T15:40:24Z</time>
      </trkpt>
      <trkpt lat="45.00424" lon="5.88664">
        <ele>1326.4</ele>
        <time>2011-11-29T15:40:25Z</time>
      </trkpt>
      <trkpt lat="45.0043" lon="5.88683">
        <ele>1325.6</ele>
        <time>2011-11-29T15:40:39Z</time>
      </trkpt>
      <trkpt lat="45.00435" lon="5.88693">
        <ele>1326.5</ele>
        <time>2011-11-29T15:40:45Z</time>
      </trkpt>
      <trkpt lat="45.00438" lon="5.88704">
        <ele>1325.9</ele>
        <time>2011-11-29T15:40:53Z</time>
      </trkpt>
      <trkpt lat="45.00443" lon="5.88714">
        <ele>1326.6</ele>
        <time>2011-11-29T15:41:00Z</time>
      </trkpt>
      <trkpt lat="45.00447" lon="5.88724">
        <ele>1325.8</ele>
        <time>2011-11-29T15:41:06Z</time>
      </trkpt>
      <trkpt lat="45.00451" lon="5.88735">
        <ele>1326.3</ele>
        <time>2011-11-29T15:41:13Z</time>
      </trkpt>
      <trkpt lat="45.00453" lon="5.88746">
        <ele>1326</ele>
        <time>2011-11-29T15:41:20Z</time>
      </trkpt>
      <trkpt lat="45.00456" lon="5.88758">
        <ele>1326.5</ele>
        <time>2011-11-29T15:41:27Z</time>
      </trkpt>
      <trkpt lat="45.00456" lon="5.8876">
        <ele>1326.5</ele>
        <time>2011-11-29T15:41:28Z</time>
      </trkpt>
      <trkpt lat="45.00461" lon="5.88783">
        <ele>1326.3</ele>
        <time>2011-11-29T15:41:45Z</time>
      </trkpt>
      <trkpt lat="45.00465" lon="5.88795">
        <ele>1325.7</ele>
        <time>2011-11-29T15:41:52Z</time>
      </trkpt>
      <trkpt lat="45.00465" lon="5.88809">
        <ele>1323.9</ele>
        <time>2011-11-29T15:42:04Z</time>
      </trkpt>
      <trkpt lat="45.00465" lon="5.88821">
        <ele>1321.5</ele>
        <time>2011-11-29T15:42:13Z</time>
      </trkpt>
      <trkpt lat="45.00464" lon="5.88832">
        <ele>1319.2</ele>
        <time>2011-11-29T15:42:22Z</time>
      </trkpt>
      <trkpt lat="45.00466" lon="5.88843">
        <ele>1317.6</ele>
        <time>2011-11-29T15:42:29Z</time>
      </trkpt>
      <trkpt lat="45.00466" lon="5.88845">
        <ele>1317.2</ele>
        <time>2011-11-29T15:42:30Z</time>
      </trkpt>
      <trkpt lat="45.00468" lon="5.88866">
        <ele>1314.6</ele>
        <time>2011-11-29T15:42:41Z</time>
      </trkpt>
      <trkpt lat="45.0047" lon="5.88877">
        <ele>1313.9</ele>
        <time>2011-11-29T15:42:47Z</time>
      </trkpt>
      <trkpt lat="45.0047" lon="5.88889">
        <ele>1312.9</ele>
        <time>2011-11-29T15:42:54Z</time>
      </trkpt>
      <trkpt lat="45.00471" lon="5.88901">
        <ele>1311.5</ele>
        <time>2011-11-29T15:43:01Z</time>
      </trkpt>
      <trkpt lat="45.00473" lon="5.88912">
        <ele>1309.8</ele>
        <time>2011-11-29T15:43:08Z</time>
      </trkpt>
      <trkpt lat="45.00476" lon="5.88923">
        <ele>1308.4</ele>
        <time>2011-11-29T15:43:15Z</time>
      </trkpt>
      <trkpt lat="45.00478" lon="5.88935">
        <ele>1306.5</ele>
        <time>2011-11-29T15:43:22Z</time>
      </trkpt>
      <trkpt lat="45.00481" lon="5.88946">
        <ele>1306.8</ele>
        <time>2011-11-29T15:43:29Z</time>
      </trkpt>
      <trkpt lat="45.00485" lon="5.88955">
        <ele>1305.4</ele>
        <time>2011-11-29T15:43:35Z</time>
      </trkpt>
      <trkpt lat="45.00486" lon="5.88957">
        <ele>1305.5</ele>
        <time>2011-11-29T15:43:36Z</time>
      </trkpt>
      <trkpt lat="45.00491" lon="5.88977">
        <ele>1303.4</ele>
        <time>2011-11-29T15:43:50Z</time>
      </trkpt>
      <trkpt lat="45.00497" lon="5.88986">
        <ele>1303.5</ele>
        <time>2011-11-29T15:44:04Z</time>
      </trkpt>
      <trkpt lat="45.00497" lon="5.88974">
        <ele>1301.7</ele>
        <time>2011-11-29T15:44:26Z</time>
      </trkpt>
      <trkpt lat="45.00496" lon="5.88962">
        <ele>1296.8</ele>
        <time>2011-11-29T15:44:43Z</time>
      </trkpt>
      <trkpt lat="45.00496" lon="5.8896">
        <ele>1296.3</ele>
        <time>2011-11-29T15:44:44Z</time>
      </trkpt>
      <trkpt lat="45.00494" lon="5.88938">
        <ele>1291.7</ele>
        <time>2011-11-29T15:45:05Z</time>
      </trkpt>
      <trkpt lat="45.00498" lon="5.88927">
        <ele>1289.2</ele>
        <time>2011-11-29T15:45:17Z</time>
      </trkpt>
      <trkpt lat="45.005" lon="5.88915">
        <ele>1285.5</ele>
        <time>2011-11-29T15:45:29Z</time>
      </trkpt>
      <trkpt lat="45.00503" lon="5.88903">
        <ele>1282.9</ele>
        <time>2011-11-29T15:45:39Z</time>
      </trkpt>
      <trkpt lat="45.00507" lon="5.88892">
        <ele>1280.5</ele>
        <time>2011-11-29T15:45:48Z</time>
      </trkpt>
      <trkpt lat="45.00507" lon="5.88891">
        <ele>1280.6</ele>
        <time>2011-11-29T15:45:49Z</time>
      </trkpt>
      <trkpt lat="45.0051" lon="5.8887">
        <ele>1276.3</ele>
        <time>2011-11-29T15:46:06Z</time>
      </trkpt>
      <trkpt lat="45.00513" lon="5.88859">
        <ele>1274.8</ele>
        <time>2011-11-29T15:46:16Z</time>
      </trkpt>
      <trkpt lat="45.0051" lon="5.88848">
        <ele>1271.7</ele>
        <time>2011-11-29T15:46:25Z</time>
      </trkpt>
      <trkpt lat="45.00519" lon="5.88848">
        <ele>1267.2</ele>
        <time>2011-11-29T15:46:44Z</time>
      </trkpt>
      <trkpt lat="45.00524" lon="5.88858">
        <ele>1265.8</ele>
        <time>2011-11-29T15:46:55Z</time>
      </trkpt>
      <trkpt lat="45.00524" lon="5.88859">
        <ele>1265.4</ele>
        <time>2011-11-29T15:46:56Z</time>
      </trkpt>
      <trkpt lat="45.00532" lon="5.88878">
        <ele>1261.9</ele>
        <time>2011-11-29T15:47:11Z</time>
      </trkpt>
      <trkpt lat="45.00536" lon="5.88888">
        <ele>1260.8</ele>
        <time>2011-11-29T15:47:19Z</time>
      </trkpt>
      <trkpt lat="45.00541" lon="5.88898">
        <ele>1259.1</ele>
        <time>2011-11-29T15:47:27Z</time>
      </trkpt>
      <trkpt lat="45.00546" lon="5.88907">
        <ele>1256.7</ele>
        <time>2011-11-29T15:47:35Z</time>
      </trkpt>
      <trkpt lat="45.00551" lon="5.88915">
        <ele>1255.4</ele>
        <time>2011-11-29T15:47:43Z</time>
      </trkpt>
      <trkpt lat="45.00555" lon="5.88927">
        <ele>1253.5</ele>
        <time>2011-11-29T15:47:51Z</time>
      </trkpt>
      <trkpt lat="45.00557" lon="5.88939">
        <ele>1250.4</ele>
        <time>2011-11-29T15:48:01Z</time>
      </trkpt>
      <trkpt lat="45.00558" lon="5.8894">
        <ele>1250.3</ele>
        <time>2011-11-29T15:48:02Z</time>
      </trkpt>
      <trkpt lat="45.00565" lon="5.88959">
        <ele>1247.5</ele>
        <time>2011-11-29T15:48:14Z</time>
      </trkpt>
      <trkpt lat="45.00566" lon="5.88971">
        <ele>1246.4</ele>
        <time>2011-11-29T15:48:21Z</time>
      </trkpt>
      <trkpt lat="45.0057" lon="5.88981">
        <ele>1245.3</ele>
        <time>2011-11-29T15:48:27Z</time>
      </trkpt>
      <trkpt lat="45.00573" lon="5.88993">
        <ele>1243.4</ele>
        <time>2011-11-29T15:48:33Z</time>
      </trkpt>
      <trkpt lat="45.00576" lon="5.89004">
        <ele>1242</ele>
        <time>2011-11-29T15:48:40Z</time>
      </trkpt>
      <trkpt lat="45.00578" lon="5.89016">
        <ele>1239.2</ele>
        <time>2011-11-29T15:48:50Z</time>
      </trkpt>
      <trkpt lat="45.00581" lon="5.89027">
        <ele>1238.7</ele>
        <time>2011-11-29T15:48:57Z</time>
      </trkpt>
      <trkpt lat="45.00585" lon="5.89038">
        <ele>1237.6</ele>
        <time>2011-11-29T15:49:07Z</time>
      </trkpt>
      <trkpt lat="45.00585" lon="5.89039">
        <ele>1237.4</ele>
        <time>2011-11-29T15:49:08Z</time>
      </trkpt>
      <trkpt lat="45.00589" lon="5.89061">
        <ele>1234.1</ele>
        <time>2011-11-29T15:49:25Z</time>
      </trkpt>
      <trkpt lat="45.0059" lon="5.89073">
        <ele>1231.5</ele>
        <time>2011-11-29T15:49:34Z</time>
      </trkpt>
      <trkpt lat="45.00588" lon="5.89085">
        <ele>1230.5</ele>
        <time>2011-11-29T15:49:43Z</time>
      </trkpt>
      <trkpt lat="45.00589" lon="5.89097">
        <ele>1228.6</ele>
        <time>2011-11-29T15:49:52Z</time>
      </trkpt>
      <trkpt lat="45.00591" lon="5.89108">
        <ele>1227</ele>
        <time>2011-11-29T15:50:00Z</time>
      </trkpt>
      <trkpt lat="45.00593" lon="5.89119">
        <ele>1225.7</ele>
        <time>2011-11-29T15:50:07Z</time>
      </trkpt>
      <trkpt lat="45.00598" lon="5.8913">
        <ele>1223</ele>
        <time>2011-11-29T15:50:14Z</time>
      </trkpt>
      <trkpt lat="45.00598" lon="5.89132">
        <ele>1222.7</ele>
        <time>2011-11-29T15:50:15Z</time>
      </trkpt>
      <trkpt lat="45.00603" lon="5.89151">
        <ele>1219.7</ele>
        <time>2011-11-29T15:50:27Z</time>
      </trkpt>
      <trkpt lat="45.00607" lon="5.89162">
        <ele>1217.5</ele>
        <time>2011-11-29T15:50:36Z</time>
      </trkpt>
      <trkpt lat="45.0061" lon="5.89173">
        <ele>1216.2</ele>
        <time>2011-11-29T15:50:45Z</time>
      </trkpt>
      <trkpt lat="45.00614" lon="5.89184">
        <ele>1213.4</ele>
        <time>2011-11-29T15:50:53Z</time>
      </trkpt>
      <trkpt lat="45.00615" lon="5.89196">
        <ele>1212.2</ele>
        <time>2011-11-29T15:51:01Z</time>
      </trkpt>
      <trkpt lat="45.00619" lon="5.89207">
        <ele>1210.1</ele>
        <time>2011-11-29T15:51:08Z</time>
      </trkpt>
      <trkpt lat="45.00622" lon="5.89218">
        <ele>1208.9</ele>
        <time>2011-11-29T15:51:15Z</time>
      </trkpt>
      <trkpt lat="45.00623" lon="5.8923">
        <ele>1206.3</ele>
        <time>2011-11-29T15:51:23Z</time>
      </trkpt>
      <trkpt lat="45.00624" lon="5.89231">
        <ele>1206.1</ele>
        <time>2011-11-29T15:51:24Z</time>
      </trkpt>
      <trkpt lat="45.00625" lon="5.89253">
        <ele>1202.3</ele>
        <time>2011-11-29T15:51:39Z</time>
      </trkpt>
      <trkpt lat="45.00626" lon="5.89265">
        <ele>1202.1</ele>
        <time>2011-11-29T15:51:46Z</time>
      </trkpt>
      <trkpt lat="45.00629" lon="5.89277">
        <ele>1200.6</ele>
        <time>2011-11-29T15:51:55Z</time>
      </trkpt>
      <trkpt lat="45.0063" lon="5.89288">
        <ele>1198.9</ele>
        <time>2011-11-29T15:52:04Z</time>
      </trkpt>
      <trkpt lat="45.00634" lon="5.893">
        <ele>1196.7</ele>
        <time>2011-11-29T15:52:13Z</time>
      </trkpt>
      <trkpt lat="45.00638" lon="5.89309">
        <ele>1195.7</ele>
        <time>2011-11-29T15:52:19Z</time>
      </trkpt>
      <trkpt lat="45.0064" lon="5.8932">
        <ele>1194.1</ele>
        <time>2011-11-29T15:52:26Z</time>
      </trkpt>
      <trkpt lat="45.0064" lon="5.89322">
        <ele>1193.6</ele>
        <time>2011-11-29T15:52:27Z</time>
      </trkpt>
      <trkpt lat="45.00649" lon="5.89341">
        <ele>1191.1</ele>
        <time>2011-11-29T15:52:41Z</time>
      </trkpt>
      <trkpt lat="45.00651" lon="5.89352">
        <ele>1189.1</ele>
        <time>2011-11-29T15:52:49Z</time>
      </trkpt>
      <trkpt lat="45.00656" lon="5.89362">
        <ele>1187.9</ele>
        <time>2011-11-29T15:52:56Z</time>
      </trkpt>
      <trkpt lat="45.00661" lon="5.89372">
        <ele>1187</ele>
        <time>2011-11-29T15:53:02Z</time>
      </trkpt>
      <trkpt lat="45.00666" lon="5.8938">
        <ele>1184.9</ele>
        <time>2011-11-29T15:53:08Z</time>
      </trkpt>
      <trkpt lat="45.0067" lon="5.89391">
        <ele>1184</ele>
        <time>2011-11-29T15:53:15Z</time>
      </trkpt>
      <trkpt lat="45.00672" lon="5.89402">
        <ele>1183</ele>
        <time>2011-11-29T15:53:22Z</time>
      </trkpt>
      <trkpt lat="45.00676" lon="5.89413">
        <ele>1181.2</ele>
        <time>2011-11-29T15:53:31Z</time>
      </trkpt>
      <trkpt lat="45.00676" lon="5.89415">
        <ele>1180.9</ele>
        <time>2011-11-29T15:53:32Z</time>
      </trkpt>
      <trkpt lat="45.00684" lon="5.89435">
        <ele>1177.5</ele>
        <time>2011-11-29T15:53:48Z</time>
      </trkpt>
      <trkpt lat="45.00687" lon="5.89445">
        <ele>1176.8</ele>
        <time>2011-11-29T15:53:54Z</time>
      </trkpt>
      <trkpt lat="45.00692" lon="5.89455">
        <ele>1176</ele>
        <time>2011-11-29T15:54:02Z</time>
      </trkpt>
      <trkpt lat="45.00696" lon="5.89466">
        <ele>1175.1</ele>
        <time>2011-11-29T15:54:10Z</time>
      </trkpt>
      <trkpt lat="45.007" lon="5.89476">
        <ele>1173</ele>
        <time>2011-11-29T15:54:17Z</time>
      </trkpt>
      <trkpt lat="45.00705" lon="5.89485">
        <ele>1172.4</ele>
        <time>2011-11-29T15:54:23Z</time>
      </trkpt>
      <trkpt lat="45.0071" lon="5.89495">
        <ele>1172.4</ele>
        <time>2011-11-29T15:54:31Z</time>
      </trkpt>
      <trkpt lat="45.00715" lon="5.89504">
        <ele>1170.3</ele>
        <time>2011-11-29T15:54:38Z</time>
      </trkpt>
      <trkpt lat="45.00717" lon="5.89505">
        <ele>1170.4</ele>
        <time>2011-11-29T15:54:39Z</time>
      </trkpt>
      <trkpt lat="45.00722" lon="5.89526">
        <ele>1167.9</ele>
        <time>2011-11-29T15:54:57Z</time>
      </trkpt>
      <trkpt lat="45.00727" lon="5.89536">
        <ele>1166.7</ele>
        <time>2011-11-29T15:55:09Z</time>
      </trkpt>
      <trkpt lat="45.00732" lon="5.89545">
        <ele>1165</ele>
        <time>2011-11-29T15:55:17Z</time>
      </trkpt>
      <trkpt lat="45.0074" lon="5.89551">
        <ele>1163.1</ele>
        <time>2011-11-29T15:55:29Z</time>
      </trkpt>
      <trkpt lat="45.00748" lon="5.89554">
        <ele>1162</ele>
        <time>2011-11-29T15:55:37Z</time>
      </trkpt>
      <trkpt lat="45.00756" lon="5.89553">
        <ele>1161.6</ele>
        <time>2011-11-29T15:55:57Z</time>
      </trkpt>
      <trkpt lat="45.00757" lon="5.89553">
        <ele>1161.1</ele>
        <time>2011-11-29T15:55:58Z</time>
      </trkpt>
      <trkpt lat="45.00771" lon="5.89564">
        <ele>1158.9</ele>
        <time>2011-11-29T15:56:13Z</time>
      </trkpt>
      <trkpt lat="45.00778" lon="5.89571">
        <ele>1157.4</ele>
        <time>2011-11-29T15:56:22Z</time>
      </trkpt>
      <trkpt lat="45.00785" lon="5.89578">
        <ele>1155.4</ele>
        <time>2011-11-29T15:56:29Z</time>
      </trkpt>
      <trkpt lat="45.00792" lon="5.89585">
        <ele>1154.3</ele>
        <time>2011-11-29T15:56:36Z</time>
      </trkpt>
      <trkpt lat="45.00797" lon="5.89593">
        <ele>1152.5</ele>
        <time>2011-11-29T15:56:43Z</time>
      </trkpt>
      <trkpt lat="45.00803" lon="5.89602">
        <ele>1151.5</ele>
        <time>2011-11-29T15:56:50Z</time>
      </trkpt>
      <trkpt lat="45.00808" lon="5.89611">
        <ele>1151</ele>
        <time>2011-11-29T15:56:56Z</time>
      </trkpt>
      <trkpt lat="45.00812" lon="5.8962">
        <ele>1150.6</ele>
        <time>2011-11-29T15:57:01Z</time>
      </trkpt>
      <trkpt lat="45.00813" lon="5.89622">
        <ele>1150.5</ele>
        <time>2011-11-29T15:57:02Z</time>
      </trkpt>
      <trkpt lat="45.00824" lon="5.89637">
        <ele>1148.7</ele>
        <time>2011-11-29T15:57:15Z</time>
      </trkpt>
      <trkpt lat="45.00829" lon="5.89646">
        <ele>1148.3</ele>
        <time>2011-11-29T15:57:24Z</time>
      </trkpt>
      <trkpt lat="45.00835" lon="5.89655">
        <ele>1147.2</ele>
        <time>2011-11-29T15:57:35Z</time>
      </trkpt>
      <trkpt lat="45.0084" lon="5.89665">
        <ele>1146.2</ele>
        <time>2011-11-29T15:57:43Z</time>
      </trkpt>
      <trkpt lat="45.00845" lon="5.89675">
        <ele>1144.9</ele>
        <time>2011-11-29T15:57:52Z</time>
      </trkpt>
      <trkpt lat="45.0085" lon="5.89685">
        <ele>1144.2</ele>
        <time>2011-11-29T15:58:01Z</time>
      </trkpt>
      <trkpt lat="45.00854" lon="5.89695">
        <ele>1142.6</ele>
        <time>2011-11-29T15:58:08Z</time>
      </trkpt>
      <trkpt lat="45.00855" lon="5.89697">
        <ele>1142.4</ele>
        <time>2011-11-29T15:58:09Z</time>
      </trkpt>
      <trkpt lat="45.00868" lon="5.89707">
        <ele>1140.7</ele>
        <time>2011-11-29T15:58:27Z</time>
      </trkpt>
      <trkpt lat="45.00875" lon="5.89701">
        <ele>1138.6</ele>
        <time>2011-11-29T15:58:35Z</time>
      </trkpt>
      <trkpt lat="45.00881" lon="5.89693">
        <ele>1137.6</ele>
        <time>2011-11-29T15:58:45Z</time>
      </trkpt>
      <trkpt lat="45.00883" lon="5.8968">
        <ele>1135.4</ele>
        <time>2011-11-29T15:58:56Z</time>
      </trkpt>
      <trkpt lat="45.00887" lon="5.8967">
        <ele>1135.6</ele>
        <time>2011-11-29T15:59:05Z</time>
      </trkpt>
      <trkpt lat="45.00891" lon="5.89658">
        <ele>1134.4</ele>
        <time>2011-11-29T15:59:12Z</time>
      </trkpt>
      <trkpt lat="45.00891" lon="5.89657">
        <ele>1134.4</ele>
        <time>2011-11-29T15:59:13Z</time>
      </trkpt>
      <trkpt lat="45.00901" lon="5.8964">
        <ele>1131</ele>
        <time>2011-11-29T15:59:29Z</time>
      </trkpt>
      <trkpt lat="45.00907" lon="5.89631">
        <ele>1129.9</ele>
        <time>2011-11-29T15:59:38Z</time>
      </trkpt>
      <trkpt lat="45.00913" lon="5.89622">
        <ele>1130.2</ele>
        <time>2011-11-29T15:59:45Z</time>
      </trkpt>
      <trkpt lat="45.00918" lon="5.89614">
        <ele>1130.2</ele>
        <time>2011-11-29T15:59:53Z</time>
      </trkpt>
      <trkpt lat="45.00924" lon="5.89605">
        <ele>1129</ele>
        <time>2011-11-29T16:00:01Z</time>
      </trkpt>
      <trkpt lat="45.00931" lon="5.89597">
        <ele>1129.3</ele>
        <time>2011-11-29T16:00:12Z</time>
      </trkpt>
      <trkpt lat="45.00937" lon="5.8959">
        <ele>1130.2</ele>
        <time>2011-11-29T16:00:19Z</time>
      </trkpt>
      <trkpt lat="45.00938" lon="5.89589">
        <ele>1130.4</ele>
        <time>2011-11-29T16:00:20Z</time>
      </trkpt>
      <trkpt lat="45.0095" lon="5.8958">
        <ele>1130</ele>
        <time>2011-11-29T16:00:36Z</time>
      </trkpt>
      <trkpt lat="45.00958" lon="5.89587">
        <ele>1129.3</ele>
        <time>2011-11-29T16:00:46Z</time>
      </trkpt>
      <trkpt lat="45.00963" lon="5.89596">
        <ele>1129.8</ele>
        <time>2011-11-29T16:00:55Z</time>
      </trkpt>
      <trkpt lat="45.00967" lon="5.89605">
        <ele>1129.5</ele>
        <time>2011-11-29T16:01:02Z</time>
      </trkpt>
      <trkpt lat="45.00972" lon="5.89615">
        <ele>1129.7</ele>
        <time>2011-11-29T16:01:11Z</time>
      </trkpt>
      <trkpt lat="45.00978" lon="5.89623">
        <ele>1130.6</ele>
        <time>2011-11-29T16:01:19Z</time>
      </trkpt>
      <trkpt lat="45.00982" lon="5.89633">
        <ele>1130.1</ele>
        <time>2011-11-29T16:01:27Z</time>
      </trkpt>
      <trkpt lat="45.00983" lon="5.89634">
        <ele>1130.3</ele>
        <time>2011-11-29T16:01:28Z</time>
      </trkpt>
      <trkpt lat="45.00991" lon="5.89653">
        <ele>1132.1</ele>
        <time>2011-11-29T16:01:43Z</time>
      </trkpt>
      <trkpt lat="45.00997" lon="5.89662">
        <ele>1131.2</ele>
        <time>2011-11-29T16:01:51Z</time>
      </trkpt>
      <trkpt lat="45.01001" lon="5.89672">
        <ele>1131.6</ele>
        <time>2011-11-29T16:01:58Z</time>
      </trkpt>
      <trkpt lat="45.01005" lon="5.89683">
        <ele>1132.2</ele>
        <time>2011-11-29T16:02:06Z</time>
      </trkpt>
      <trkpt lat="45.01009" lon="5.89694">
        <ele>1132.4</ele>
        <time>2011-11-29T16:02:14Z</time>
      </trkpt>
      <trkpt lat="45.01013" lon="5.89704">
        <ele>1132.9</ele>
        <time>2011-11-29T16:02:22Z</time>
      </trkpt>
      <trkpt lat="45.0102" lon="5.89711">
        <ele>1132</ele>
        <time>2011-11-29T16:02:29Z</time>
      </trkpt>
      <trkpt lat="45.01021" lon="5.89712">
        <ele>1132.1</ele>
        <time>2011-11-29T16:02:30Z</time>
      </trkpt>
      <trkpt lat="45.01035" lon="5.89723">
        <ele>1132.7</ele>
        <time>2011-11-29T16:02:50Z</time>
      </trkpt>
      <trkpt lat="45.01037" lon="5.89734">
        <ele>1134.2</ele>
        <time>2011-11-29T16:02:59Z</time>
      </trkpt>
      <trkpt lat="45.01039" lon="5.89746">
        <ele>1135.5</ele>
        <time>2011-11-29T16:03:07Z</time>
      </trkpt>
      <trkpt lat="45.0104" lon="5.89759">
        <ele>1135.5</ele>
        <time>2011-11-29T16:03:16Z</time>
      </trkpt>
      <trkpt lat="45.01041" lon="5.89771">
        <ele>1135.8</ele>
        <time>2011-11-29T16:03:23Z</time>
      </trkpt>
      <trkpt lat="45.01042" lon="5.89782">
        <ele>1136.1</ele>
        <time>2011-11-29T16:03:29Z</time>
      </trkpt>
      <trkpt lat="45.01044" lon="5.89794">
        <ele>1136.8</ele>
        <time>2011-11-29T16:03:37Z</time>
      </trkpt>
      <trkpt lat="45.01044" lon="5.89795">
        <ele>1136.9</ele>
        <time>2011-11-29T16:03:38Z</time>
      </trkpt>
      <trkpt lat="45.01045" lon="5.89816">
        <ele>1137.5</ele>
        <time>2011-11-29T16:03:53Z</time>
      </trkpt>
      <trkpt lat="45.01045" lon="5.89828">
        <ele>1137.7</ele>
        <time>2011-11-29T16:04:00Z</time>
      </trkpt>
      <trkpt lat="45.01046" lon="5.89839">
        <ele>1138.1</ele>
        <time>2011-11-29T16:04:06Z</time>
      </trkpt>
      <trkpt lat="45.01047" lon="5.8985">
        <ele>1138.9</ele>
        <time>2011-11-29T16:04:12Z</time>
      </trkpt>
      <trkpt lat="45.01048" lon="5.89861">
        <ele>1139.5</ele>
        <time>2011-11-29T16:04:19Z</time>
      </trkpt>
      <trkpt lat="45.01049" lon="5.89873">
        <ele>1139.2</ele>
        <time>2011-11-29T16:04:26Z</time>
      </trkpt>
      <trkpt lat="45.01051" lon="5.89885">
        <ele>1139.1</ele>
        <time>2011-11-29T16:04:34Z</time>
      </trkpt>
      <trkpt lat="45.01052" lon="5.89897">
        <ele>1138.4</ele>
        <time>2011-11-29T16:04:43Z</time>
      </trkpt>
      <trkpt lat="45.01052" lon="5.89899">
        <ele>1138.6</ele>
        <time>2011-11-29T16:04:44Z</time>
      </trkpt>
      <trkpt lat="45.01056" lon="5.89922">
        <ele>1140.4</ele>
        <time>2011-11-29T16:04:58Z</time>
      </trkpt>
      <trkpt lat="45.01057" lon="5.89934">
        <ele>1140.6</ele>
        <time>2011-11-29T16:05:06Z</time>
      </trkpt>
      <trkpt lat="45.01058" lon="5.89946">
        <ele>1140.7</ele>
        <time>2011-11-29T16:05:14Z</time>
      </trkpt>
      <trkpt lat="45.0106" lon="5.89957">
        <ele>1140.8</ele>
        <time>2011-11-29T16:05:22Z</time>
      </trkpt>
      <trkpt lat="45.01063" lon="5.89968">
        <ele>1141.6</ele>
        <time>2011-11-29T16:05:30Z</time>
      </trkpt>
      <trkpt lat="45.01067" lon="5.89979">
        <ele>1141.8</ele>
        <time>2011-11-29T16:05:38Z</time>
      </trkpt>
      <trkpt lat="45.0107" lon="5.89991">
        <ele>1142</ele>
        <time>2011-11-29T16:05:45Z</time>
      </trkpt>
      <trkpt lat="45.0107" lon="5.89992">
        <ele>1142.3</ele>
        <time>2011-11-29T16:05:46Z</time>
      </trkpt>
      <trkpt lat="45.01078" lon="5.90011">
        <ele>1142.2</ele>
        <time>2011-11-29T16:05:58Z</time>
      </trkpt>
      <trkpt lat="45.01081" lon="5.90022">
        <ele>1142.7</ele>
        <time>2011-11-29T16:06:05Z</time>
      </trkpt>
      <trkpt lat="45.01083" lon="5.90034">
        <ele>1141.7</ele>
        <time>2011-11-29T16:06:12Z</time>
      </trkpt>
      <trkpt lat="45.01085" lon="5.90046">
        <ele>1142.6</ele>
        <time>2011-11-29T16:06:21Z</time>
      </trkpt>
      <trkpt lat="45.01087" lon="5.90058">
        <ele>1143.3</ele>
        <time>2011-11-29T16:06:29Z</time>
      </trkpt>
      <trkpt lat="45.01087" lon="5.90069">
        <ele>1143.6</ele>
        <time>2011-11-29T16:06:36Z</time>
      </trkpt>
      <trkpt lat="45.01089" lon="5.90081">
        <ele>1143.1</ele>
        <time>2011-11-29T16:06:44Z</time>
      </trkpt>
      <trkpt lat="45.01091" lon="5.90092">
        <ele>1143.4</ele>
        <time>2011-11-29T16:06:50Z</time>
      </trkpt>
      <trkpt lat="45.01091" lon="5.90094">
        <ele>1143.9</ele>
        <time>2011-11-29T16:06:51Z</time>
      </trkpt>
      <trkpt lat="45.01093" lon="5.90114">
        <ele>1144.5</ele>
        <time>2011-11-29T16:07:02Z</time>
      </trkpt>
      <trkpt lat="45.01095" lon="5.90125">
        <ele>1145.2</ele>
        <time>2011-11-29T16:07:08Z</time>
      </trkpt>
      <trkpt lat="45.01096" lon="5.90137">
        <ele>1144.3</ele>
        <time>2011-11-29T16:07:15Z</time>
      </trkpt>
      <trkpt lat="45.01097" lon="5.90149">
        <ele>1143.7</ele>
        <time>2011-11-29T16:07:21Z</time>
      </trkpt>
      <trkpt lat="45.01098" lon="5.9016">
        <ele>1144.3</ele>
        <time>2011-11-29T16:07:27Z</time>
      </trkpt>
      <trkpt lat="45.01099" lon="5.90173">
        <ele>1145</ele>
        <time>2011-11-29T16:07:34Z</time>
      </trkpt>
      <trkpt lat="45.011" lon="5.90184">
        <ele>1145.8</ele>
        <time>2011-11-29T16:07:41Z</time>
      </trkpt>
      <trkpt lat="45.01102" lon="5.90196">
        <ele>1146.1</ele>
        <time>2011-11-29T16:07:49Z</time>
      </trkpt>
      <trkpt lat="45.01102" lon="5.90208">
        <ele>1146.3</ele>
        <time>2011-11-29T16:07:56Z</time>
      </trkpt>
      <trkpt lat="45.01103" lon="5.9021">
        <ele>1146.3</ele>
        <time>2011-11-29T16:07:57Z</time>
      </trkpt>
      <trkpt lat="45.01104" lon="5.90232">
        <ele>1147.5</ele>
        <time>2011-11-29T16:08:13Z</time>
      </trkpt>
      <trkpt lat="45.01105" lon="5.90244">
        <ele>1148.5</ele>
        <time>2011-11-29T16:08:22Z</time>
      </trkpt>
      <trkpt lat="45.01106" lon="5.90256">
        <ele>1149.6</ele>
        <time>2011-11-29T16:08:30Z</time>
      </trkpt>
      <trkpt lat="45.01108" lon="5.90268">
        <ele>1150.3</ele>
        <time>2011-11-29T16:08:40Z</time>
      </trkpt>
      <trkpt lat="45.01108" lon="5.9028">
        <ele>1150.8</ele>
        <time>2011-11-29T16:08:48Z</time>
      </trkpt>
      <trkpt lat="45.01109" lon="5.90292">
        <ele>1151.7</ele>
        <time>2011-11-29T16:08:55Z</time>
      </trkpt>
      <trkpt lat="45.0111" lon="5.90304">
        <ele>1152.3</ele>
        <time>2011-11-29T16:09:04Z</time>
      </trkpt>
      <trkpt lat="45.0111" lon="5.90305">
        <ele>1152.5</ele>
        <time>2011-11-29T16:09:05Z</time>
      </trkpt>
      <trkpt lat="45.01111" lon="5.90328">
        <ele>1154.2</ele>
        <time>2011-11-29T16:09:19Z</time>
      </trkpt>
      <trkpt lat="45.01112" lon="5.90339">
        <ele>1154.7</ele>
        <time>2011-11-29T16:09:24Z</time>
      </trkpt>
      <trkpt lat="45.01113" lon="5.9035">
        <ele>1155.8</ele>
        <time>2011-11-29T16:09:31Z</time>
      </trkpt>
      <trkpt lat="45.01115" lon="5.90362">
        <ele>1155.9</ele>
        <time>2011-11-29T16:09:39Z</time>
      </trkpt>
      <trkpt lat="45.01116" lon="5.90373">
        <ele>1156.7</ele>
        <time>2011-11-29T16:09:46Z</time>
      </trkpt>
      <trkpt lat="45.01118" lon="5.90384">
        <ele>1157.5</ele>
        <time>2011-11-29T16:09:52Z</time>
      </trkpt>
      <trkpt lat="45.0112" lon="5.90396">
        <ele>1158.1</ele>
        <time>2011-11-29T16:10:00Z</time>
      </trkpt>
      <trkpt lat="45.01119" lon="5.90407">
        <ele>1158.8</ele>
        <time>2011-11-29T16:10:08Z</time>
      </trkpt>
      <trkpt lat="45.01119" lon="5.90409">
        <ele>1158.8</ele>
        <time>2011-11-29T16:10:09Z</time>
      </trkpt>
      <trkpt lat="45.01121" lon="5.90431">
        <ele>1161.2</ele>
        <time>2011-11-29T16:10:27Z</time>
      </trkpt>
      <trkpt lat="45.01118" lon="5.90442">
        <ele>1161.8</ele>
        <time>2011-11-29T16:10:34Z</time>
      </trkpt>
      <trkpt lat="45.01115" lon="5.90452">
        <ele>1162.1</ele>
        <time>2011-11-29T16:10:40Z</time>
      </trkpt>
      <trkpt lat="45.01111" lon="5.90462">
        <ele>1162</ele>
        <time>2011-11-29T16:10:46Z</time>
      </trkpt>
      <trkpt lat="45.01106" lon="5.90473">
        <ele>1163</ele>
        <time>2011-11-29T16:10:54Z</time>
      </trkpt>
      <trkpt lat="45.01102" lon="5.90482">
        <ele>1163.3</ele>
        <time>2011-11-29T16:11:00Z</time>
      </trkpt>
      <trkpt lat="45.01097" lon="5.90491">
        <ele>1164.3</ele>
        <time>2011-11-29T16:11:07Z</time>
      </trkpt>
      <trkpt lat="45.01094" lon="5.90503">
        <ele>1165.1</ele>
        <time>2011-11-29T16:11:13Z</time>
      </trkpt>
      <trkpt lat="45.01094" lon="5.90504">
        <ele>1165.3</ele>
        <time>2011-11-29T16:11:14Z</time>
      </trkpt>
      <trkpt lat="45.01089" lon="5.90526">
        <ele>1166.7</ele>
        <time>2011-11-29T16:11:26Z</time>
      </trkpt>
      <trkpt lat="45.01087" lon="5.90536">
        <ele>1166</ele>
        <time>2011-11-29T16:11:33Z</time>
      </trkpt>
      <trkpt lat="45.01086" lon="5.90549">
        <ele>1165.2</ele>
        <time>2011-11-29T16:11:40Z</time>
      </trkpt>
      <trkpt lat="45.01084" lon="5.9056">
        <ele>1166.1</ele>
        <time>2011-11-29T16:11:48Z</time>
      </trkpt>
      <trkpt lat="45.01084" lon="5.90572">
        <ele>1166.6</ele>
        <time>2011-11-29T16:11:55Z</time>
      </trkpt>
      <trkpt lat="45.01084" lon="5.90584">
        <ele>1167</ele>
        <time>2011-11-29T16:12:03Z</time>
      </trkpt>
      <trkpt lat="45.01085" lon="5.90596">
        <ele>1167.7</ele>
        <time>2011-11-29T16:12:10Z</time>
      </trkpt>
      <trkpt lat="45.01086" lon="5.90607">
        <ele>1168.3</ele>
        <time>2011-11-29T16:12:16Z</time>
      </trkpt>
      <trkpt lat="45.01086" lon="5.90609">
        <ele>1168.2</ele>
        <time>2011-11-29T16:12:17Z</time>
      </trkpt>
      <trkpt lat="45.0109" lon="5.90631">
        <ele>1170.2</ele>
        <time>2011-11-29T16:12:30Z</time>
      </trkpt>
      <trkpt lat="45.01092" lon="5.90642">
        <ele>1171.2</ele>
        <time>2011-11-29T16:12:44Z</time>
      </trkpt>
      <trkpt lat="45.01096" lon="5.90652">
        <ele>1171.6</ele>
        <time>2011-11-29T16:12:54Z</time>
      </trkpt>
      <trkpt lat="45.011" lon="5.90663">
        <ele>1173.1</ele>
        <time>2011-11-29T16:13:02Z</time>
      </trkpt>
      <trkpt lat="45.01103" lon="5.90673">
        <ele>1173.6</ele>
        <time>2011-11-29T16:13:09Z</time>
      </trkpt>
      <trkpt lat="45.01106" lon="5.90684">
        <ele>1175.8</ele>
        <time>2011-11-29T16:13:17Z</time>
      </trkpt>
      <trkpt lat="45.01107" lon="5.90686">
        <ele>1175.9</ele>
        <time>2011-11-29T16:13:18Z</time>
      </trkpt>
      <trkpt lat="45.01115" lon="5.90705">
        <ele>1176.5</ele>
        <time>2011-11-29T16:13:30Z</time>
      </trkpt>
      <trkpt lat="45.0112" lon="5.90715">
        <ele>1177.4</ele>
        <time>2011-11-29T16:13:37Z</time>
      </trkpt>
      <trkpt lat="45.01125" lon="5.90725">
        <ele>1178.6</ele>
        <time>2011-11-29T16:13:45Z</time>
      </trkpt>
      <trkpt lat="45.01129" lon="5.90735">
        <ele>1179.9</ele>
        <time>2011-11-29T16:13:54Z</time>
      </trkpt>
      <trkpt lat="45.01134" lon="5.90745">
        <ele>1180.1</ele>
        <time>2011-11-29T16:14:03Z</time>
      </trkpt>
      <trkpt lat="45.01139" lon="5.90756">
        <ele>1181.7</ele>
        <time>2011-11-29T16:14:12Z</time>
      </trkpt>
      <trkpt lat="45.01143" lon="5.90767">
        <ele>1182.5</ele>
        <time>2011-11-29T16:14:20Z</time>
      </trkpt>
      <trkpt lat="45.01144" lon="5.90768">
        <ele>1182.6</ele>
        <time>2011-11-29T16:14:21Z</time>
      </trkpt>
      <trkpt lat="45.01152" lon="5.90789">
        <ele>1185.4</ele>
        <time>2011-11-29T16:14:39Z</time>
      </trkpt>
      <trkpt lat="45.01149" lon="5.90799">
        <ele>1184.5</ele>
        <time>2011-11-29T16:14:46Z</time>
      </trkpt>
      <trkpt lat="45.01144" lon="5.90808">
        <ele>1185.4</ele>
        <time>2011-11-29T16:14:52Z</time>
      </trkpt>
      <trkpt lat="45.01137" lon="5.90816">
        <ele>1184.8</ele>
        <time>2011-11-29T16:15:00Z</time>
      </trkpt>
      <trkpt lat="45.01129" lon="5.9082">
        <ele>1184.8</ele>
        <time>2011-11-29T16:15:08Z</time>
      </trkpt>
      <trkpt lat="45.01121" lon="5.90823">
        <ele>1184.7</ele>
        <time>2011-11-29T16:15:16Z</time>
      </trkpt>
      <trkpt lat="45.01112" lon="5.90825">
        <ele>1187.4</ele>
        <time>2011-11-29T16:15:25Z</time>
      </trkpt>
      <trkpt lat="45.01112" lon="5.90825">
        <ele>1187.7</ele>
        <time>2011-11-29T16:15:26Z</time>
      </trkpt>
      <trkpt lat="45.01098" lon="5.90838">
        <ele>1189.6</ele>
        <time>2011-11-29T16:15:43Z</time>
      </trkpt>
      <trkpt lat="45.01091" lon="5.90846">
        <ele>1188.8</ele>
        <time>2011-11-29T16:15:51Z</time>
      </trkpt>
      <trkpt lat="45.01085" lon="5.90853">
        <ele>1189.6</ele>
        <time>2011-11-29T16:15:59Z</time>
      </trkpt>
      <trkpt lat="45.01078" lon="5.90859">
        <ele>1190.5</ele>
        <time>2011-11-29T16:16:06Z</time>
      </trkpt>
      <trkpt lat="45.01071" lon="5.90866">
        <ele>1191.1</ele>
        <time>2011-11-29T16:16:14Z</time>
      </trkpt>
      <trkpt lat="45.01065" lon="5.90874">
        <ele>1192.5</ele>
        <time>2011-11-29T16:16:23Z</time>
      </trkpt>
      <trkpt lat="45.0106" lon="5.90884">
        <ele>1193.9</ele>
        <time>2011-11-29T16:16:31Z</time>
      </trkpt>
      <trkpt lat="45.0106" lon="5.90885">
        <ele>1193.7</ele>
        <time>2011-11-29T16:16:32Z</time>
      </trkpt>
      <trkpt lat="45.0106" lon="5.90908">
        <ele>1196.1</ele>
        <time>2011-11-29T16:16:51Z</time>
      </trkpt>
      <trkpt lat="45.01061" lon="5.90919">
        <ele>1197.2</ele>
        <time>2011-11-29T16:17:00Z</time>
      </trkpt>
      <trkpt lat="45.01063" lon="5.90931">
        <ele>1197.9</ele>
        <time>2011-11-29T16:17:07Z</time>
      </trkpt>
      <trkpt lat="45.01064" lon="5.90944">
        <ele>1198.3</ele>
        <time>2011-11-29T16:17:16Z</time>
      </trkpt>
      <trkpt lat="45.01064" lon="5.90956">
        <ele>1199.2</ele>
        <time>2011-11-29T16:17:23Z</time>
      </trkpt>
      <trkpt lat="45.01064" lon="5.90968">
        <ele>1199.3</ele>
        <time>2011-11-29T16:17:30Z</time>
      </trkpt>
      <trkpt lat="45.01065" lon="5.90979">
        <ele>1199.2</ele>
        <time>2011-11-29T16:17:36Z</time>
      </trkpt>
      <trkpt lat="45.01065" lon="5.90981">
        <ele>1199.1</ele>
        <time>2011-11-29T16:17:37Z</time>
      </trkpt>
      <trkpt lat="45.0106" lon="5.91002">
        <ele>1199.6</ele>
        <time>2011-11-29T16:18:56Z</time>
      </trkpt>
      <trkpt lat="45.0106" lon="5.91003">
        <ele>1199.4</ele>
        <time>2011-11-29T16:18:57Z</time>
      </trkpt>
      <trkpt lat="45.01063" lon="5.91025">
        <ele>1201.2</ele>
        <time>2011-11-29T16:19:11Z</time>
      </trkpt>
      <trkpt lat="45.01062" lon="5.91038">
        <ele>1201.2</ele>
        <time>2011-11-29T16:19:19Z</time>
      </trkpt>
      <trkpt lat="45.01062" lon="5.91048">
        <ele>1201.2</ele>
        <time>2011-11-29T16:19:25Z</time>
      </trkpt>
      <trkpt lat="45.01061" lon="5.9106">
        <ele>1201.7</ele>
        <time>2011-11-29T16:19:31Z</time>
      </trkpt>
      <trkpt lat="45.01058" lon="5.9107">
        <ele>1202.1</ele>
        <time>2011-11-29T16:19:37Z</time>
      </trkpt>
      <trkpt lat="45.01056" lon="5.91081">
        <ele>1201.3</ele>
        <time>2011-11-29T16:19:43Z</time>
      </trkpt>
      <trkpt lat="45.01053" lon="5.91092">
        <ele>1201.5</ele>
        <time>2011-11-29T16:19:49Z</time>
      </trkpt>
      <trkpt lat="45.0105" lon="5.91104">
        <ele>1201.7</ele>
        <time>2011-11-29T16:19:56Z</time>
      </trkpt>
      <trkpt lat="45.01049" lon="5.91114">
        <ele>1202</ele>
        <time>2011-11-29T16:20:02Z</time>
      </trkpt>
      <trkpt lat="45.01049" lon="5.91116">
        <ele>1201.8</ele>
        <time>2011-11-29T16:20:03Z</time>
      </trkpt>
      <trkpt lat="45.01045" lon="5.91137">
        <ele>1202.7</ele>
        <time>2011-11-29T16:20:14Z</time>
      </trkpt>
      <trkpt lat="45.01043" lon="5.91148">
        <ele>1202.3</ele>
        <time>2011-11-29T16:20:21Z</time>
      </trkpt>
      <trkpt lat="45.01041" lon="5.9116">
        <ele>1202.7</ele>
        <time>2011-11-29T16:20:28Z</time>
      </trkpt>
      <trkpt lat="45.01039" lon="5.91172">
        <ele>1202.5</ele>
        <time>2011-11-29T16:20:34Z</time>
      </trkpt>
      <trkpt lat="45.01036" lon="5.91184">
        <ele>1202.1</ele>
        <time>2011-11-29T16:20:41Z</time>
      </trkpt>
      <trkpt lat="45.01035" lon="5.91195">
        <ele>1202.6</ele>
        <time>2011-11-29T16:20:47Z</time>
      </trkpt>
      <trkpt lat="45.01032" lon="5.91207">
        <ele>1202.7</ele>
        <time>2011-11-29T16:20:54Z</time>
      </trkpt>
      <trkpt lat="45.01026" lon="5.91216">
        <ele>1203.2</ele>
        <time>2011-11-29T16:21:02Z</time>
      </trkpt>
      <trkpt lat="45.01021" lon="5.91225">
        <ele>1203.2</ele>
        <time>2011-11-29T16:21:09Z</time>
      </trkpt>
      <trkpt lat="45.0102" lon="5.91226">
        <ele>1203.5</ele>
        <time>2011-11-29T16:21:10Z</time>
      </trkpt>
      <trkpt lat="45.01011" lon="5.91244">
        <ele>1205.1</ele>
        <time>2011-11-29T16:21:22Z</time>
      </trkpt>
      <trkpt lat="45.01009" lon="5.91254">
        <ele>1205.1</ele>
        <time>2011-11-29T16:21:28Z</time>
      </trkpt>
      <trkpt lat="45.01007" lon="5.91265">
        <ele>1206.5</ele>
        <time>2011-11-29T16:21:34Z</time>
      </trkpt>
      <trkpt lat="45.01003" lon="5.91275">
        <ele>1206.9</ele>
        <time>2011-11-29T16:21:41Z</time>
      </trkpt>
      <trkpt lat="45.00997" lon="5.91284">
        <ele>1207.1</ele>
        <time>2011-11-29T16:21:49Z</time>
      </trkpt>
      <trkpt lat="45.00992" lon="5.91292">
        <ele>1207.5</ele>
        <time>2011-11-29T16:21:56Z</time>
      </trkpt>
      <trkpt lat="45.00986" lon="5.91301">
        <ele>1208.9</ele>
        <time>2011-11-29T16:22:03Z</time>
      </trkpt>
      <trkpt lat="45.00981" lon="5.91311">
        <ele>1208.9</ele>
        <time>2011-11-29T16:22:09Z</time>
      </trkpt>
      <trkpt lat="45.00976" lon="5.9132">
        <ele>1209.5</ele>
        <time>2011-11-29T16:22:15Z</time>
      </trkpt>
      <trkpt lat="45.00976" lon="5.91322">
        <ele>1209.3</ele>
        <time>2011-11-29T16:22:16Z</time>
      </trkpt>
      <trkpt lat="45.00972" lon="5.91344">
        <ele>1209.9</ele>
        <time>2011-11-29T16:22:26Z</time>
      </trkpt>
      <trkpt lat="45.0097" lon="5.91355">
        <ele>1209.2</ele>
        <time>2011-11-29T16:22:33Z</time>
      </trkpt>
      <trkpt lat="45.00967" lon="5.91365">
        <ele>1210.3</ele>
        <time>2011-11-29T16:22:39Z</time>
      </trkpt>
      <trkpt lat="45.00963" lon="5.91377">
        <ele>1209.6</ele>
        <time>2011-11-29T16:22:47Z</time>
      </trkpt>
      <trkpt lat="45.00963" lon="5.91389">
        <ele>1209.4</ele>
        <time>2011-11-29T16:22:54Z</time>
      </trkpt>
      <trkpt lat="45.00964" lon="5.91401">
        <ele>1209.5</ele>
        <time>2011-11-29T16:23:01Z</time>
      </trkpt>
      <trkpt lat="45.00963" lon="5.91412">
        <ele>1210.6</ele>
        <time>2011-11-29T16:23:08Z</time>
      </trkpt>
      <trkpt lat="45.0096" lon="5.91423">
        <ele>1210.1</ele>
        <time>2011-11-29T16:23:14Z</time>
      </trkpt>
      <trkpt lat="45.00958" lon="5.91434">
        <ele>1210.8</ele>
        <time>2011-11-29T16:23:20Z</time>
      </trkpt>
      <trkpt lat="45.00957" lon="5.91436">
        <ele>1211</ele>
        <time>2011-11-29T16:23:21Z</time>
      </trkpt>
      <trkpt lat="45.00953" lon="5.91455">
        <ele>1210.9</ele>
        <time>2011-11-29T16:23:30Z</time>
      </trkpt>
      <trkpt lat="45.0095" lon="5.91466">
        <ele>1210.8</ele>
        <time>2011-11-29T16:23:36Z</time>
      </trkpt>
      <trkpt lat="45.00948" lon="5.91471">
        <ele>1212.5</ele>
        <time>2011-11-29T16:23:59Z</time>
      </trkpt>
      <trkpt lat="45.00948" lon="5.91471">
        <ele>1212.5</ele>
        <time>2011-11-29T16:23:59Z</time>
      </trkpt>
    </trkseg>
  </trk>
</gpx>